<?xml version="1.0" encoding="UTF-8" standalone="no" ?>
<gpx xmlns="http://www.topografix.com/GPX/1/1" xmlns:xsi="http://www.w3.org/2001/XMLSchema-instance" xsi:schemaLocation="http://www.topografix.com/GPX/1/1 http://www.topografix.com/GPX/1/1/gpx.xsd" version="1.1" creator="VisuGPX - https://www.visugpx.com">
  <metadata>
    <name>VTT Col de Clapouse depuis Bayons</name>
    <desc><![CDATA[Petites routes , pistes forestières puis beaux sentiers pour ce circuit un peu long mais sans difficultés techniques  de 4/5 heures ( les temps donnés par le site sont erronés) , au travers de la jolie forêt de sapins et melezes puis la belle montagne à vaches, moutons et marmottes des Monges Une petite poussette à l\'arrivée au col avant une descente relax dans les paturages et la forêt ]]></desc>
  </metadata>
  <trk>
    <name><![CDATA[Col de Clapouse depuis Bayons]]></name>
    <trkseg>
      <trkpt lat="44.32544" lon="6.13932">
        <ele>897.047363</ele>
        <time>2011-09-08T12:14:18Z</time>
      </trkpt>
      <trkpt lat="44.32556" lon="6.13925">
        <ele>895.124756</ele>
        <time>2011-09-08T12:14:20Z</time>
      </trkpt>
      <trkpt lat="44.32586" lon="6.13931">
        <ele>895.124756</ele>
        <time>2011-09-08T12:14:23Z</time>
      </trkpt>
      <trkpt lat="44.32598" lon="6.1394">
        <ele>893.682861</ele>
        <time>2011-09-08T12:14:26Z</time>
      </trkpt>
      <trkpt lat="44.32608" lon="6.13947">
        <ele>891.76001</ele>
        <time>2011-09-08T12:14:28Z</time>
      </trkpt>
      <trkpt lat="44.32613" lon="6.13951">
        <ele>891.279297</ele>
        <time>2011-09-08T12:14:29Z</time>
      </trkpt>
      <trkpt lat="44.32629" lon="6.13963">
        <ele>889.837402</ele>
        <time>2011-09-08T12:14:33Z</time>
      </trkpt>
      <trkpt lat="44.32642" lon="6.13973">
        <ele>888.395508</ele>
        <time>2011-09-08T12:14:35Z</time>
      </trkpt>
      <trkpt lat="44.32649" lon="6.13978">
        <ele>886.953369</ele>
        <time>2011-09-08T12:14:36Z</time>
      </trkpt>
      <trkpt lat="44.32667" lon="6.13989">
        <ele>885.992188</ele>
        <time>2011-09-08T12:14:39Z</time>
      </trkpt>
      <trkpt lat="44.32694" lon="6.13962">
        <ele>883.588867</ele>
        <time>2011-09-08T12:14:44Z</time>
      </trkpt>
      <trkpt lat="44.32717" lon="6.13957">
        <ele>881.66626</ele>
        <time>2011-09-08T12:14:46Z</time>
      </trkpt>
      <trkpt lat="44.32744" lon="6.1398">
        <ele>878.301758</ele>
        <time>2011-09-08T12:14:50Z</time>
      </trkpt>
      <trkpt lat="44.32752" lon="6.13986">
        <ele>878.301758</ele>
        <time>2011-09-08T12:14:51Z</time>
      </trkpt>
      <trkpt lat="44.32751" lon="6.14014">
        <ele>876.859863</ele>
        <time>2011-09-08T12:14:53Z</time>
      </trkpt>
      <trkpt lat="44.32789" lon="6.14023">
        <ele>874.456299</ele>
        <time>2011-09-08T12:14:58Z</time>
      </trkpt>
      <trkpt lat="44.32809" lon="6.14003">
        <ele>869.169189</ele>
        <time>2011-09-08T12:15:04Z</time>
      </trkpt>
      <trkpt lat="44.32825" lon="6.13972">
        <ele>866.765869</ele>
        <time>2011-09-08T12:15:07Z</time>
      </trkpt>
      <trkpt lat="44.32886" lon="6.13937">
        <ele>862.920654</ele>
        <time>2011-09-08T12:15:13Z</time>
      </trkpt>
      <trkpt lat="44.32934" lon="6.13904">
        <ele>860.036621</ele>
        <time>2011-09-08T12:15:17Z</time>
      </trkpt>
      <trkpt lat="44.3295" lon="6.13888">
        <ele>857.633301</ele>
        <time>2011-09-08T12:15:19Z</time>
      </trkpt>
      <trkpt lat="44.33001" lon="6.13843">
        <ele>854.268799</ele>
        <time>2011-09-08T12:15:25Z</time>
      </trkpt>
      <trkpt lat="44.32985" lon="6.13826">
        <ele>850.423584</ele>
        <time>2011-09-08T12:15:31Z</time>
      </trkpt>
      <trkpt lat="44.32984" lon="6.13821">
        <ele>850.423584</ele>
        <time>2011-09-08T12:15:32Z</time>
      </trkpt>
      <trkpt lat="44.32982" lon="6.1381">
        <ele>848.500732</ele>
        <time>2011-09-08T12:15:34Z</time>
      </trkpt>
      <trkpt lat="44.32977" lon="6.13785">
        <ele>845.13623</ele>
        <time>2011-09-08T12:15:38Z</time>
      </trkpt>
      <trkpt lat="44.3297" lon="6.13746">
        <ele>841.771484</ele>
        <time>2011-09-08T12:15:41Z</time>
      </trkpt>
      <trkpt lat="44.32968" lon="6.13728">
        <ele>841.771484</ele>
        <time>2011-09-08T12:15:42Z</time>
      </trkpt>
      <trkpt lat="44.32962" lon="6.13691">
        <ele>839.848877</ele>
        <time>2011-09-08T12:15:44Z</time>
      </trkpt>
      <trkpt lat="44.32951" lon="6.13637">
        <ele>835.04248</ele>
        <time>2011-09-08T12:15:47Z</time>
      </trkpt>
      <trkpt lat="44.32945" lon="6.13604">
        <ele>832.63916</ele>
        <time>2011-09-08T12:15:49Z</time>
      </trkpt>
      <trkpt lat="44.3294" lon="6.13577">
        <ele>830.23584</ele>
        <time>2011-09-08T12:15:52Z</time>
      </trkpt>
      <trkpt lat="44.3293" lon="6.13536">
        <ele>827.351807</ele>
        <time>2011-09-08T12:15:56Z</time>
      </trkpt>
      <trkpt lat="44.32933" lon="6.13526">
        <ele>826.871094</ele>
        <time>2011-09-08T12:15:57Z</time>
      </trkpt>
      <trkpt lat="44.32939" lon="6.13495">
        <ele>827.351807</ele>
        <time>2011-09-08T12:16:05Z</time>
      </trkpt>
      <trkpt lat="44.32973" lon="6.13447">
        <ele>826.871094</ele>
        <time>2011-09-08T12:16:09Z</time>
      </trkpt>
      <trkpt lat="44.32973" lon="6.13447">
        <ele>828.793945</ele>
        <time>2011-09-08T12:16:12Z</time>
      </trkpt>
      <trkpt lat="44.32973" lon="6.13447">
        <ele>828.313232</ele>
        <time>2011-09-08T12:16:13Z</time>
      </trkpt>
      <trkpt lat="44.32988" lon="6.13408">
        <ele>827.351807</ele>
        <time>2011-09-08T12:16:28Z</time>
      </trkpt>
      <trkpt lat="44.32988" lon="6.13408">
        <ele>826.871094</ele>
        <time>2011-09-08T12:16:33Z</time>
      </trkpt>
      <trkpt lat="44.33056" lon="6.13377">
        <ele>825.909668</ele>
        <time>2011-09-08T12:16:35Z</time>
      </trkpt>
      <trkpt lat="44.33059" lon="6.13376">
        <ele>825.909668</ele>
        <time>2011-09-08T12:16:37Z</time>
      </trkpt>
      <trkpt lat="44.33071" lon="6.1337">
        <ele>826.390381</ele>
        <time>2011-09-08T12:16:49Z</time>
      </trkpt>
      <trkpt lat="44.3309" lon="6.13389">
        <ele>829.274414</ele>
        <time>2011-09-08T12:16:56Z</time>
      </trkpt>
      <trkpt lat="44.33097" lon="6.13385">
        <ele>831.197266</ele>
        <time>2011-09-08T12:17:03Z</time>
      </trkpt>
      <trkpt lat="44.33097" lon="6.13385">
        <ele>831.197266</ele>
        <time>2011-09-08T12:17:11Z</time>
      </trkpt>
      <trkpt lat="44.33097" lon="6.13385">
        <ele>834.561768</ele>
        <time>2011-09-08T12:17:29Z</time>
      </trkpt>
      <trkpt lat="44.33097" lon="6.13385">
        <ele>835.522949</ele>
        <time>2011-09-08T12:17:31Z</time>
      </trkpt>
      <trkpt lat="44.33097" lon="6.13385">
        <ele>836.003662</ele>
        <time>2011-09-08T12:17:40Z</time>
      </trkpt>
      <trkpt lat="44.33097" lon="6.13385">
        <ele>838.406982</ele>
        <time>2011-09-08T12:17:51Z</time>
      </trkpt>
      <trkpt lat="44.33097" lon="6.13385">
        <ele>839.848877</ele>
        <time>2011-09-08T12:18:22Z</time>
      </trkpt>
      <trkpt lat="44.33097" lon="6.13385">
        <ele>840.32959</ele>
        <time>2011-09-08T12:18:35Z</time>
      </trkpt>
      <trkpt lat="44.33102" lon="6.13403">
        <ele>838.406982</ele>
        <time>2011-09-08T12:18:42Z</time>
      </trkpt>
      <trkpt lat="44.33102" lon="6.13404">
        <ele>841.290771</ele>
        <time>2011-09-08T12:18:48Z</time>
      </trkpt>
      <trkpt lat="44.3311" lon="6.13422">
        <ele>842.73291</ele>
        <time>2011-09-08T12:19:01Z</time>
      </trkpt>
      <trkpt lat="44.33128" lon="6.1348">
        <ele>844.655518</ele>
        <time>2011-09-08T12:19:15Z</time>
      </trkpt>
      <trkpt lat="44.33135" lon="6.13561">
        <ele>844.655518</ele>
        <time>2011-09-08T12:19:31Z</time>
      </trkpt>
      <trkpt lat="44.33145" lon="6.13637">
        <ele>846.578369</ele>
        <time>2011-09-08T12:19:48Z</time>
      </trkpt>
      <trkpt lat="44.33155" lon="6.13708">
        <ele>847.539551</ele>
        <time>2011-09-08T12:20:01Z</time>
      </trkpt>
      <trkpt lat="44.33158" lon="6.13738">
        <ele>847.539551</ele>
        <time>2011-09-08T12:20:06Z</time>
      </trkpt>
      <trkpt lat="44.33162" lon="6.13788">
        <ele>848.020264</ele>
        <time>2011-09-08T12:20:15Z</time>
      </trkpt>
      <trkpt lat="44.3317" lon="6.13901">
        <ele>847.539551</ele>
        <time>2011-09-08T12:20:35Z</time>
      </trkpt>
      <trkpt lat="44.33181" lon="6.13969">
        <ele>847.539551</ele>
        <time>2011-09-08T12:20:47Z</time>
      </trkpt>
      <trkpt lat="44.33179" lon="6.14054">
        <ele>847.539551</ele>
        <time>2011-09-08T12:21:02Z</time>
      </trkpt>
      <trkpt lat="44.3316" lon="6.14155">
        <ele>846.097656</ele>
        <time>2011-09-08T12:21:21Z</time>
      </trkpt>
      <trkpt lat="44.33136" lon="6.14224">
        <ele>846.097656</ele>
        <time>2011-09-08T12:21:35Z</time>
      </trkpt>
      <trkpt lat="44.33137" lon="6.14307">
        <ele>847.539551</ele>
        <time>2011-09-08T12:21:50Z</time>
      </trkpt>
      <trkpt lat="44.33141" lon="6.14361">
        <ele>848.020264</ele>
        <time>2011-09-08T12:22:02Z</time>
      </trkpt>
      <trkpt lat="44.33145" lon="6.14419">
        <ele>850.423584</ele>
        <time>2011-09-08T12:22:16Z</time>
      </trkpt>
      <trkpt lat="44.33162" lon="6.14477">
        <ele>851.384766</ele>
        <time>2011-09-08T12:22:30Z</time>
      </trkpt>
      <trkpt lat="44.33178" lon="6.14532">
        <ele>852.345947</ele>
        <time>2011-09-08T12:22:43Z</time>
      </trkpt>
      <trkpt lat="44.33201" lon="6.14582">
        <ele>853.788086</ele>
        <time>2011-09-08T12:22:56Z</time>
      </trkpt>
      <trkpt lat="44.33235" lon="6.14644">
        <ele>853.788086</ele>
        <time>2011-09-08T12:23:11Z</time>
      </trkpt>
      <trkpt lat="44.33261" lon="6.14716">
        <ele>853.307373</ele>
        <time>2011-09-08T12:23:25Z</time>
      </trkpt>
      <trkpt lat="44.33263" lon="6.14722">
        <ele>852.82666</ele>
        <time>2011-09-08T12:23:26Z</time>
      </trkpt>
      <trkpt lat="44.33267" lon="6.14754">
        <ele>852.82666</ele>
        <time>2011-09-08T12:23:31Z</time>
      </trkpt>
      <trkpt lat="44.33271" lon="6.14805">
        <ele>852.82666</ele>
        <time>2011-09-08T12:23:39Z</time>
      </trkpt>
      <trkpt lat="44.33286" lon="6.14881">
        <ele>852.345947</ele>
        <time>2011-09-08T12:23:51Z</time>
      </trkpt>
      <trkpt lat="44.33306" lon="6.14924">
        <ele>852.82666</ele>
        <time>2011-09-08T12:23:59Z</time>
      </trkpt>
      <trkpt lat="44.33317" lon="6.14941">
        <ele>852.82666</ele>
        <time>2011-09-08T12:24:03Z</time>
      </trkpt>
      <trkpt lat="44.33353" lon="6.14978">
        <ele>853.788086</ele>
        <time>2011-09-08T12:24:16Z</time>
      </trkpt>
      <trkpt lat="44.33366" lon="6.14995">
        <ele>854.749268</ele>
        <time>2011-09-08T12:24:22Z</time>
      </trkpt>
      <trkpt lat="44.33386" lon="6.15034">
        <ele>855.710693</ele>
        <time>2011-09-08T12:24:34Z</time>
      </trkpt>
      <trkpt lat="44.33408" lon="6.15065">
        <ele>856.191162</ele>
        <time>2011-09-08T12:24:46Z</time>
      </trkpt>
      <trkpt lat="44.33415" lon="6.15071">
        <ele>856.191162</ele>
        <time>2011-09-08T12:24:49Z</time>
      </trkpt>
      <trkpt lat="44.33434" lon="6.15101">
        <ele>860.517334</ele>
        <time>2011-09-08T12:24:59Z</time>
      </trkpt>
      <trkpt lat="44.33436" lon="6.15104">
        <ele>860.517334</ele>
        <time>2011-09-08T12:25:00Z</time>
      </trkpt>
      <trkpt lat="44.33466" lon="6.15157">
        <ele>860.517334</ele>
        <time>2011-09-08T12:25:17Z</time>
      </trkpt>
      <trkpt lat="44.33496" lon="6.15198">
        <ele>862.439941</ele>
        <time>2011-09-08T12:25:33Z</time>
      </trkpt>
      <trkpt lat="44.3352" lon="6.15223">
        <ele>865.323975</ele>
        <time>2011-09-08T12:25:44Z</time>
      </trkpt>
      <trkpt lat="44.33545" lon="6.15278">
        <ele>864.843262</ele>
        <time>2011-09-08T12:25:57Z</time>
      </trkpt>
      <trkpt lat="44.33567" lon="6.15297">
        <ele>865.323975</ele>
        <time>2011-09-08T12:26:05Z</time>
      </trkpt>
      <trkpt lat="44.33573" lon="6.15303">
        <ele>864.843262</ele>
        <time>2011-09-08T12:26:07Z</time>
      </trkpt>
      <trkpt lat="44.33593" lon="6.15383">
        <ele>865.323975</ele>
        <time>2011-09-08T12:26:22Z</time>
      </trkpt>
      <trkpt lat="44.33596" lon="6.15424">
        <ele>865.323975</ele>
        <time>2011-09-08T12:26:30Z</time>
      </trkpt>
      <trkpt lat="44.33597" lon="6.15431">
        <ele>865.804688</ele>
        <time>2011-09-08T12:26:32Z</time>
      </trkpt>
      <trkpt lat="44.33599" lon="6.15503">
        <ele>866.285156</ele>
        <time>2011-09-08T12:26:48Z</time>
      </trkpt>
      <trkpt lat="44.33607" lon="6.15567">
        <ele>867.727051</ele>
        <time>2011-09-08T12:27:04Z</time>
      </trkpt>
      <trkpt lat="44.33619" lon="6.15631">
        <ele>869.649902</ele>
        <time>2011-09-08T12:27:21Z</time>
      </trkpt>
      <trkpt lat="44.33627" lon="6.15693">
        <ele>871.572266</ele>
        <time>2011-09-08T12:27:37Z</time>
      </trkpt>
      <trkpt lat="44.33649" lon="6.15744">
        <ele>873.495117</ele>
        <time>2011-09-08T12:27:52Z</time>
      </trkpt>
      <trkpt lat="44.33674" lon="6.15768">
        <ele>874.937012</ele>
        <time>2011-09-08T12:28:04Z</time>
      </trkpt>
      <trkpt lat="44.337" lon="6.15803">
        <ele>875.898193</ele>
        <time>2011-09-08T12:28:17Z</time>
      </trkpt>
      <trkpt lat="44.33704" lon="6.1587">
        <ele>877.821045</ele>
        <time>2011-09-08T12:28:36Z</time>
      </trkpt>
      <trkpt lat="44.33703" lon="6.15921">
        <ele>879.262939</ele>
        <time>2011-09-08T12:28:53Z</time>
      </trkpt>
      <trkpt lat="44.33699" lon="6.15936">
        <ele>880.224365</ele>
        <time>2011-09-08T12:28:59Z</time>
      </trkpt>
      <trkpt lat="44.33685" lon="6.15971">
        <ele>881.185791</ele>
        <time>2011-09-08T12:29:13Z</time>
      </trkpt>
      <trkpt lat="44.33689" lon="6.16013">
        <ele>882.627686</ele>
        <time>2011-09-08T12:29:27Z</time>
      </trkpt>
      <trkpt lat="44.33699" lon="6.1606">
        <ele>885.992188</ele>
        <time>2011-09-08T12:29:43Z</time>
      </trkpt>
      <trkpt lat="44.337" lon="6.16063">
        <ele>886.4729</ele>
        <time>2011-09-08T12:29:44Z</time>
      </trkpt>
      <trkpt lat="44.33714" lon="6.16122">
        <ele>885.992188</ele>
        <time>2011-09-08T12:30:04Z</time>
      </trkpt>
      <trkpt lat="44.33737" lon="6.16162">
        <ele>886.953369</ele>
        <time>2011-09-08T12:30:19Z</time>
      </trkpt>
      <trkpt lat="44.33745" lon="6.16171">
        <ele>887.914795</ele>
        <time>2011-09-08T12:30:23Z</time>
      </trkpt>
      <trkpt lat="44.33751" lon="6.16175">
        <ele>888.395508</ele>
        <time>2011-09-08T12:30:27Z</time>
      </trkpt>
      <trkpt lat="44.33754" lon="6.16179">
        <ele>888.395508</ele>
        <time>2011-09-08T12:30:29Z</time>
      </trkpt>
      <trkpt lat="44.33775" lon="6.16208">
        <ele>888.876221</ele>
        <time>2011-09-08T12:30:42Z</time>
      </trkpt>
      <trkpt lat="44.33786" lon="6.16228">
        <ele>889.356689</ele>
        <time>2011-09-08T12:30:49Z</time>
      </trkpt>
      <trkpt lat="44.33795" lon="6.16244">
        <ele>888.876221</ele>
        <time>2011-09-08T12:30:55Z</time>
      </trkpt>
      <trkpt lat="44.33798" lon="6.16249">
        <ele>889.356689</ele>
        <time>2011-09-08T12:31:07Z</time>
      </trkpt>
      <trkpt lat="44.33798" lon="6.16249">
        <ele>888.395508</ele>
        <time>2011-09-08T12:31:13Z</time>
      </trkpt>
      <trkpt lat="44.33798" lon="6.16249">
        <ele>889.837402</ele>
        <time>2011-09-08T12:31:32Z</time>
      </trkpt>
      <trkpt lat="44.33801" lon="6.16252">
        <ele>854.268799</ele>
        <time>2011-09-08T07:25:05Z</time>
      </trkpt>
      <trkpt lat="44.33803" lon="6.16252">
        <ele>857.152588</ele>
        <time>2011-09-08T07:25:15Z</time>
      </trkpt>
      <trkpt lat="44.33803" lon="6.16252">
        <ele>860.517334</ele>
        <time>2011-09-08T07:25:19Z</time>
      </trkpt>
      <trkpt lat="44.33803" lon="6.16253">
        <ele>863.881836</ele>
        <time>2011-09-08T07:25:24Z</time>
      </trkpt>
      <trkpt lat="44.33803" lon="6.16253">
        <ele>866.765869</ele>
        <time>2011-09-08T07:25:30Z</time>
      </trkpt>
      <trkpt lat="44.33802" lon="6.16253">
        <ele>868.207764</ele>
        <time>2011-09-08T07:25:33Z</time>
      </trkpt>
      <trkpt lat="44.33802" lon="6.16253">
        <ele>871.572266</ele>
        <time>2011-09-08T07:25:39Z</time>
      </trkpt>
      <trkpt lat="44.33802" lon="6.16253">
        <ele>874.456299</ele>
        <time>2011-09-08T07:25:49Z</time>
      </trkpt>
      <trkpt lat="44.33802" lon="6.16253">
        <ele>877.821045</ele>
        <time>2011-09-08T07:26:02Z</time>
      </trkpt>
      <trkpt lat="44.33802" lon="6.16253">
        <ele>880.705078</ele>
        <time>2011-09-08T07:26:30Z</time>
      </trkpt>
      <trkpt lat="44.338" lon="6.16251">
        <ele>881.66626</ele>
        <time>2011-09-08T07:28:13Z</time>
      </trkpt>
      <trkpt lat="44.338" lon="6.1625">
        <ele>881.66626</ele>
        <time>2011-09-08T07:28:15Z</time>
      </trkpt>
      <trkpt lat="44.33776" lon="6.16212">
        <ele>881.66626</ele>
        <time>2011-09-08T07:28:28Z</time>
      </trkpt>
      <trkpt lat="44.33738" lon="6.1617">
        <ele>879.743652</ele>
        <time>2011-09-08T07:28:42Z</time>
      </trkpt>
      <trkpt lat="44.3373" lon="6.16181">
        <ele>878.301758</ele>
        <time>2011-09-08T07:28:47Z</time>
      </trkpt>
      <trkpt lat="44.33715" lon="6.16182">
        <ele>877.340576</ele>
        <time>2011-09-08T07:29:52Z</time>
      </trkpt>
      <trkpt lat="44.33698" lon="6.16159">
        <ele>874.456299</ele>
        <time>2011-09-08T07:30:00Z</time>
      </trkpt>
      <trkpt lat="44.33695" lon="6.16153">
        <ele>874.456299</ele>
        <time>2011-09-08T07:30:01Z</time>
      </trkpt>
      <trkpt lat="44.3369" lon="6.1614">
        <ele>873.014404</ele>
        <time>2011-09-08T07:30:03Z</time>
      </trkpt>
      <trkpt lat="44.33678" lon="6.16114">
        <ele>869.169189</ele>
        <time>2011-09-08T07:30:07Z</time>
      </trkpt>
      <trkpt lat="44.33675" lon="6.16106">
        <ele>869.169189</ele>
        <time>2011-09-08T07:30:08Z</time>
      </trkpt>
      <trkpt lat="44.3366" lon="6.16063">
        <ele>865.323975</ele>
        <time>2011-09-08T07:30:14Z</time>
      </trkpt>
      <trkpt lat="44.33658" lon="6.16056">
        <ele>865.323975</ele>
        <time>2011-09-08T07:30:15Z</time>
      </trkpt>
      <trkpt lat="44.33655" lon="6.16049">
        <ele>864.362549</ele>
        <time>2011-09-08T07:30:16Z</time>
      </trkpt>
      <trkpt lat="44.33647" lon="6.16009">
        <ele>861.959473</ele>
        <time>2011-09-08T07:30:22Z</time>
      </trkpt>
      <trkpt lat="44.3364" lon="6.15947">
        <ele>858.594482</ele>
        <time>2011-09-08T07:30:29Z</time>
      </trkpt>
      <trkpt lat="44.33625" lon="6.15864">
        <ele>855.710693</ele>
        <time>2011-09-08T07:30:37Z</time>
      </trkpt>
      <trkpt lat="44.33623" lon="6.15813">
        <ele>855.22998</ele>
        <time>2011-09-08T07:30:42Z</time>
      </trkpt>
      <trkpt lat="44.33609" lon="6.15786">
        <ele>857.152588</ele>
        <time>2011-09-08T07:30:46Z</time>
      </trkpt>
      <trkpt lat="44.33595" lon="6.15771">
        <ele>855.710693</ele>
        <time>2011-09-08T07:30:49Z</time>
      </trkpt>
      <trkpt lat="44.3358" lon="6.1575">
        <ele>853.788086</ele>
        <time>2011-09-08T07:30:52Z</time>
      </trkpt>
      <trkpt lat="44.33575" lon="6.15742">
        <ele>853.307373</ele>
        <time>2011-09-08T07:30:53Z</time>
      </trkpt>
      <trkpt lat="44.33554" lon="6.15696">
        <ele>850.904053</ele>
        <time>2011-09-08T07:31:03Z</time>
      </trkpt>
      <trkpt lat="44.33548" lon="6.15684">
        <ele>848.981445</ele>
        <time>2011-09-08T07:31:05Z</time>
      </trkpt>
      <trkpt lat="44.33539" lon="6.15663">
        <ele>848.500732</ele>
        <time>2011-09-08T07:31:08Z</time>
      </trkpt>
      <trkpt lat="44.33526" lon="6.15623">
        <ele>846.578369</ele>
        <time>2011-09-08T07:31:14Z</time>
      </trkpt>
      <trkpt lat="44.33505" lon="6.15608">
        <ele>846.097656</ele>
        <time>2011-09-08T07:31:20Z</time>
      </trkpt>
      <trkpt lat="44.33496" lon="6.15595">
        <ele>846.097656</ele>
        <time>2011-09-08T07:31:29Z</time>
      </trkpt>
      <trkpt lat="44.3349" lon="6.15586">
        <ele>845.616943</ele>
        <time>2011-09-08T07:31:40Z</time>
      </trkpt>
      <trkpt lat="44.33487" lon="6.15582">
        <ele>843.694092</ele>
        <time>2011-09-08T07:31:50Z</time>
      </trkpt>
      <trkpt lat="44.33487" lon="6.15582">
        <ele>843.694092</ele>
        <time>2011-09-08T07:32:07Z</time>
      </trkpt>
      <trkpt lat="44.33487" lon="6.15582">
        <ele>844.175049</ele>
        <time>2011-09-08T07:32:26Z</time>
      </trkpt>
      <trkpt lat="44.33487" lon="6.15582">
        <ele>844.655518</ele>
        <time>2011-09-08T07:32:38Z</time>
      </trkpt>
      <trkpt lat="44.33487" lon="6.15582">
        <ele>844.175049</ele>
        <time>2011-09-08T07:32:43Z</time>
      </trkpt>
      <trkpt lat="44.33479" lon="6.15571">
        <ele>844.655518</ele>
        <time>2011-09-08T07:32:56Z</time>
      </trkpt>
      <trkpt lat="44.33479" lon="6.15571">
        <ele>844.655518</ele>
        <time>2011-09-08T07:33:00Z</time>
      </trkpt>
      <trkpt lat="44.33479" lon="6.15571">
        <ele>844.655518</ele>
        <time>2011-09-08T07:33:05Z</time>
      </trkpt>
      <trkpt lat="44.33452" lon="6.15507">
        <ele>844.175049</ele>
        <time>2011-09-08T07:33:17Z</time>
      </trkpt>
      <trkpt lat="44.33451" lon="6.155">
        <ele>844.655518</ele>
        <time>2011-09-08T07:33:20Z</time>
      </trkpt>
      <trkpt lat="44.33447" lon="6.15455">
        <ele>846.578369</ele>
        <time>2011-09-08T07:33:37Z</time>
      </trkpt>
      <trkpt lat="44.33447" lon="6.15443">
        <ele>847.058838</ele>
        <time>2011-09-08T07:33:41Z</time>
      </trkpt>
      <trkpt lat="44.33426" lon="6.15424">
        <ele>848.500732</ele>
        <time>2011-09-08T07:33:55Z</time>
      </trkpt>
      <trkpt lat="44.33403" lon="6.15397">
        <ele>850.904053</ele>
        <time>2011-09-08T07:34:10Z</time>
      </trkpt>
      <trkpt lat="44.33403" lon="6.15397">
        <ele>851.384766</ele>
        <time>2011-09-08T07:34:24Z</time>
      </trkpt>
      <trkpt lat="44.33387" lon="6.15391">
        <ele>852.345947</ele>
        <time>2011-09-08T07:35:00Z</time>
      </trkpt>
      <trkpt lat="44.33366" lon="6.15388">
        <ele>853.788086</ele>
        <time>2011-09-08T07:35:13Z</time>
      </trkpt>
      <trkpt lat="44.33361" lon="6.15387">
        <ele>854.268799</ele>
        <time>2011-09-08T07:35:16Z</time>
      </trkpt>
      <trkpt lat="44.33336" lon="6.15376">
        <ele>855.22998</ele>
        <time>2011-09-08T07:35:30Z</time>
      </trkpt>
      <trkpt lat="44.33329" lon="6.15341">
        <ele>857.633301</ele>
        <time>2011-09-08T07:35:45Z</time>
      </trkpt>
      <trkpt lat="44.33329" lon="6.15337">
        <ele>858.114014</ele>
        <time>2011-09-08T07:35:47Z</time>
      </trkpt>
      <trkpt lat="44.33329" lon="6.15316">
        <ele>859.555908</ele>
        <time>2011-09-08T07:35:55Z</time>
      </trkpt>
      <trkpt lat="44.33329" lon="6.15307">
        <ele>860.036621</ele>
        <time>2011-09-08T07:35:59Z</time>
      </trkpt>
      <trkpt lat="44.33331" lon="6.15293">
        <ele>860.998047</ele>
        <time>2011-09-08T07:36:05Z</time>
      </trkpt>
      <trkpt lat="44.33329" lon="6.15282">
        <ele>861.47876</ele>
        <time>2011-09-08T07:36:10Z</time>
      </trkpt>
      <trkpt lat="44.33324" lon="6.15275">
        <ele>862.439941</ele>
        <time>2011-09-08T07:36:15Z</time>
      </trkpt>
      <trkpt lat="44.33315" lon="6.15274">
        <ele>863.881836</ele>
        <time>2011-09-08T07:36:26Z</time>
      </trkpt>
      <trkpt lat="44.33315" lon="6.15274">
        <ele>863.881836</ele>
        <time>2011-09-08T07:36:42Z</time>
      </trkpt>
      <trkpt lat="44.33296" lon="6.15292">
        <ele>865.323975</ele>
        <time>2011-09-08T07:36:52Z</time>
      </trkpt>
      <trkpt lat="44.33292" lon="6.15296">
        <ele>865.804688</ele>
        <time>2011-09-08T07:36:56Z</time>
      </trkpt>
      <trkpt lat="44.33289" lon="6.153">
        <ele>865.804688</ele>
        <time>2011-09-08T07:37:00Z</time>
      </trkpt>
      <trkpt lat="44.33264" lon="6.15313">
        <ele>867.727051</ele>
        <time>2011-09-08T07:37:19Z</time>
      </trkpt>
      <trkpt lat="44.3326" lon="6.15314">
        <ele>868.207764</ele>
        <time>2011-09-08T07:37:22Z</time>
      </trkpt>
      <trkpt lat="44.33231" lon="6.15311">
        <ele>868.688477</ele>
        <time>2011-09-08T07:37:39Z</time>
      </trkpt>
      <trkpt lat="44.33227" lon="6.15308">
        <ele>868.688477</ele>
        <time>2011-09-08T07:37:50Z</time>
      </trkpt>
      <trkpt lat="44.33227" lon="6.15308">
        <ele>869.169189</ele>
        <time>2011-09-08T07:38:43Z</time>
      </trkpt>
      <trkpt lat="44.33217" lon="6.15291">
        <ele>868.207764</ele>
        <time>2011-09-08T07:38:47Z</time>
      </trkpt>
      <trkpt lat="44.33197" lon="6.15274">
        <ele>865.323975</ele>
        <time>2011-09-08T07:38:57Z</time>
      </trkpt>
      <trkpt lat="44.33171" lon="6.15246">
        <ele>862.920654</ele>
        <time>2011-09-08T07:39:09Z</time>
      </trkpt>
      <trkpt lat="44.33168" lon="6.15233">
        <ele>861.47876</ele>
        <time>2011-09-08T07:39:12Z</time>
      </trkpt>
      <trkpt lat="44.33169" lon="6.15185">
        <ele>858.594482</ele>
        <time>2011-09-08T07:39:22Z</time>
      </trkpt>
      <trkpt lat="44.33168" lon="6.15167">
        <ele>856.671875</ele>
        <time>2011-09-08T07:39:26Z</time>
      </trkpt>
      <trkpt lat="44.3315" lon="6.15132">
        <ele>853.788086</ele>
        <time>2011-09-08T07:39:37Z</time>
      </trkpt>
      <trkpt lat="44.33141" lon="6.15125">
        <ele>852.345947</ele>
        <time>2011-09-08T07:39:40Z</time>
      </trkpt>
      <trkpt lat="44.33128" lon="6.151">
        <ele>849.462158</ele>
        <time>2011-09-08T07:39:47Z</time>
      </trkpt>
      <trkpt lat="44.33123" lon="6.15073">
        <ele>848.500732</ele>
        <time>2011-09-08T07:39:52Z</time>
      </trkpt>
      <trkpt lat="44.33112" lon="6.1505">
        <ele>846.097656</ele>
        <time>2011-09-08T07:39:59Z</time>
      </trkpt>
      <trkpt lat="44.33106" lon="6.15019">
        <ele>844.175049</ele>
        <time>2011-09-08T07:40:03Z</time>
      </trkpt>
      <trkpt lat="44.33106" lon="6.15012">
        <ele>844.175049</ele>
        <time>2011-09-08T07:40:04Z</time>
      </trkpt>
      <trkpt lat="44.33107" lon="6.14998">
        <ele>844.175049</ele>
        <time>2011-09-08T07:40:06Z</time>
      </trkpt>
      <trkpt lat="44.33108" lon="6.14976">
        <ele>843.694092</ele>
        <time>2011-09-08T07:40:09Z</time>
      </trkpt>
      <trkpt lat="44.33106" lon="6.14958">
        <ele>843.213379</ele>
        <time>2011-09-08T07:40:12Z</time>
      </trkpt>
      <trkpt lat="44.3309" lon="6.14923">
        <ele>842.73291</ele>
        <time>2011-09-08T07:40:19Z</time>
      </trkpt>
      <trkpt lat="44.33079" lon="6.14912">
        <ele>841.771484</ele>
        <time>2011-09-08T07:40:23Z</time>
      </trkpt>
      <trkpt lat="44.33063" lon="6.14896">
        <ele>840.810059</ele>
        <time>2011-09-08T07:40:28Z</time>
      </trkpt>
      <trkpt lat="44.33054" lon="6.14883">
        <ele>839.368164</ele>
        <time>2011-09-08T07:40:31Z</time>
      </trkpt>
      <trkpt lat="44.3305" lon="6.14877">
        <ele>838.887695</ele>
        <time>2011-09-08T07:40:32Z</time>
      </trkpt>
      <trkpt lat="44.33041" lon="6.14854">
        <ele>837.92627</ele>
        <time>2011-09-08T07:40:36Z</time>
      </trkpt>
      <trkpt lat="44.33039" lon="6.1483">
        <ele>836.484375</ele>
        <time>2011-09-08T07:40:39Z</time>
      </trkpt>
      <trkpt lat="44.33045" lon="6.14792">
        <ele>835.522949</ele>
        <time>2011-09-08T07:40:44Z</time>
      </trkpt>
      <trkpt lat="44.3305" lon="6.14759">
        <ele>833.600342</ele>
        <time>2011-09-08T07:40:51Z</time>
      </trkpt>
      <trkpt lat="44.3305" lon="6.14728">
        <ele>832.63916</ele>
        <time>2011-09-08T07:40:56Z</time>
      </trkpt>
      <trkpt lat="44.33048" lon="6.14694">
        <ele>831.197266</ele>
        <time>2011-09-08T07:41:01Z</time>
      </trkpt>
      <trkpt lat="44.33048" lon="6.14667">
        <ele>830.716553</ele>
        <time>2011-09-08T07:41:07Z</time>
      </trkpt>
      <trkpt lat="44.33056" lon="6.14604">
        <ele>831.197266</ele>
        <time>2011-09-08T07:41:21Z</time>
      </trkpt>
      <trkpt lat="44.33058" lon="6.14585">
        <ele>831.197266</ele>
        <time>2011-09-08T07:41:25Z</time>
      </trkpt>
      <trkpt lat="44.33064" lon="6.14506">
        <ele>831.197266</ele>
        <time>2011-09-08T07:41:40Z</time>
      </trkpt>
      <trkpt lat="44.33055" lon="6.14468">
        <ele>831.197266</ele>
        <time>2011-09-08T07:41:51Z</time>
      </trkpt>
      <trkpt lat="44.33049" lon="6.14437">
        <ele>828.793945</ele>
        <time>2011-09-08T07:41:57Z</time>
      </trkpt>
      <trkpt lat="44.33035" lon="6.14411">
        <ele>827.351807</ele>
        <time>2011-09-08T07:42:01Z</time>
      </trkpt>
      <trkpt lat="44.33011" lon="6.14383">
        <ele>826.390381</ele>
        <time>2011-09-08T07:42:11Z</time>
      </trkpt>
      <trkpt lat="44.33003" lon="6.14339">
        <ele>826.390381</ele>
        <time>2011-09-08T07:42:16Z</time>
      </trkpt>
      <trkpt lat="44.33007" lon="6.14314">
        <ele>825.428955</ele>
        <time>2011-09-08T07:42:21Z</time>
      </trkpt>
      <trkpt lat="44.33004" lon="6.14292">
        <ele>824.948486</ele>
        <time>2011-09-08T07:42:25Z</time>
      </trkpt>
      <trkpt lat="44.33003" lon="6.14264">
        <ele>824.948486</ele>
        <time>2011-09-08T07:42:28Z</time>
      </trkpt>
      <trkpt lat="44.33018" lon="6.14178">
        <ele>823.987061</ele>
        <time>2011-09-08T07:42:40Z</time>
      </trkpt>
      <trkpt lat="44.33018" lon="6.14168">
        <ele>823.506592</ele>
        <time>2011-09-08T07:42:42Z</time>
      </trkpt>
      <trkpt lat="44.33013" lon="6.14155">
        <ele>823.025879</ele>
        <time>2011-09-08T07:42:46Z</time>
      </trkpt>
      <trkpt lat="44.33016" lon="6.14116">
        <ele>822.545166</ele>
        <time>2011-09-08T07:42:51Z</time>
      </trkpt>
      <trkpt lat="44.33017" lon="6.14106">
        <ele>823.506592</ele>
        <time>2011-09-08T07:42:53Z</time>
      </trkpt>
      <trkpt lat="44.33022" lon="6.14068">
        <ele>823.025879</ele>
        <time>2011-09-08T07:43:00Z</time>
      </trkpt>
      <trkpt lat="44.33021" lon="6.14046">
        <ele>823.506592</ele>
        <time>2011-09-08T07:43:04Z</time>
      </trkpt>
      <trkpt lat="44.33018" lon="6.14028">
        <ele>823.506592</ele>
        <time>2011-09-08T07:43:08Z</time>
      </trkpt>
      <trkpt lat="44.33016" lon="6.1402">
        <ele>823.506592</ele>
        <time>2011-09-08T07:43:10Z</time>
      </trkpt>
      <trkpt lat="44.33012" lon="6.13992">
        <ele>823.025879</ele>
        <time>2011-09-08T07:43:14Z</time>
      </trkpt>
      <trkpt lat="44.33077" lon="6.13852">
        <ele>821.103271</ele>
        <time>2011-09-08T07:43:33Z</time>
      </trkpt>
      <trkpt lat="44.3306" lon="6.13731">
        <ele>820.622559</ele>
        <time>2011-09-08T07:43:49Z</time>
      </trkpt>
      <trkpt lat="44.33014" lon="6.13555">
        <ele>819.661377</ele>
        <time>2011-09-08T07:44:11Z</time>
      </trkpt>
      <trkpt lat="44.32973" lon="6.13447">
        <ele>821.103271</ele>
        <time>2011-09-08T07:44:22Z</time>
      </trkpt>
      <trkpt lat="44.3298" lon="6.13437">
        <ele>819.661377</ele>
        <time>2011-09-08T07:44:24Z</time>
      </trkpt>
      <trkpt lat="44.3294" lon="6.13483">
        <ele>820.141846</ele>
        <time>2011-09-08T07:44:36Z</time>
      </trkpt>
      <trkpt lat="44.33002" lon="6.1347">
        <ele>820.622559</ele>
        <time>2011-09-08T07:44:39Z</time>
      </trkpt>
      <trkpt lat="44.33004" lon="6.13457">
        <ele>820.622559</ele>
        <time>2011-09-08T07:44:44Z</time>
      </trkpt>
      <trkpt lat="44.33" lon="6.1344">
        <ele>820.622559</ele>
        <time>2011-09-08T07:44:50Z</time>
      </trkpt>
      <trkpt lat="44.32993" lon="6.13438">
        <ele>820.141846</ele>
        <time>2011-09-08T07:45:01Z</time>
      </trkpt>
      <trkpt lat="44.32993" lon="6.13438">
        <ele>820.622559</ele>
        <time>2011-09-08T07:45:53Z</time>
      </trkpt>
      <trkpt lat="44.32978" lon="6.13458">
        <ele>820.622559</ele>
        <time>2011-09-08T07:46:31Z</time>
      </trkpt>
      <trkpt lat="44.3296" lon="6.13479">
        <ele>822.545166</ele>
        <time>2011-09-08T07:46:44Z</time>
      </trkpt>
      <trkpt lat="44.32937" lon="6.13507">
        <ele>824.467773</ele>
        <time>2011-09-08T07:47:01Z</time>
      </trkpt>
      <trkpt lat="44.329" lon="6.13549">
        <ele>827.351807</ele>
        <time>2011-09-08T07:47:23Z</time>
      </trkpt>
      <trkpt lat="44.32887" lon="6.13566">
        <ele>828.793945</ele>
        <time>2011-09-08T07:47:34Z</time>
      </trkpt>
      <trkpt lat="44.32884" lon="6.13571">
        <ele>829.274414</ele>
        <time>2011-09-08T07:47:37Z</time>
      </trkpt>
      <trkpt lat="44.32868" lon="6.13599">
        <ele>831.677734</ele>
        <time>2011-09-08T07:47:55Z</time>
      </trkpt>
      <trkpt lat="44.32856" lon="6.1362">
        <ele>833.600342</ele>
        <time>2011-09-08T07:48:07Z</time>
      </trkpt>
      <trkpt lat="44.32836" lon="6.13646">
        <ele>835.522949</ele>
        <time>2011-09-08T07:48:26Z</time>
      </trkpt>
      <trkpt lat="44.32834" lon="6.13649">
        <ele>836.003662</ele>
        <time>2011-09-08T07:48:28Z</time>
      </trkpt>
      <trkpt lat="44.32808" lon="6.13675">
        <ele>838.887695</ele>
        <time>2011-09-08T07:48:52Z</time>
      </trkpt>
      <trkpt lat="44.32783" lon="6.13693">
        <ele>842.252197</ele>
        <time>2011-09-08T07:49:11Z</time>
      </trkpt>
      <trkpt lat="44.32756" lon="6.13707">
        <ele>844.175049</ele>
        <time>2011-09-08T07:49:29Z</time>
      </trkpt>
      <trkpt lat="44.32726" lon="6.13725">
        <ele>846.578369</ele>
        <time>2011-09-08T07:49:46Z</time>
      </trkpt>
      <trkpt lat="44.32696" lon="6.13753">
        <ele>849.942871</ele>
        <time>2011-09-08T07:50:11Z</time>
      </trkpt>
      <trkpt lat="44.32687" lon="6.13783">
        <ele>851.384766</ele>
        <time>2011-09-08T07:50:29Z</time>
      </trkpt>
      <trkpt lat="44.32688" lon="6.13825">
        <ele>853.307373</ele>
        <time>2011-09-08T07:50:52Z</time>
      </trkpt>
      <trkpt lat="44.32684" lon="6.13855">
        <ele>855.710693</ele>
        <time>2011-09-08T07:51:10Z</time>
      </trkpt>
      <trkpt lat="44.32684" lon="6.13868">
        <ele>857.152588</ele>
        <time>2011-09-08T07:51:18Z</time>
      </trkpt>
      <trkpt lat="44.32692" lon="6.13906">
        <ele>859.555908</ele>
        <time>2011-09-08T07:51:40Z</time>
      </trkpt>
      <trkpt lat="44.32696" lon="6.13941">
        <ele>861.47876</ele>
        <time>2011-09-08T07:52:00Z</time>
      </trkpt>
      <trkpt lat="44.32688" lon="6.13971">
        <ele>863.401367</ele>
        <time>2011-09-08T07:52:18Z</time>
      </trkpt>
      <trkpt lat="44.32682" lon="6.13983">
        <ele>864.362549</ele>
        <time>2011-09-08T07:52:27Z</time>
      </trkpt>
      <trkpt lat="44.3267" lon="6.1399">
        <ele>865.804688</ele>
        <time>2011-09-08T07:52:37Z</time>
      </trkpt>
      <trkpt lat="44.32639" lon="6.13972">
        <ele>868.688477</ele>
        <time>2011-09-08T07:53:02Z</time>
      </trkpt>
      <trkpt lat="44.3261" lon="6.13948">
        <ele>871.091797</ele>
        <time>2011-09-08T07:53:28Z</time>
      </trkpt>
      <trkpt lat="44.32574" lon="6.13922">
        <ele>873.495117</ele>
        <time>2011-09-08T07:53:56Z</time>
      </trkpt>
      <trkpt lat="44.3255" lon="6.13926">
        <ele>875.41748</ele>
        <time>2011-09-08T07:54:15Z</time>
      </trkpt>
      <trkpt lat="44.32525" lon="6.13935">
        <ele>877.340576</ele>
        <time>2011-09-08T07:54:35Z</time>
      </trkpt>
      <trkpt lat="44.32514" lon="6.13922">
        <ele>878.782471</ele>
        <time>2011-09-08T07:54:45Z</time>
      </trkpt>
      <trkpt lat="44.32509" lon="6.13917">
        <ele>879.262939</ele>
        <time>2011-09-08T07:54:50Z</time>
      </trkpt>
      <trkpt lat="44.32493" lon="6.13892">
        <ele>881.66626</ele>
        <time>2011-09-08T07:55:10Z</time>
      </trkpt>
      <trkpt lat="44.32465" lon="6.13887">
        <ele>884.06958</ele>
        <time>2011-09-08T07:55:32Z</time>
      </trkpt>
      <trkpt lat="44.32447" lon="6.13907">
        <ele>885.511475</ele>
        <time>2011-09-08T07:55:48Z</time>
      </trkpt>
      <trkpt lat="44.32423" lon="6.13903">
        <ele>887.914795</ele>
        <time>2011-09-08T07:56:08Z</time>
      </trkpt>
      <trkpt lat="44.32389" lon="6.13891">
        <ele>890.318115</ele>
        <time>2011-09-08T07:56:33Z</time>
      </trkpt>
      <trkpt lat="44.32346" lon="6.1388">
        <ele>893.202148</ele>
        <time>2011-09-08T07:57:05Z</time>
      </trkpt>
      <trkpt lat="44.32323" lon="6.1386">
        <ele>895.605469</ele>
        <time>2011-09-08T07:57:27Z</time>
      </trkpt>
      <trkpt lat="44.32305" lon="6.1383">
        <ele>897.047363</ele>
        <time>2011-09-08T07:57:46Z</time>
      </trkpt>
      <trkpt lat="44.32287" lon="6.13829">
        <ele>897.528076</ele>
        <time>2011-09-08T07:58:02Z</time>
      </trkpt>
      <trkpt lat="44.32287" lon="6.1383">
        <ele>897.528076</ele>
        <time>2011-09-08T07:59:04Z</time>
      </trkpt>
      <trkpt lat="44.32287" lon="6.1383">
        <ele>896.086182</ele>
        <time>2011-09-08T08:00:11Z</time>
      </trkpt>
      <trkpt lat="44.32277" lon="6.13833">
        <ele>897.528076</ele>
        <time>2011-09-08T08:00:31Z</time>
      </trkpt>
      <trkpt lat="44.32269" lon="6.13832">
        <ele>898.008789</ele>
        <time>2011-09-08T08:00:36Z</time>
      </trkpt>
      <trkpt lat="44.32242" lon="6.1384">
        <ele>900.892578</ele>
        <time>2011-09-08T08:00:56Z</time>
      </trkpt>
      <trkpt lat="44.32228" lon="6.13836">
        <ele>902.334473</ele>
        <time>2011-09-08T08:01:09Z</time>
      </trkpt>
      <trkpt lat="44.32206" lon="6.13841">
        <ele>905.699219</ele>
        <time>2011-09-08T08:01:28Z</time>
      </trkpt>
      <trkpt lat="44.32205" lon="6.13842">
        <ele>905.218506</ele>
        <time>2011-09-08T08:01:29Z</time>
      </trkpt>
      <trkpt lat="44.32185" lon="6.13848">
        <ele>908.583252</ele>
        <time>2011-09-08T08:01:47Z</time>
      </trkpt>
      <trkpt lat="44.32169" lon="6.13853">
        <ele>910.025146</ele>
        <time>2011-09-08T08:02:00Z</time>
      </trkpt>
      <trkpt lat="44.32166" lon="6.13855">
        <ele>910.505859</ele>
        <time>2011-09-08T08:02:03Z</time>
      </trkpt>
      <trkpt lat="44.32162" lon="6.13856">
        <ele>910.986572</ele>
        <time>2011-09-08T08:02:06Z</time>
      </trkpt>
      <trkpt lat="44.3214" lon="6.13878">
        <ele>913.870361</ele>
        <time>2011-09-08T08:02:29Z</time>
      </trkpt>
      <trkpt lat="44.32122" lon="6.13906">
        <ele>917.235107</ele>
        <time>2011-09-08T08:02:52Z</time>
      </trkpt>
      <trkpt lat="44.32112" lon="6.13923">
        <ele>918.677002</ele>
        <time>2011-09-08T08:03:05Z</time>
      </trkpt>
      <trkpt lat="44.32105" lon="6.13932">
        <ele>920.118896</ele>
        <time>2011-09-08T08:03:13Z</time>
      </trkpt>
      <trkpt lat="44.32097" lon="6.13956">
        <ele>922.522217</ele>
        <time>2011-09-08T08:03:29Z</time>
      </trkpt>
      <trkpt lat="44.32092" lon="6.13966">
        <ele>923.964111</ele>
        <time>2011-09-08T08:03:36Z</time>
      </trkpt>
      <trkpt lat="44.32089" lon="6.13972">
        <ele>923.964111</ele>
        <time>2011-09-08T08:03:41Z</time>
      </trkpt>
      <trkpt lat="44.32084" lon="6.13989">
        <ele>925.886963</ele>
        <time>2011-09-08T08:03:52Z</time>
      </trkpt>
      <trkpt lat="44.32077" lon="6.14023">
        <ele>928.770996</ele>
        <time>2011-09-08T08:04:15Z</time>
      </trkpt>
      <trkpt lat="44.32075" lon="6.14044">
        <ele>930.212891</ele>
        <time>2011-09-08T08:04:28Z</time>
      </trkpt>
      <trkpt lat="44.32074" lon="6.14047">
        <ele>931.174316</ele>
        <time>2011-09-08T08:04:30Z</time>
      </trkpt>
      <trkpt lat="44.32073" lon="6.1405">
        <ele>931.174316</ele>
        <time>2011-09-08T08:04:32Z</time>
      </trkpt>
      <trkpt lat="44.32074" lon="6.14065">
        <ele>932.135498</ele>
        <time>2011-09-08T08:04:40Z</time>
      </trkpt>
      <trkpt lat="44.32072" lon="6.14071">
        <ele>933.09668</ele>
        <time>2011-09-08T08:04:43Z</time>
      </trkpt>
      <trkpt lat="44.32071" lon="6.14096">
        <ele>935.019531</ele>
        <time>2011-09-08T08:04:57Z</time>
      </trkpt>
      <trkpt lat="44.32069" lon="6.14103">
        <ele>935.5</ele>
        <time>2011-09-08T08:05:02Z</time>
      </trkpt>
      <trkpt lat="44.32055" lon="6.14135">
        <ele>938.384033</ele>
        <time>2011-09-08T08:05:24Z</time>
      </trkpt>
      <trkpt lat="44.32048" lon="6.14148">
        <ele>939.345215</ele>
        <time>2011-09-08T08:05:33Z</time>
      </trkpt>
      <trkpt lat="44.32039" lon="6.1415">
        <ele>939.825928</ele>
        <time>2011-09-08T08:05:39Z</time>
      </trkpt>
      <trkpt lat="44.32015" lon="6.1417">
        <ele>942.710205</ele>
        <time>2011-09-08T08:06:02Z</time>
      </trkpt>
      <trkpt lat="44.32007" lon="6.14178">
        <ele>943.671387</ele>
        <time>2011-09-08T08:06:10Z</time>
      </trkpt>
      <trkpt lat="44.31998" lon="6.14185">
        <ele>945.113281</ele>
        <time>2011-09-08T08:06:20Z</time>
      </trkpt>
      <trkpt lat="44.31992" lon="6.14194">
        <ele>945.593994</ele>
        <time>2011-09-08T08:06:27Z</time>
      </trkpt>
      <trkpt lat="44.31989" lon="6.14211">
        <ele>947.516602</ele>
        <time>2011-09-08T08:06:38Z</time>
      </trkpt>
      <trkpt lat="44.31989" lon="6.14221">
        <ele>947.997314</ele>
        <time>2011-09-08T08:06:44Z</time>
      </trkpt>
      <trkpt lat="44.31977" lon="6.14251">
        <ele>951.361816</ele>
        <time>2011-09-08T08:07:06Z</time>
      </trkpt>
      <trkpt lat="44.31961" lon="6.14275">
        <ele>953.765137</ele>
        <time>2011-09-08T08:07:26Z</time>
      </trkpt>
      <trkpt lat="44.31945" lon="6.143">
        <ele>957.129883</ele>
        <time>2011-09-08T08:07:46Z</time>
      </trkpt>
      <trkpt lat="44.31937" lon="6.1432">
        <ele>958.091309</ele>
        <time>2011-09-08T08:08:00Z</time>
      </trkpt>
      <trkpt lat="44.31935" lon="6.14325">
        <ele>959.05249</ele>
        <time>2011-09-08T08:08:03Z</time>
      </trkpt>
      <trkpt lat="44.31924" lon="6.14353">
        <ele>960.975098</ele>
        <time>2011-09-08T08:08:23Z</time>
      </trkpt>
      <trkpt lat="44.31913" lon="6.14375">
        <ele>964.3396</ele>
        <time>2011-09-08T08:08:39Z</time>
      </trkpt>
      <trkpt lat="44.31905" lon="6.14389">
        <ele>965.301025</ele>
        <time>2011-09-08T08:08:52Z</time>
      </trkpt>
      <trkpt lat="44.31895" lon="6.14401">
        <ele>967.704102</ele>
        <time>2011-09-08T08:09:03Z</time>
      </trkpt>
      <trkpt lat="44.31886" lon="6.14421">
        <ele>970.107422</ele>
        <time>2011-09-08T08:09:18Z</time>
      </trkpt>
      <trkpt lat="44.31874" lon="6.14446">
        <ele>972.030273</ele>
        <time>2011-09-08T08:09:37Z</time>
      </trkpt>
      <trkpt lat="44.31855" lon="6.14476">
        <ele>975.394775</ele>
        <time>2011-09-08T08:10:01Z</time>
      </trkpt>
      <trkpt lat="44.31852" lon="6.14478">
        <ele>975.875488</ele>
        <time>2011-09-08T08:10:04Z</time>
      </trkpt>
      <trkpt lat="44.31841" lon="6.14504">
        <ele>978.278809</ele>
        <time>2011-09-08T08:10:23Z</time>
      </trkpt>
      <trkpt lat="44.31827" lon="6.1453">
        <ele>980.682129</ele>
        <time>2011-09-08T08:10:44Z</time>
      </trkpt>
      <trkpt lat="44.31822" lon="6.14535">
        <ele>981.643311</ele>
        <time>2011-09-08T08:10:49Z</time>
      </trkpt>
      <trkpt lat="44.31816" lon="6.14543">
        <ele>982.604736</ele>
        <time>2011-09-08T08:10:57Z</time>
      </trkpt>
      <trkpt lat="44.31801" lon="6.14566">
        <ele>985.488525</ele>
        <time>2011-09-08T08:11:16Z</time>
      </trkpt>
      <trkpt lat="44.31791" lon="6.14587">
        <ele>987.411133</ele>
        <time>2011-09-08T08:11:32Z</time>
      </trkpt>
      <trkpt lat="44.31784" lon="6.14597">
        <ele>988.372803</ele>
        <time>2011-09-08T08:11:41Z</time>
      </trkpt>
      <trkpt lat="44.3178" lon="6.14609">
        <ele>989.333984</ele>
        <time>2011-09-08T08:11:49Z</time>
      </trkpt>
      <trkpt lat="44.31787" lon="6.14622">
        <ele>990.29541</ele>
        <time>2011-09-08T08:11:59Z</time>
      </trkpt>
      <trkpt lat="44.31807" lon="6.14597">
        <ele>993.179199</ele>
        <time>2011-09-08T08:12:20Z</time>
      </trkpt>
      <trkpt lat="44.31813" lon="6.1459">
        <ele>993.659912</ele>
        <time>2011-09-08T08:12:26Z</time>
      </trkpt>
      <trkpt lat="44.3184" lon="6.14569">
        <ele>996.543945</ele>
        <time>2011-09-08T08:12:52Z</time>
      </trkpt>
      <trkpt lat="44.31843" lon="6.14565">
        <ele>996.543945</ele>
        <time>2011-09-08T08:12:55Z</time>
      </trkpt>
      <trkpt lat="44.31866" lon="6.14542">
        <ele>999.427734</ele>
        <time>2011-09-08T08:13:19Z</time>
      </trkpt>
      <trkpt lat="44.31885" lon="6.14512">
        <ele>1002.311523</ele>
        <time>2011-09-08T08:13:43Z</time>
      </trkpt>
      <trkpt lat="44.31903" lon="6.14491">
        <ele>1004.234619</ele>
        <time>2011-09-08T08:14:02Z</time>
      </trkpt>
      <trkpt lat="44.31923" lon="6.14477">
        <ele>1006.156982</ele>
        <time>2011-09-08T08:14:19Z</time>
      </trkpt>
      <trkpt lat="44.31951" lon="6.1445">
        <ele>1009.041016</ele>
        <time>2011-09-08T08:14:46Z</time>
      </trkpt>
      <trkpt lat="44.31983" lon="6.14423">
        <ele>1010.963623</ele>
        <time>2011-09-08T08:15:13Z</time>
      </trkpt>
      <trkpt lat="44.32006" lon="6.14405">
        <ele>1012.88623</ele>
        <time>2011-09-08T08:15:33Z</time>
      </trkpt>
      <trkpt lat="44.3201" lon="6.144">
        <ele>1013.366943</ele>
        <time>2011-09-08T08:15:37Z</time>
      </trkpt>
      <trkpt lat="44.32034" lon="6.14373">
        <ele>1014.808838</ele>
        <time>2011-09-08T08:16:00Z</time>
      </trkpt>
      <trkpt lat="44.32052" lon="6.14357">
        <ele>1016.250732</ele>
        <time>2011-09-08T08:16:19Z</time>
      </trkpt>
      <trkpt lat="44.32053" lon="6.14358">
        <ele>1016.250732</ele>
        <time>2011-09-08T08:16:20Z</time>
      </trkpt>
      <trkpt lat="44.32051" lon="6.14368">
        <ele>1017.692627</ele>
        <time>2011-09-08T08:16:25Z</time>
      </trkpt>
      <trkpt lat="44.32023" lon="6.14406">
        <ele>1020.096191</ele>
        <time>2011-09-08T08:16:53Z</time>
      </trkpt>
      <trkpt lat="44.32005" lon="6.1443">
        <ele>1021.538086</ele>
        <time>2011-09-08T08:17:10Z</time>
      </trkpt>
      <trkpt lat="44.31974" lon="6.14459">
        <ele>1023.460938</ele>
        <time>2011-09-08T08:17:34Z</time>
      </trkpt>
      <trkpt lat="44.31951" lon="6.1449">
        <ele>1026.344727</ele>
        <time>2011-09-08T08:17:56Z</time>
      </trkpt>
      <trkpt lat="44.31927" lon="6.14529">
        <ele>1029.709229</ele>
        <time>2011-09-08T08:18:21Z</time>
      </trkpt>
      <trkpt lat="44.31908" lon="6.14581">
        <ele>1032.593262</ele>
        <time>2011-09-08T08:18:49Z</time>
      </trkpt>
      <trkpt lat="44.31903" lon="6.14636">
        <ele>1034.515869</ele>
        <time>2011-09-08T08:19:14Z</time>
      </trkpt>
      <trkpt lat="44.319" lon="6.14686">
        <ele>1036.919189</ele>
        <time>2011-09-08T08:19:38Z</time>
      </trkpt>
      <trkpt lat="44.319" lon="6.14692">
        <ele>1037.399902</ele>
        <time>2011-09-08T08:19:41Z</time>
      </trkpt>
      <trkpt lat="44.31883" lon="6.14738">
        <ele>1040.283936</ele>
        <time>2011-09-08T08:20:07Z</time>
      </trkpt>
      <trkpt lat="44.31857" lon="6.14732">
        <ele>1042.687256</ele>
        <time>2011-09-08T08:20:25Z</time>
      </trkpt>
      <trkpt lat="44.3183" lon="6.14728">
        <ele>1045.571045</ele>
        <time>2011-09-08T08:20:45Z</time>
      </trkpt>
      <trkpt lat="44.31797" lon="6.14747">
        <ele>1048.935547</ele>
        <time>2011-09-08T08:21:10Z</time>
      </trkpt>
      <trkpt lat="44.31782" lon="6.1478">
        <ele>1051.338867</ele>
        <time>2011-09-08T08:21:30Z</time>
      </trkpt>
      <trkpt lat="44.31779" lon="6.14785">
        <ele>1051.81958</ele>
        <time>2011-09-08T08:21:33Z</time>
      </trkpt>
      <trkpt lat="44.31756" lon="6.14816">
        <ele>1054.703613</ele>
        <time>2011-09-08T08:21:57Z</time>
      </trkpt>
      <trkpt lat="44.3173" lon="6.14843">
        <ele>1058.068359</ele>
        <time>2011-09-08T08:22:19Z</time>
      </trkpt>
      <trkpt lat="44.31706" lon="6.14865">
        <ele>1060.952148</ele>
        <time>2011-09-08T08:22:41Z</time>
      </trkpt>
      <trkpt lat="44.31677" lon="6.14885">
        <ele>1063.355469</ele>
        <time>2011-09-08T08:23:04Z</time>
      </trkpt>
      <trkpt lat="44.31645" lon="6.14911">
        <ele>1066.239258</ele>
        <time>2011-09-08T08:23:30Z</time>
      </trkpt>
      <trkpt lat="44.31642" lon="6.14914">
        <ele>1066.719971</ele>
        <time>2011-09-08T08:23:33Z</time>
      </trkpt>
      <trkpt lat="44.31613" lon="6.14929">
        <ele>1069.123535</ele>
        <time>2011-09-08T08:23:57Z</time>
      </trkpt>
      <trkpt lat="44.31599" lon="6.14926">
        <ele>1070.56543</ele>
        <time>2011-09-08T08:24:08Z</time>
      </trkpt>
      <trkpt lat="44.31577" lon="6.14948">
        <ele>1073.929932</ele>
        <time>2011-09-08T08:24:29Z</time>
      </trkpt>
      <trkpt lat="44.3157" lon="6.14959">
        <ele>1074.891357</ele>
        <time>2011-09-08T08:24:37Z</time>
      </trkpt>
      <trkpt lat="44.3157" lon="6.14999">
        <ele>1077.775146</ele>
        <time>2011-09-08T08:24:59Z</time>
      </trkpt>
      <trkpt lat="44.31571" lon="6.1501">
        <ele>1078.736572</ele>
        <time>2011-09-08T08:25:06Z</time>
      </trkpt>
      <trkpt lat="44.31571" lon="6.15037">
        <ele>1080.65918</ele>
        <time>2011-09-08T08:25:21Z</time>
      </trkpt>
      <trkpt lat="44.31574" lon="6.15049">
        <ele>1081.620361</ele>
        <time>2011-09-08T08:25:28Z</time>
      </trkpt>
      <trkpt lat="44.31575" lon="6.15051">
        <ele>1081.620361</ele>
        <time>2011-09-08T08:25:30Z</time>
      </trkpt>
      <trkpt lat="44.31578" lon="6.15085">
        <ele>1084.504639</ele>
        <time>2011-09-08T08:25:50Z</time>
      </trkpt>
      <trkpt lat="44.31582" lon="6.15119">
        <ele>1086.907715</ele>
        <time>2011-09-08T08:26:10Z</time>
      </trkpt>
      <trkpt lat="44.31572" lon="6.15154">
        <ele>1089.791748</ele>
        <time>2011-09-08T08:26:32Z</time>
      </trkpt>
      <trkpt lat="44.31556" lon="6.15177">
        <ele>1093.15625</ele>
        <time>2011-09-08T08:26:53Z</time>
      </trkpt>
      <trkpt lat="44.31549" lon="6.15192">
        <ele>1094.598145</ele>
        <time>2011-09-08T08:27:04Z</time>
      </trkpt>
      <trkpt lat="44.31546" lon="6.15201">
        <ele>1095.078857</ele>
        <time>2011-09-08T08:27:10Z</time>
      </trkpt>
      <trkpt lat="44.31545" lon="6.15206">
        <ele>1095.078857</ele>
        <time>2011-09-08T08:27:13Z</time>
      </trkpt>
      <trkpt lat="44.31529" lon="6.15226">
        <ele>1098.443359</ele>
        <time>2011-09-08T08:27:32Z</time>
      </trkpt>
      <trkpt lat="44.31526" lon="6.1523">
        <ele>1098.924072</ele>
        <time>2011-09-08T08:27:36Z</time>
      </trkpt>
      <trkpt lat="44.31517" lon="6.15242">
        <ele>1100.366455</ele>
        <time>2011-09-08T08:27:46Z</time>
      </trkpt>
      <trkpt lat="44.31511" lon="6.1525">
        <ele>1100.846924</ele>
        <time>2011-09-08T08:27:53Z</time>
      </trkpt>
      <trkpt lat="44.31506" lon="6.15255">
        <ele>1101.80835</ele>
        <time>2011-09-08T08:27:58Z</time>
      </trkpt>
      <trkpt lat="44.31497" lon="6.15267">
        <ele>1102.288818</ele>
        <time>2011-09-08T08:28:08Z</time>
      </trkpt>
      <trkpt lat="44.3148" lon="6.15283">
        <ele>1105.172852</ele>
        <time>2011-09-08T08:28:25Z</time>
      </trkpt>
      <trkpt lat="44.31477" lon="6.15288">
        <ele>1105.653564</ele>
        <time>2011-09-08T08:28:29Z</time>
      </trkpt>
      <trkpt lat="44.31468" lon="6.15289">
        <ele>1106.614746</ele>
        <time>2011-09-08T08:28:37Z</time>
      </trkpt>
      <trkpt lat="44.31446" lon="6.15289">
        <ele>1109.979248</ele>
        <time>2011-09-08T08:28:57Z</time>
      </trkpt>
      <trkpt lat="44.31432" lon="6.1529">
        <ele>1111.421387</ele>
        <time>2011-09-08T08:29:07Z</time>
      </trkpt>
      <trkpt lat="44.31399" lon="6.15309">
        <ele>1114.305176</ele>
        <time>2011-09-08T08:29:37Z</time>
      </trkpt>
      <trkpt lat="44.31389" lon="6.15324">
        <ele>1115.747314</ele>
        <time>2011-09-08T08:29:48Z</time>
      </trkpt>
      <trkpt lat="44.31371" lon="6.15338">
        <ele>1119.112061</ele>
        <time>2011-09-08T08:30:05Z</time>
      </trkpt>
      <trkpt lat="44.31356" lon="6.15354">
        <ele>1121.515137</ele>
        <time>2011-09-08T08:30:21Z</time>
      </trkpt>
      <trkpt lat="44.31352" lon="6.15361">
        <ele>1121.99585</ele>
        <time>2011-09-08T08:30:26Z</time>
      </trkpt>
      <trkpt lat="44.31348" lon="6.15366">
        <ele>1122.476563</ele>
        <time>2011-09-08T08:30:30Z</time>
      </trkpt>
      <trkpt lat="44.31335" lon="6.1537">
        <ele>1123.437988</ele>
        <time>2011-09-08T08:30:40Z</time>
      </trkpt>
      <trkpt lat="44.31313" lon="6.15364">
        <ele>1126.321777</ele>
        <time>2011-09-08T08:31:01Z</time>
      </trkpt>
      <trkpt lat="44.31312" lon="6.15371">
        <ele>1127.283203</ele>
        <time>2011-09-08T08:31:09Z</time>
      </trkpt>
      <trkpt lat="44.31301" lon="6.15386">
        <ele>1127.763672</ele>
        <time>2011-09-08T08:31:13Z</time>
      </trkpt>
      <trkpt lat="44.31303" lon="6.15395">
        <ele>1128.244385</ele>
        <time>2011-09-08T08:31:17Z</time>
      </trkpt>
      <trkpt lat="44.31304" lon="6.15402">
        <ele>1128.725098</ele>
        <time>2011-09-08T08:31:20Z</time>
      </trkpt>
      <trkpt lat="44.31316" lon="6.15437">
        <ele>1130.647705</ele>
        <time>2011-09-08T08:31:37Z</time>
      </trkpt>
      <trkpt lat="44.31319" lon="6.15447">
        <ele>1131.608887</ele>
        <time>2011-09-08T08:31:51Z</time>
      </trkpt>
      <trkpt lat="44.31319" lon="6.1545">
        <ele>1132.089844</ele>
        <time>2011-09-08T08:32:31Z</time>
      </trkpt>
      <trkpt lat="44.31318" lon="6.15454">
        <ele>1132.570557</ele>
        <time>2011-09-08T08:32:34Z</time>
      </trkpt>
      <trkpt lat="44.31312" lon="6.15458">
        <ele>1132.570557</ele>
        <time>2011-09-08T08:32:38Z</time>
      </trkpt>
      <trkpt lat="44.31299" lon="6.15453">
        <ele>1134.493164</ele>
        <time>2011-09-08T08:32:48Z</time>
      </trkpt>
      <trkpt lat="44.31284" lon="6.15417">
        <ele>1136.89624</ele>
        <time>2011-09-08T08:33:11Z</time>
      </trkpt>
      <trkpt lat="44.31278" lon="6.15397">
        <ele>1138.338379</ele>
        <time>2011-09-08T08:33:22Z</time>
      </trkpt>
      <trkpt lat="44.31266" lon="6.15383">
        <ele>1139.299561</ele>
        <time>2011-09-08T08:33:33Z</time>
      </trkpt>
      <trkpt lat="44.3126" lon="6.15382">
        <ele>1139.780273</ele>
        <time>2011-09-08T08:33:37Z</time>
      </trkpt>
      <trkpt lat="44.31257" lon="6.1539">
        <ele>1140.741455</ele>
        <time>2011-09-08T08:33:42Z</time>
      </trkpt>
      <trkpt lat="44.31262" lon="6.15428">
        <ele>1142.664307</ele>
        <time>2011-09-08T08:34:01Z</time>
      </trkpt>
      <trkpt lat="44.3126" lon="6.15445">
        <ele>1143.144775</ele>
        <time>2011-09-08T08:34:09Z</time>
      </trkpt>
      <trkpt lat="44.31242" lon="6.1547">
        <ele>1145.067383</ele>
        <time>2011-09-08T08:34:27Z</time>
      </trkpt>
      <trkpt lat="44.31212" lon="6.15485">
        <ele>1147.951416</ele>
        <time>2011-09-08T08:34:51Z</time>
      </trkpt>
      <trkpt lat="44.31191" lon="6.15488">
        <ele>1150.35498</ele>
        <time>2011-09-08T08:35:08Z</time>
      </trkpt>
      <trkpt lat="44.3118" lon="6.15481">
        <ele>1151.796875</ele>
        <time>2011-09-08T08:35:19Z</time>
      </trkpt>
      <trkpt lat="44.31181" lon="6.15449">
        <ele>1153.719482</ele>
        <time>2011-09-08T08:35:37Z</time>
      </trkpt>
      <trkpt lat="44.31192" lon="6.15433">
        <ele>1155.161377</ele>
        <time>2011-09-08T08:35:48Z</time>
      </trkpt>
      <trkpt lat="44.31205" lon="6.15396">
        <ele>1157.564697</ele>
        <time>2011-09-08T08:36:08Z</time>
      </trkpt>
      <trkpt lat="44.31207" lon="6.15384">
        <ele>1158.525879</ele>
        <time>2011-09-08T08:36:15Z</time>
      </trkpt>
      <trkpt lat="44.31228" lon="6.15351">
        <ele>1161.409912</ele>
        <time>2011-09-08T08:36:38Z</time>
      </trkpt>
      <trkpt lat="44.31228" lon="6.15349">
        <ele>1161.409912</ele>
        <time>2011-09-08T08:36:40Z</time>
      </trkpt>
      <trkpt lat="44.31235" lon="6.15335">
        <ele>1162.371094</ele>
        <time>2011-09-08T08:36:50Z</time>
      </trkpt>
      <trkpt lat="44.31234" lon="6.1533">
        <ele>1162.371094</ele>
        <time>2011-09-08T08:36:53Z</time>
      </trkpt>
      <trkpt lat="44.31218" lon="6.15327">
        <ele>1164.774658</ele>
        <time>2011-09-08T08:37:08Z</time>
      </trkpt>
      <trkpt lat="44.31203" lon="6.15352">
        <ele>1166.216553</ele>
        <time>2011-09-08T08:37:24Z</time>
      </trkpt>
      <trkpt lat="44.31202" lon="6.15355">
        <ele>1166.216553</ele>
        <time>2011-09-08T08:37:26Z</time>
      </trkpt>
      <trkpt lat="44.31186" lon="6.15383">
        <ele>1168.619873</ele>
        <time>2011-09-08T08:37:45Z</time>
      </trkpt>
      <trkpt lat="44.31172" lon="6.15396">
        <ele>1171.023193</ele>
        <time>2011-09-08T08:37:58Z</time>
      </trkpt>
      <trkpt lat="44.31164" lon="6.15404">
        <ele>1171.503662</ele>
        <time>2011-09-08T08:38:05Z</time>
      </trkpt>
      <trkpt lat="44.31152" lon="6.15416">
        <ele>1172.945801</ele>
        <time>2011-09-08T08:38:15Z</time>
      </trkpt>
      <trkpt lat="44.31138" lon="6.15423">
        <ele>1174.868408</ele>
        <time>2011-09-08T08:38:27Z</time>
      </trkpt>
      <trkpt lat="44.31118" lon="6.15417">
        <ele>1177.271729</ele>
        <time>2011-09-08T08:38:45Z</time>
      </trkpt>
      <trkpt lat="44.31092" lon="6.15402">
        <ele>1180.155762</ele>
        <time>2011-09-08T08:39:08Z</time>
      </trkpt>
      <trkpt lat="44.31083" lon="6.15395">
        <ele>1181.597656</ele>
        <time>2011-09-08T08:39:17Z</time>
      </trkpt>
      <trkpt lat="44.31069" lon="6.15391">
        <ele>1183.039551</ele>
        <time>2011-09-08T08:39:27Z</time>
      </trkpt>
      <trkpt lat="44.31064" lon="6.15395">
        <ele>1183.520264</ele>
        <time>2011-09-08T08:39:31Z</time>
      </trkpt>
      <trkpt lat="44.31054" lon="6.15416">
        <ele>1184.962402</ele>
        <time>2011-09-08T08:39:43Z</time>
      </trkpt>
      <trkpt lat="44.31049" lon="6.1542">
        <ele>1185.923584</ele>
        <time>2011-09-08T08:39:48Z</time>
      </trkpt>
      <trkpt lat="44.31036" lon="6.15418">
        <ele>1187.365479</ele>
        <time>2011-09-08T08:39:58Z</time>
      </trkpt>
      <trkpt lat="44.31008" lon="6.15415">
        <ele>1190.72998</ele>
        <time>2011-09-08T08:40:21Z</time>
      </trkpt>
      <trkpt lat="44.30995" lon="6.15413">
        <ele>1192.172119</ele>
        <time>2011-09-08T08:40:31Z</time>
      </trkpt>
      <trkpt lat="44.30975" lon="6.15413">
        <ele>1193.614014</ele>
        <time>2011-09-08T08:40:47Z</time>
      </trkpt>
      <trkpt lat="44.30945" lon="6.15408">
        <ele>1196.498291</ele>
        <time>2011-09-08T08:41:11Z</time>
      </trkpt>
      <trkpt lat="44.30923" lon="6.15391">
        <ele>1199.862793</ele>
        <time>2011-09-08T08:41:32Z</time>
      </trkpt>
      <trkpt lat="44.30921" lon="6.15389">
        <ele>1199.862793</ele>
        <time>2011-09-08T08:41:34Z</time>
      </trkpt>
      <trkpt lat="44.30899" lon="6.15363">
        <ele>1202.746582</ele>
        <time>2011-09-08T08:41:57Z</time>
      </trkpt>
      <trkpt lat="44.30897" lon="6.15359">
        <ele>1202.746582</ele>
        <time>2011-09-08T08:42:00Z</time>
      </trkpt>
      <trkpt lat="44.30893" lon="6.15349">
        <ele>1203.708008</ele>
        <time>2011-09-08T08:42:07Z</time>
      </trkpt>
      <trkpt lat="44.30887" lon="6.15333">
        <ele>1204.669189</ele>
        <time>2011-09-08T08:42:17Z</time>
      </trkpt>
      <trkpt lat="44.30883" lon="6.15331">
        <ele>1204.669189</ele>
        <time>2011-09-08T08:42:20Z</time>
      </trkpt>
      <trkpt lat="44.3088" lon="6.15339">
        <ele>1206.111084</ele>
        <time>2011-09-08T08:42:26Z</time>
      </trkpt>
      <trkpt lat="44.30882" lon="6.15347">
        <ele>1206.591797</ele>
        <time>2011-09-08T08:42:30Z</time>
      </trkpt>
      <trkpt lat="44.30891" lon="6.15368">
        <ele>1207.07251</ele>
        <time>2011-09-08T08:42:41Z</time>
      </trkpt>
      <trkpt lat="44.30902" lon="6.15408">
        <ele>1209.47583</ele>
        <time>2011-09-08T08:43:02Z</time>
      </trkpt>
      <trkpt lat="44.30918" lon="6.15456">
        <ele>1211.398438</ele>
        <time>2011-09-08T08:43:24Z</time>
      </trkpt>
      <trkpt lat="44.30928" lon="6.15499">
        <ele>1211.398438</ele>
        <time>2011-09-08T08:43:41Z</time>
      </trkpt>
      <trkpt lat="44.30922" lon="6.15551">
        <ele>1213.801758</ele>
        <time>2011-09-08T08:44:01Z</time>
      </trkpt>
      <trkpt lat="44.30898" lon="6.15601">
        <ele>1214.282471</ele>
        <time>2011-09-08T08:44:21Z</time>
      </trkpt>
      <trkpt lat="44.30877" lon="6.15643">
        <ele>1215.724609</ele>
        <time>2011-09-08T08:44:39Z</time>
      </trkpt>
      <trkpt lat="44.30866" lon="6.15673">
        <ele>1216.685791</ele>
        <time>2011-09-08T08:44:50Z</time>
      </trkpt>
      <trkpt lat="44.30859" lon="6.15691">
        <ele>1217.646973</ele>
        <time>2011-09-08T08:44:58Z</time>
      </trkpt>
      <trkpt lat="44.30859" lon="6.15693">
        <ele>1217.646973</ele>
        <time>2011-09-08T08:44:59Z</time>
      </trkpt>
      <trkpt lat="44.30858" lon="6.15705">
        <ele>1218.127686</ele>
        <time>2011-09-08T08:45:05Z</time>
      </trkpt>
      <trkpt lat="44.30849" lon="6.15749">
        <ele>1219.569824</ele>
        <time>2011-09-08T08:45:22Z</time>
      </trkpt>
      <trkpt lat="44.30829" lon="6.15786">
        <ele>1218.608398</ele>
        <time>2011-09-08T08:45:33Z</time>
      </trkpt>
      <trkpt lat="44.30824" lon="6.15811">
        <ele>1218.127686</ele>
        <time>2011-09-08T08:45:38Z</time>
      </trkpt>
      <trkpt lat="44.30814" lon="6.15857">
        <ele>1215.724609</ele>
        <time>2011-09-08T08:45:47Z</time>
      </trkpt>
      <trkpt lat="44.30819" lon="6.15884">
        <ele>1215.724609</ele>
        <time>2011-09-08T08:45:52Z</time>
      </trkpt>
      <trkpt lat="44.3082" lon="6.15907">
        <ele>1215.243896</ele>
        <time>2011-09-08T08:45:57Z</time>
      </trkpt>
      <trkpt lat="44.30808" lon="6.15918">
        <ele>1214.282471</ele>
        <time>2011-09-08T08:46:09Z</time>
      </trkpt>
      <trkpt lat="44.30808" lon="6.15918">
        <ele>1215.724609</ele>
        <time>2011-09-08T08:46:50Z</time>
      </trkpt>
      <trkpt lat="44.30808" lon="6.15918">
        <ele>1214.282471</ele>
        <time>2011-09-08T08:46:52Z</time>
      </trkpt>
      <trkpt lat="44.30808" lon="6.15918">
        <ele>1214.763184</ele>
        <time>2011-09-08T08:48:14Z</time>
      </trkpt>
      <trkpt lat="44.30808" lon="6.15918">
        <ele>1211.87915</ele>
        <time>2011-09-08T08:48:30Z</time>
      </trkpt>
      <trkpt lat="44.30808" lon="6.15918">
        <ele>1213.801758</ele>
        <time>2011-09-08T08:48:32Z</time>
      </trkpt>
      <trkpt lat="44.30808" lon="6.15918">
        <ele>1214.282471</ele>
        <time>2011-09-08T08:48:49Z</time>
      </trkpt>
      <trkpt lat="44.30808" lon="6.15918">
        <ele>1213.321289</ele>
        <time>2011-09-08T08:50:06Z</time>
      </trkpt>
      <trkpt lat="44.30808" lon="6.15918">
        <ele>1215.724609</ele>
        <time>2011-09-08T08:57:52Z</time>
      </trkpt>
      <trkpt lat="44.30808" lon="6.15918">
        <ele>1215.724609</ele>
        <time>2011-09-08T08:57:53Z</time>
      </trkpt>
      <trkpt lat="44.30797" lon="6.15927">
        <ele>1215.724609</ele>
        <time>2011-09-08T08:59:31Z</time>
      </trkpt>
      <trkpt lat="44.30768" lon="6.15953">
        <ele>1217.646973</ele>
        <time>2011-09-08T08:59:52Z</time>
      </trkpt>
      <trkpt lat="44.30755" lon="6.15963">
        <ele>1218.127686</ele>
        <time>2011-09-08T09:00:02Z</time>
      </trkpt>
      <trkpt lat="44.30751" lon="6.15971">
        <ele>1218.608398</ele>
        <time>2011-09-08T09:00:08Z</time>
      </trkpt>
      <trkpt lat="44.30741" lon="6.16007">
        <ele>1221.011719</ele>
        <time>2011-09-08T09:00:25Z</time>
      </trkpt>
      <trkpt lat="44.30735" lon="6.16017">
        <ele>1221.492188</ele>
        <time>2011-09-08T09:00:32Z</time>
      </trkpt>
      <trkpt lat="44.30728" lon="6.1602">
        <ele>1221.9729</ele>
        <time>2011-09-08T09:00:37Z</time>
      </trkpt>
      <trkpt lat="44.30704" lon="6.16033">
        <ele>1224.856934</ele>
        <time>2011-09-08T09:00:59Z</time>
      </trkpt>
      <trkpt lat="44.30685" lon="6.16067">
        <ele>1226.298828</ele>
        <time>2011-09-08T09:01:20Z</time>
      </trkpt>
      <trkpt lat="44.30657" lon="6.1608">
        <ele>1228.22168</ele>
        <time>2011-09-08T09:01:41Z</time>
      </trkpt>
      <trkpt lat="44.30638" lon="6.16102">
        <ele>1229.663574</ele>
        <time>2011-09-08T09:01:58Z</time>
      </trkpt>
      <trkpt lat="44.30613" lon="6.1613">
        <ele>1233.028076</ele>
        <time>2011-09-08T09:02:22Z</time>
      </trkpt>
      <trkpt lat="44.30584" lon="6.16149">
        <ele>1235.431396</ele>
        <time>2011-09-08T09:02:47Z</time>
      </trkpt>
      <trkpt lat="44.30556" lon="6.1616">
        <ele>1237.354004</ele>
        <time>2011-09-08T09:03:10Z</time>
      </trkpt>
      <trkpt lat="44.30532" lon="6.16177">
        <ele>1239.276611</ele>
        <time>2011-09-08T09:03:31Z</time>
      </trkpt>
      <trkpt lat="44.30512" lon="6.16207">
        <ele>1241.199219</ele>
        <time>2011-09-08T09:03:51Z</time>
      </trkpt>
      <trkpt lat="44.30498" lon="6.16239">
        <ele>1243.602539</ele>
        <time>2011-09-08T09:04:11Z</time>
      </trkpt>
      <trkpt lat="44.30493" lon="6.1625">
        <ele>1244.083496</ele>
        <time>2011-09-08T09:04:18Z</time>
      </trkpt>
      <trkpt lat="44.30492" lon="6.16252">
        <ele>1244.083496</ele>
        <time>2011-09-08T09:04:20Z</time>
      </trkpt>
      <trkpt lat="44.3048" lon="6.16273">
        <ele>1246.006104</ele>
        <time>2011-09-08T09:04:34Z</time>
      </trkpt>
      <trkpt lat="44.30462" lon="6.16299">
        <ele>1248.40918</ele>
        <time>2011-09-08T09:04:55Z</time>
      </trkpt>
      <trkpt lat="44.30447" lon="6.16337">
        <ele>1251.773926</ele>
        <time>2011-09-08T09:05:18Z</time>
      </trkpt>
      <trkpt lat="44.30432" lon="6.16387">
        <ele>1254.177246</ele>
        <time>2011-09-08T09:05:45Z</time>
      </trkpt>
      <trkpt lat="44.30414" lon="6.16423">
        <ele>1256.099609</ele>
        <time>2011-09-08T09:06:06Z</time>
      </trkpt>
      <trkpt lat="44.30389" lon="6.16452">
        <ele>1258.50293</ele>
        <time>2011-09-08T09:06:29Z</time>
      </trkpt>
      <trkpt lat="44.30366" lon="6.1647">
        <ele>1260.906494</ele>
        <time>2011-09-08T09:06:48Z</time>
      </trkpt>
      <trkpt lat="44.30343" lon="6.16483">
        <ele>1261.86792</ele>
        <time>2011-09-08T09:07:05Z</time>
      </trkpt>
      <trkpt lat="44.30317" lon="6.1649">
        <ele>1264.270996</ele>
        <time>2011-09-08T09:07:25Z</time>
      </trkpt>
      <trkpt lat="44.30294" lon="6.16499">
        <ele>1266.193604</ele>
        <time>2011-09-08T09:07:42Z</time>
      </trkpt>
      <trkpt lat="44.30274" lon="6.16527">
        <ele>1267.635498</ele>
        <time>2011-09-08T09:08:02Z</time>
      </trkpt>
      <trkpt lat="44.30253" lon="6.16555">
        <ele>1270.038818</ele>
        <time>2011-09-08T09:08:23Z</time>
      </trkpt>
      <trkpt lat="44.30251" lon="6.16557">
        <ele>1270.038818</ele>
        <time>2011-09-08T09:08:24Z</time>
      </trkpt>
      <trkpt lat="44.30239" lon="6.16584">
        <ele>1271.961426</ele>
        <time>2011-09-08T09:08:39Z</time>
      </trkpt>
      <trkpt lat="44.30224" lon="6.1662">
        <ele>1273.884033</ele>
        <time>2011-09-08T09:08:59Z</time>
      </trkpt>
      <trkpt lat="44.30215" lon="6.16659">
        <ele>1276.768311</ele>
        <time>2011-09-08T09:09:22Z</time>
      </trkpt>
      <trkpt lat="44.30199" lon="6.16678">
        <ele>1278.210205</ele>
        <time>2011-09-08T09:09:39Z</time>
      </trkpt>
      <trkpt lat="44.30181" lon="6.16701">
        <ele>1281.094238</ele>
        <time>2011-09-08T09:09:59Z</time>
      </trkpt>
      <trkpt lat="44.30161" lon="6.16715">
        <ele>1283.978027</ele>
        <time>2011-09-08T09:10:19Z</time>
      </trkpt>
      <trkpt lat="44.30159" lon="6.16715">
        <ele>1284.939453</ele>
        <time>2011-09-08T09:10:24Z</time>
      </trkpt>
      <trkpt lat="44.30132" lon="6.1672">
        <ele>1287.342529</ele>
        <time>2011-09-08T09:10:46Z</time>
      </trkpt>
      <trkpt lat="44.30116" lon="6.1673">
        <ele>1289.265137</ele>
        <time>2011-09-08T09:10:59Z</time>
      </trkpt>
      <trkpt lat="44.30103" lon="6.16748">
        <ele>1290.707031</ele>
        <time>2011-09-08T09:11:11Z</time>
      </trkpt>
      <trkpt lat="44.30098" lon="6.16767">
        <ele>1292.149414</ele>
        <time>2011-09-08T09:11:22Z</time>
      </trkpt>
      <trkpt lat="44.30086" lon="6.16787">
        <ele>1294.072021</ele>
        <time>2011-09-08T09:11:38Z</time>
      </trkpt>
      <trkpt lat="44.3008" lon="6.16791">
        <ele>1295.033203</ele>
        <time>2011-09-08T09:11:43Z</time>
      </trkpt>
      <trkpt lat="44.30073" lon="6.168">
        <ele>1295.994629</ele>
        <time>2011-09-08T09:11:50Z</time>
      </trkpt>
      <trkpt lat="44.3007" lon="6.16804">
        <ele>1295.994629</ele>
        <time>2011-09-08T09:11:53Z</time>
      </trkpt>
      <trkpt lat="44.30067" lon="6.16811">
        <ele>1295.994629</ele>
        <time>2011-09-08T09:11:58Z</time>
      </trkpt>
      <trkpt lat="44.30063" lon="6.16833">
        <ele>1297.436523</ele>
        <time>2011-09-08T09:12:09Z</time>
      </trkpt>
      <trkpt lat="44.30056" lon="6.16876">
        <ele>1299.359131</ele>
        <time>2011-09-08T09:12:30Z</time>
      </trkpt>
      <trkpt lat="44.30045" lon="6.16909">
        <ele>1302.24292</ele>
        <time>2011-09-08T09:12:49Z</time>
      </trkpt>
      <trkpt lat="44.30028" lon="6.16945">
        <ele>1304.165771</ele>
        <time>2011-09-08T09:13:12Z</time>
      </trkpt>
      <trkpt lat="44.30016" lon="6.16989">
        <ele>1306.568848</ele>
        <time>2011-09-08T09:13:35Z</time>
      </trkpt>
      <trkpt lat="44.30002" lon="6.17028">
        <ele>1308.972412</ele>
        <time>2011-09-08T09:13:58Z</time>
      </trkpt>
      <trkpt lat="44.29998" lon="6.17035">
        <ele>1309.933594</ele>
        <time>2011-09-08T09:14:03Z</time>
      </trkpt>
      <trkpt lat="44.29984" lon="6.17064">
        <ele>1311.375732</ele>
        <time>2011-09-08T09:14:21Z</time>
      </trkpt>
      <trkpt lat="44.29977" lon="6.17092">
        <ele>1312.817627</ele>
        <time>2011-09-08T09:14:36Z</time>
      </trkpt>
      <trkpt lat="44.29983" lon="6.17137">
        <ele>1314.740234</ele>
        <time>2011-09-08T09:14:57Z</time>
      </trkpt>
      <trkpt lat="44.2998" lon="6.17152">
        <ele>1316.182129</ele>
        <time>2011-09-08T09:15:05Z</time>
      </trkpt>
      <trkpt lat="44.29979" lon="6.17158">
        <ele>1316.182129</ele>
        <time>2011-09-08T09:15:08Z</time>
      </trkpt>
      <trkpt lat="44.29977" lon="6.17184">
        <ele>1318.585449</ele>
        <time>2011-09-08T09:15:23Z</time>
      </trkpt>
      <trkpt lat="44.29975" lon="6.172">
        <ele>1321.469238</ele>
        <time>2011-09-08T09:15:46Z</time>
      </trkpt>
      <trkpt lat="44.29974" lon="6.17228">
        <ele>1322.430664</ele>
        <time>2011-09-08T09:15:54Z</time>
      </trkpt>
      <trkpt lat="44.29973" lon="6.17242">
        <ele>1323.39209</ele>
        <time>2011-09-08T09:15:59Z</time>
      </trkpt>
      <trkpt lat="44.29973" lon="6.17246">
        <ele>1323.872559</ele>
        <time>2011-09-08T09:16:02Z</time>
      </trkpt>
      <trkpt lat="44.29971" lon="6.17257">
        <ele>1325.314697</ele>
        <time>2011-09-08T09:16:15Z</time>
      </trkpt>
      <trkpt lat="44.29955" lon="6.1729">
        <ele>1327.718018</ele>
        <time>2011-09-08T09:16:38Z</time>
      </trkpt>
      <trkpt lat="44.29955" lon="6.1729">
        <ele>1328.679443</ele>
        <time>2011-09-08T09:16:46Z</time>
      </trkpt>
      <trkpt lat="44.29933" lon="6.17338">
        <ele>1331.563232</ele>
        <time>2011-09-08T09:17:09Z</time>
      </trkpt>
      <trkpt lat="44.29915" lon="6.17378">
        <ele>1334.447266</ele>
        <time>2011-09-08T09:17:36Z</time>
      </trkpt>
      <trkpt lat="44.29899" lon="6.17398">
        <ele>1335.88916</ele>
        <time>2011-09-08T09:17:53Z</time>
      </trkpt>
      <trkpt lat="44.29878" lon="6.17434">
        <ele>1338.773193</ele>
        <time>2011-09-08T09:18:17Z</time>
      </trkpt>
      <trkpt lat="44.29878" lon="6.17434">
        <ele>1338.773193</ele>
        <time>2011-09-08T09:18:18Z</time>
      </trkpt>
      <trkpt lat="44.29856" lon="6.17459">
        <ele>1341.176514</ele>
        <time>2011-09-08T09:18:39Z</time>
      </trkpt>
      <trkpt lat="44.29844" lon="6.17501">
        <ele>1343.099121</ele>
        <time>2011-09-08T09:19:00Z</time>
      </trkpt>
      <trkpt lat="44.29837" lon="6.17554">
        <ele>1346.944336</ele>
        <time>2011-09-08T09:19:28Z</time>
      </trkpt>
      <trkpt lat="44.29827" lon="6.17594">
        <ele>1349.347656</ele>
        <time>2011-09-08T09:19:53Z</time>
      </trkpt>
      <trkpt lat="44.29827" lon="6.176">
        <ele>1350.309082</ele>
        <time>2011-09-08T09:19:56Z</time>
      </trkpt>
      <trkpt lat="44.29837" lon="6.17644">
        <ele>1351.270264</ele>
        <time>2011-09-08T09:20:18Z</time>
      </trkpt>
      <trkpt lat="44.29831" lon="6.17684">
        <ele>1351.270264</ele>
        <time>2011-09-08T09:20:34Z</time>
      </trkpt>
      <trkpt lat="44.29816" lon="6.17728">
        <ele>1350.789551</ele>
        <time>2011-09-08T09:20:50Z</time>
      </trkpt>
      <trkpt lat="44.29817" lon="6.17774">
        <ele>1351.750977</ele>
        <time>2011-09-08T09:21:06Z</time>
      </trkpt>
      <trkpt lat="44.29834" lon="6.17813">
        <ele>1353.192871</ele>
        <time>2011-09-08T09:21:22Z</time>
      </trkpt>
      <trkpt lat="44.29843" lon="6.17844">
        <ele>1354.634766</ele>
        <time>2011-09-08T09:21:37Z</time>
      </trkpt>
      <trkpt lat="44.29847" lon="6.17892">
        <ele>1356.076904</ele>
        <time>2011-09-08T09:21:58Z</time>
      </trkpt>
      <trkpt lat="44.29864" lon="6.17927">
        <ele>1355.596191</ele>
        <time>2011-09-08T09:22:10Z</time>
      </trkpt>
      <trkpt lat="44.29863" lon="6.17932">
        <ele>1354.634766</ele>
        <time>2011-09-08T09:22:15Z</time>
      </trkpt>
      <trkpt lat="44.29844" lon="6.17938">
        <ele>1355.596191</ele>
        <time>2011-09-08T09:22:32Z</time>
      </trkpt>
      <trkpt lat="44.29817" lon="6.17961">
        <ele>1358.480225</ele>
        <time>2011-09-08T09:22:50Z</time>
      </trkpt>
      <trkpt lat="44.29806" lon="6.17989">
        <ele>1361.364258</ele>
        <time>2011-09-08T09:23:08Z</time>
      </trkpt>
      <trkpt lat="44.29802" lon="6.17998">
        <ele>1362.325439</ele>
        <time>2011-09-08T09:23:14Z</time>
      </trkpt>
      <trkpt lat="44.29796" lon="6.18012">
        <ele>1363.286865</ele>
        <time>2011-09-08T09:23:22Z</time>
      </trkpt>
      <trkpt lat="44.29794" lon="6.18018">
        <ele>1363.286865</ele>
        <time>2011-09-08T09:23:25Z</time>
      </trkpt>
      <trkpt lat="44.29784" lon="6.18041">
        <ele>1363.767334</ele>
        <time>2011-09-08T09:23:44Z</time>
      </trkpt>
      <trkpt lat="44.29784" lon="6.18041">
        <ele>1364.248047</ele>
        <time>2011-09-08T09:24:32Z</time>
      </trkpt>
      <trkpt lat="44.29777" lon="6.18054">
        <ele>1362.325439</ele>
        <time>2011-09-08T09:25:23Z</time>
      </trkpt>
      <trkpt lat="44.29761" lon="6.181">
        <ele>1360.883545</ele>
        <time>2011-09-08T09:25:34Z</time>
      </trkpt>
      <trkpt lat="44.29733" lon="6.18125">
        <ele>1358.480225</ele>
        <time>2011-09-08T09:25:44Z</time>
      </trkpt>
      <trkpt lat="44.29712" lon="6.18138">
        <ele>1357.519043</ele>
        <time>2011-09-08T09:25:49Z</time>
      </trkpt>
      <trkpt lat="44.29664" lon="6.18142">
        <ele>1357.03833</ele>
        <time>2011-09-08T09:26:02Z</time>
      </trkpt>
      <trkpt lat="44.29653" lon="6.18141">
        <ele>1356.557617</ele>
        <time>2011-09-08T09:26:12Z</time>
      </trkpt>
      <trkpt lat="44.29636" lon="6.1814">
        <ele>1357.999756</ele>
        <time>2011-09-08T09:26:36Z</time>
      </trkpt>
      <trkpt lat="44.2961" lon="6.1815">
        <ele>1358.960938</ele>
        <time>2011-09-08T09:26:50Z</time>
      </trkpt>
      <trkpt lat="44.29586" lon="6.18163">
        <ele>1359.922119</ele>
        <time>2011-09-08T09:27:06Z</time>
      </trkpt>
      <trkpt lat="44.2958" lon="6.18166">
        <ele>1360.883545</ele>
        <time>2011-09-08T09:27:09Z</time>
      </trkpt>
      <trkpt lat="44.29544" lon="6.18201">
        <ele>1360.883545</ele>
        <time>2011-09-08T09:27:28Z</time>
      </trkpt>
      <trkpt lat="44.29533" lon="6.18227">
        <ele>1360.883545</ele>
        <time>2011-09-08T09:27:43Z</time>
      </trkpt>
      <trkpt lat="44.29533" lon="6.18227">
        <ele>1360.883545</ele>
        <time>2011-09-08T09:27:54Z</time>
      </trkpt>
      <trkpt lat="44.29512" lon="6.18241">
        <ele>1361.364258</ele>
        <time>2011-09-08T09:28:08Z</time>
      </trkpt>
      <trkpt lat="44.29498" lon="6.18257">
        <ele>1363.767334</ele>
        <time>2011-09-08T09:28:19Z</time>
      </trkpt>
      <trkpt lat="44.29476" lon="6.18283">
        <ele>1365.209473</ele>
        <time>2011-09-08T09:28:40Z</time>
      </trkpt>
      <trkpt lat="44.29474" lon="6.18286">
        <ele>1365.209473</ele>
        <time>2011-09-08T09:28:42Z</time>
      </trkpt>
      <trkpt lat="44.29471" lon="6.18291">
        <ele>1365.690186</ele>
        <time>2011-09-08T09:28:46Z</time>
      </trkpt>
      <trkpt lat="44.29468" lon="6.18296">
        <ele>1366.170654</ele>
        <time>2011-09-08T09:28:48Z</time>
      </trkpt>
      <trkpt lat="44.29465" lon="6.18302">
        <ele>1366.651367</ele>
        <time>2011-09-08T09:28:52Z</time>
      </trkpt>
      <trkpt lat="44.29463" lon="6.18305">
        <ele>1367.13208</ele>
        <time>2011-09-08T09:28:56Z</time>
      </trkpt>
      <trkpt lat="44.29459" lon="6.18319">
        <ele>1367.612549</ele>
        <time>2011-09-08T09:29:01Z</time>
      </trkpt>
      <trkpt lat="44.29456" lon="6.18332">
        <ele>1369.054688</ele>
        <time>2011-09-08T09:29:12Z</time>
      </trkpt>
      <trkpt lat="44.29454" lon="6.18342">
        <ele>1369.054688</ele>
        <time>2011-09-08T09:29:16Z</time>
      </trkpt>
      <trkpt lat="44.29446" lon="6.18364">
        <ele>1372.419434</ele>
        <time>2011-09-08T09:29:33Z</time>
      </trkpt>
      <trkpt lat="44.29428" lon="6.18382">
        <ele>1373.380859</ele>
        <time>2011-09-08T09:29:50Z</time>
      </trkpt>
      <trkpt lat="44.29402" lon="6.18404">
        <ele>1375.303223</ele>
        <time>2011-09-08T09:30:12Z</time>
      </trkpt>
      <trkpt lat="44.294" lon="6.18407">
        <ele>1375.303223</ele>
        <time>2011-09-08T09:30:14Z</time>
      </trkpt>
      <trkpt lat="44.29379" lon="6.18447">
        <ele>1377.706543</ele>
        <time>2011-09-08T09:30:39Z</time>
      </trkpt>
      <trkpt lat="44.29359" lon="6.18466">
        <ele>1378.667969</ele>
        <time>2011-09-08T09:30:56Z</time>
      </trkpt>
      <trkpt lat="44.29344" lon="6.18503">
        <ele>1381.071289</ele>
        <time>2011-09-08T09:31:17Z</time>
      </trkpt>
      <trkpt lat="44.29318" lon="6.18528">
        <ele>1382.993652</ele>
        <time>2011-09-08T09:31:40Z</time>
      </trkpt>
      <trkpt lat="44.29297" lon="6.18547">
        <ele>1384.916504</ele>
        <time>2011-09-08T09:32:00Z</time>
      </trkpt>
      <trkpt lat="44.29279" lon="6.18574">
        <ele>1386.838867</ele>
        <time>2011-09-08T09:32:22Z</time>
      </trkpt>
      <trkpt lat="44.29274" lon="6.18575">
        <ele>1386.838867</ele>
        <time>2011-09-08T09:32:26Z</time>
      </trkpt>
      <trkpt lat="44.29271" lon="6.18565">
        <ele>1387.800293</ele>
        <time>2011-09-08T09:32:33Z</time>
      </trkpt>
      <trkpt lat="44.29285" lon="6.18529">
        <ele>1389.723145</ele>
        <time>2011-09-08T09:32:54Z</time>
      </trkpt>
      <trkpt lat="44.29292" lon="6.18514">
        <ele>1390.684326</ele>
        <time>2011-09-08T09:33:04Z</time>
      </trkpt>
      <trkpt lat="44.29294" lon="6.1851">
        <ele>1391.165039</ele>
        <time>2011-09-08T09:33:07Z</time>
      </trkpt>
      <trkpt lat="44.29306" lon="6.1848">
        <ele>1393.087646</ele>
        <time>2011-09-08T09:33:28Z</time>
      </trkpt>
      <trkpt lat="44.2931" lon="6.18442">
        <ele>1395.97168</ele>
        <time>2011-09-08T09:33:52Z</time>
      </trkpt>
      <trkpt lat="44.2931" lon="6.1844">
        <ele>1396.452393</ele>
        <time>2011-09-08T09:33:57Z</time>
      </trkpt>
      <trkpt lat="44.29293" lon="6.18417">
        <ele>1398.374756</ele>
        <time>2011-09-08T09:34:14Z</time>
      </trkpt>
      <trkpt lat="44.29275" lon="6.18403">
        <ele>1400.297607</ele>
        <time>2011-09-08T09:34:33Z</time>
      </trkpt>
      <trkpt lat="44.29264" lon="6.18391">
        <ele>1400.778076</ele>
        <time>2011-09-08T09:34:44Z</time>
      </trkpt>
      <trkpt lat="44.2925" lon="6.18372">
        <ele>1402.219971</ele>
        <time>2011-09-08T09:35:00Z</time>
      </trkpt>
      <trkpt lat="44.29249" lon="6.18369">
        <ele>1402.700684</ele>
        <time>2011-09-08T09:35:03Z</time>
      </trkpt>
      <trkpt lat="44.29251" lon="6.18357">
        <ele>1403.181396</ele>
        <time>2011-09-08T09:35:07Z</time>
      </trkpt>
      <trkpt lat="44.29269" lon="6.1835">
        <ele>1404.623535</ele>
        <time>2011-09-08T09:35:20Z</time>
      </trkpt>
      <trkpt lat="44.29277" lon="6.18334">
        <ele>1405.584961</ele>
        <time>2011-09-08T09:35:32Z</time>
      </trkpt>
      <trkpt lat="44.2928" lon="6.18324">
        <ele>1406.546143</ele>
        <time>2011-09-08T09:35:39Z</time>
      </trkpt>
      <trkpt lat="44.29286" lon="6.18286">
        <ele>1408.949463</ele>
        <time>2011-09-08T09:36:02Z</time>
      </trkpt>
      <trkpt lat="44.2929" lon="6.18266">
        <ele>1410.391357</ele>
        <time>2011-09-08T09:36:13Z</time>
      </trkpt>
      <trkpt lat="44.29299" lon="6.18232">
        <ele>1412.313965</ele>
        <time>2011-09-08T09:36:35Z</time>
      </trkpt>
      <trkpt lat="44.29299" lon="6.18226">
        <ele>1412.794678</ele>
        <time>2011-09-08T09:36:42Z</time>
      </trkpt>
      <trkpt lat="44.29294" lon="6.18208">
        <ele>1414.236572</ele>
        <time>2011-09-08T09:36:57Z</time>
      </trkpt>
      <trkpt lat="44.29294" lon="6.18208">
        <ele>1414.236572</ele>
        <time>2011-09-08T09:37:25Z</time>
      </trkpt>
      <trkpt lat="44.29292" lon="6.18211">
        <ele>1414.236572</ele>
        <time>2011-09-08T09:37:28Z</time>
      </trkpt>
      <trkpt lat="44.2929" lon="6.18214">
        <ele>1414.717285</ele>
        <time>2011-09-08T09:37:30Z</time>
      </trkpt>
      <trkpt lat="44.29288" lon="6.18219">
        <ele>1414.717285</ele>
        <time>2011-09-08T09:37:33Z</time>
      </trkpt>
      <trkpt lat="44.29282" lon="6.18229">
        <ele>1414.717285</ele>
        <time>2011-09-08T09:37:40Z</time>
      </trkpt>
      <trkpt lat="44.29278" lon="6.18236">
        <ele>1415.678711</ele>
        <time>2011-09-08T09:37:45Z</time>
      </trkpt>
      <trkpt lat="44.29275" lon="6.18241">
        <ele>1415.678711</ele>
        <time>2011-09-08T09:37:48Z</time>
      </trkpt>
      <trkpt lat="44.29273" lon="6.18243">
        <ele>1417.120605</ele>
        <time>2011-09-08T09:38:09Z</time>
      </trkpt>
      <trkpt lat="44.29273" lon="6.18243">
        <ele>1416.639893</ele>
        <time>2011-09-08T09:38:21Z</time>
      </trkpt>
      <trkpt lat="44.29249" lon="6.18265">
        <ele>1418.5625</ele>
        <time>2011-09-08T09:38:41Z</time>
      </trkpt>
      <trkpt lat="44.29228" lon="6.18267">
        <ele>1420.004639</ele>
        <time>2011-09-08T09:38:58Z</time>
      </trkpt>
      <trkpt lat="44.29207" lon="6.18262">
        <ele>1422.407959</ele>
        <time>2011-09-08T09:39:15Z</time>
      </trkpt>
      <trkpt lat="44.29199" lon="6.1826">
        <ele>1422.888672</ele>
        <time>2011-09-08T09:39:22Z</time>
      </trkpt>
      <trkpt lat="44.29182" lon="6.18256">
        <ele>1423.849854</ele>
        <time>2011-09-08T09:39:33Z</time>
      </trkpt>
      <trkpt lat="44.29175" lon="6.18257">
        <ele>1425.291748</ele>
        <time>2011-09-08T09:39:39Z</time>
      </trkpt>
      <trkpt lat="44.29168" lon="6.18263">
        <ele>1425.772461</ele>
        <time>2011-09-08T09:39:43Z</time>
      </trkpt>
      <trkpt lat="44.29164" lon="6.18304">
        <ele>1427.695068</ele>
        <time>2011-09-08T09:40:03Z</time>
      </trkpt>
      <trkpt lat="44.29155" lon="6.18338">
        <ele>1430.098389</ele>
        <time>2011-09-08T09:40:22Z</time>
      </trkpt>
      <trkpt lat="44.29154" lon="6.18364">
        <ele>1432.501709</ele>
        <time>2011-09-08T09:40:42Z</time>
      </trkpt>
      <trkpt lat="44.29162" lon="6.18385">
        <ele>1433.462891</ele>
        <time>2011-09-08T09:40:50Z</time>
      </trkpt>
      <trkpt lat="44.29163" lon="6.18388">
        <ele>1433.943604</ele>
        <time>2011-09-08T09:40:55Z</time>
      </trkpt>
      <trkpt lat="44.29163" lon="6.18388">
        <ele>1435.385498</ele>
        <time>2011-09-08T09:41:07Z</time>
      </trkpt>
      <trkpt lat="44.29163" lon="6.18388">
        <ele>1435.866211</ele>
        <time>2011-09-08T09:41:10Z</time>
      </trkpt>
      <trkpt lat="44.29159" lon="6.18417">
        <ele>1436.347168</ele>
        <time>2011-09-08T09:41:14Z</time>
      </trkpt>
      <trkpt lat="44.29159" lon="6.18417">
        <ele>1436.827637</ele>
        <time>2011-09-08T09:41:17Z</time>
      </trkpt>
      <trkpt lat="44.29155" lon="6.18421">
        <ele>1437.30835</ele>
        <time>2011-09-08T09:41:21Z</time>
      </trkpt>
      <trkpt lat="44.29132" lon="6.18428">
        <ele>1439.230957</ele>
        <time>2011-09-08T09:41:42Z</time>
      </trkpt>
      <trkpt lat="44.29115" lon="6.18417">
        <ele>1441.153564</ele>
        <time>2011-09-08T09:41:59Z</time>
      </trkpt>
      <trkpt lat="44.29106" lon="6.18414">
        <ele>1441.634277</ele>
        <time>2011-09-08T09:42:05Z</time>
      </trkpt>
      <trkpt lat="44.29075" lon="6.18435">
        <ele>1443.556885</ele>
        <time>2011-09-08T09:42:29Z</time>
      </trkpt>
      <trkpt lat="44.29054" lon="6.18453">
        <ele>1444.998779</ele>
        <time>2011-09-08T09:42:47Z</time>
      </trkpt>
      <trkpt lat="44.29037" lon="6.18476">
        <ele>1445.960205</ele>
        <time>2011-09-08T09:43:03Z</time>
      </trkpt>
      <trkpt lat="44.29026" lon="6.18482">
        <ele>1446.921387</ele>
        <time>2011-09-08T09:43:12Z</time>
      </trkpt>
      <trkpt lat="44.28995" lon="6.18494">
        <ele>1448.843994</ele>
        <time>2011-09-08T09:43:35Z</time>
      </trkpt>
      <trkpt lat="44.28974" lon="6.185">
        <ele>1450.286133</ele>
        <time>2011-09-08T09:43:50Z</time>
      </trkpt>
      <trkpt lat="44.28937" lon="6.18505">
        <ele>1451.247314</ele>
        <time>2011-09-08T09:44:15Z</time>
      </trkpt>
      <trkpt lat="44.28907" lon="6.18494">
        <ele>1450.286133</ele>
        <time>2011-09-08T09:44:32Z</time>
      </trkpt>
      <trkpt lat="44.28878" lon="6.18461">
        <ele>1449.324707</ele>
        <time>2011-09-08T09:44:47Z</time>
      </trkpt>
      <trkpt lat="44.28877" lon="6.18458">
        <ele>1449.324707</ele>
        <time>2011-09-08T09:44:48Z</time>
      </trkpt>
      <trkpt lat="44.28864" lon="6.18481">
        <ele>1448.843994</ele>
        <time>2011-09-08T09:44:55Z</time>
      </trkpt>
      <trkpt lat="44.28841" lon="6.18526">
        <ele>1447.882813</ele>
        <time>2011-09-08T09:45:09Z</time>
      </trkpt>
      <trkpt lat="44.28803" lon="6.18565">
        <ele>1446.921387</ele>
        <time>2011-09-08T09:45:25Z</time>
      </trkpt>
      <trkpt lat="44.2877" lon="6.1859">
        <ele>1445.960205</ele>
        <time>2011-09-08T09:45:39Z</time>
      </trkpt>
      <trkpt lat="44.28748" lon="6.18604">
        <ele>1446.440918</ele>
        <time>2011-09-08T09:45:53Z</time>
      </trkpt>
      <trkpt lat="44.287" lon="6.18622">
        <ele>1446.440918</ele>
        <time>2011-09-08T09:46:12Z</time>
      </trkpt>
      <trkpt lat="44.28674" lon="6.18618">
        <ele>1446.440918</ele>
        <time>2011-09-08T09:46:21Z</time>
      </trkpt>
      <trkpt lat="44.28669" lon="6.18619">
        <ele>1445.960205</ele>
        <time>2011-09-08T09:46:23Z</time>
      </trkpt>
      <trkpt lat="44.28663" lon="6.1864">
        <ele>1445.479492</ele>
        <time>2011-09-08T09:46:29Z</time>
      </trkpt>
      <trkpt lat="44.2869" lon="6.18684">
        <ele>1445.960205</ele>
        <time>2011-09-08T09:46:45Z</time>
      </trkpt>
      <trkpt lat="44.28723" lon="6.18727">
        <ele>1446.921387</ele>
        <time>2011-09-08T09:47:05Z</time>
      </trkpt>
      <trkpt lat="44.28739" lon="6.18758">
        <ele>1447.4021</ele>
        <time>2011-09-08T09:47:19Z</time>
      </trkpt>
      <trkpt lat="44.28736" lon="6.18802">
        <ele>1448.843994</ele>
        <time>2011-09-08T09:47:38Z</time>
      </trkpt>
      <trkpt lat="44.28725" lon="6.18834">
        <ele>1452.20874</ele>
        <time>2011-09-08T09:47:59Z</time>
      </trkpt>
      <trkpt lat="44.28716" lon="6.18869">
        <ele>1455.092773</ele>
        <time>2011-09-08T09:48:22Z</time>
      </trkpt>
      <trkpt lat="44.28676" lon="6.18876">
        <ele>1457.976807</ele>
        <time>2011-09-08T09:48:47Z</time>
      </trkpt>
      <trkpt lat="44.28649" lon="6.18864">
        <ele>1460.379883</ele>
        <time>2011-09-08T09:49:08Z</time>
      </trkpt>
      <trkpt lat="44.28628" lon="6.1886">
        <ele>1462.30249</ele>
        <time>2011-09-08T09:49:25Z</time>
      </trkpt>
      <trkpt lat="44.28623" lon="6.18863">
        <ele>1462.30249</ele>
        <time>2011-09-08T09:49:29Z</time>
      </trkpt>
      <trkpt lat="44.28617" lon="6.18897">
        <ele>1464.225098</ele>
        <time>2011-09-08T09:49:48Z</time>
      </trkpt>
      <trkpt lat="44.28598" lon="6.18921">
        <ele>1466.147705</ele>
        <time>2011-09-08T09:50:09Z</time>
      </trkpt>
      <trkpt lat="44.2858" lon="6.18908">
        <ele>1467.5896</ele>
        <time>2011-09-08T09:50:25Z</time>
      </trkpt>
      <trkpt lat="44.28573" lon="6.18883">
        <ele>1469.512695</ele>
        <time>2011-09-08T09:50:40Z</time>
      </trkpt>
      <trkpt lat="44.28568" lon="6.18865">
        <ele>1471.435059</ele>
        <time>2011-09-08T09:50:51Z</time>
      </trkpt>
      <trkpt lat="44.28565" lon="6.18856">
        <ele>1471.915771</ele>
        <time>2011-09-08T09:50:56Z</time>
      </trkpt>
      <trkpt lat="44.28563" lon="6.18851">
        <ele>1471.915771</ele>
        <time>2011-09-08T09:50:59Z</time>
      </trkpt>
      <trkpt lat="44.28561" lon="6.18843">
        <ele>1472.877197</ele>
        <time>2011-09-08T09:51:04Z</time>
      </trkpt>
      <trkpt lat="44.28567" lon="6.18806">
        <ele>1474.319092</ele>
        <time>2011-09-08T09:51:22Z</time>
      </trkpt>
      <trkpt lat="44.28567" lon="6.18804">
        <ele>1474.799805</ele>
        <time>2011-09-08T09:51:23Z</time>
      </trkpt>
      <trkpt lat="44.28581" lon="6.18767">
        <ele>1476.722412</ele>
        <time>2011-09-08T09:51:44Z</time>
      </trkpt>
      <trkpt lat="44.28596" lon="6.18746">
        <ele>1477.683594</ele>
        <time>2011-09-08T09:51:58Z</time>
      </trkpt>
      <trkpt lat="44.28592" lon="6.18714">
        <ele>1479.606201</ele>
        <time>2011-09-08T09:52:17Z</time>
      </trkpt>
      <trkpt lat="44.28555" lon="6.18692">
        <ele>1481.528809</ele>
        <time>2011-09-08T09:52:42Z</time>
      </trkpt>
      <trkpt lat="44.28521" lon="6.18675">
        <ele>1482.490234</ele>
        <time>2011-09-08T09:53:02Z</time>
      </trkpt>
      <trkpt lat="44.28492" lon="6.18654">
        <ele>1483.451416</ele>
        <time>2011-09-08T09:53:21Z</time>
      </trkpt>
      <trkpt lat="44.28486" lon="6.18647">
        <ele>1483.932129</ele>
        <time>2011-09-08T09:53:26Z</time>
      </trkpt>
      <trkpt lat="44.28477" lon="6.18636">
        <ele>1483.932129</ele>
        <time>2011-09-08T09:53:33Z</time>
      </trkpt>
      <trkpt lat="44.2846" lon="6.18593">
        <ele>1485.374268</ele>
        <time>2011-09-08T09:53:54Z</time>
      </trkpt>
      <trkpt lat="44.28458" lon="6.18548">
        <ele>1486.816162</ele>
        <time>2011-09-08T09:54:14Z</time>
      </trkpt>
      <trkpt lat="44.2845" lon="6.18511">
        <ele>1488.739014</ele>
        <time>2011-09-08T09:54:33Z</time>
      </trkpt>
      <trkpt lat="44.28425" lon="6.18475">
        <ele>1492.103516</ele>
        <time>2011-09-08T09:54:54Z</time>
      </trkpt>
      <trkpt lat="44.28399" lon="6.1846">
        <ele>1494.026123</ele>
        <time>2011-09-08T09:55:11Z</time>
      </trkpt>
      <trkpt lat="44.28363" lon="6.18444">
        <ele>1496.429443</ele>
        <time>2011-09-08T09:55:34Z</time>
      </trkpt>
      <trkpt lat="44.28336" lon="6.18424">
        <ele>1497.871338</ele>
        <time>2011-09-08T09:55:53Z</time>
      </trkpt>
      <trkpt lat="44.28328" lon="6.18394">
        <ele>1500.274902</ele>
        <time>2011-09-08T09:56:12Z</time>
      </trkpt>
      <trkpt lat="44.28349" lon="6.1839">
        <ele>1502.197266</ele>
        <time>2011-09-08T09:56:27Z</time>
      </trkpt>
      <trkpt lat="44.2837" lon="6.18387">
        <ele>1503.639404</ele>
        <time>2011-09-08T09:56:43Z</time>
      </trkpt>
      <trkpt lat="44.28374" lon="6.18386">
        <ele>1504.120117</ele>
        <time>2011-09-08T09:56:46Z</time>
      </trkpt>
      <trkpt lat="44.28395" lon="6.18366">
        <ele>1506.04248</ele>
        <time>2011-09-08T09:57:06Z</time>
      </trkpt>
      <trkpt lat="44.284" lon="6.18331">
        <ele>1508.445801</ele>
        <time>2011-09-08T09:57:27Z</time>
      </trkpt>
      <trkpt lat="44.28398" lon="6.18325">
        <ele>1508.926514</ele>
        <time>2011-09-08T09:57:31Z</time>
      </trkpt>
      <trkpt lat="44.28413" lon="6.18303">
        <ele>1510.368408</ele>
        <time>2011-09-08T09:57:46Z</time>
      </trkpt>
      <trkpt lat="44.28432" lon="6.18307">
        <ele>1511.810547</ele>
        <time>2011-09-08T09:57:58Z</time>
      </trkpt>
      <trkpt lat="44.28437" lon="6.18309">
        <ele>1512.291016</ele>
        <time>2011-09-08T09:58:03Z</time>
      </trkpt>
      <trkpt lat="44.2847" lon="6.18309">
        <ele>1515.655762</ele>
        <time>2011-09-08T09:58:29Z</time>
      </trkpt>
      <trkpt lat="44.28482" lon="6.18304">
        <ele>1516.617188</ele>
        <time>2011-09-08T09:58:38Z</time>
      </trkpt>
      <trkpt lat="44.28495" lon="6.18298">
        <ele>1518.539795</ele>
        <time>2011-09-08T09:58:50Z</time>
      </trkpt>
      <trkpt lat="44.28517" lon="6.18279">
        <ele>1520.462402</ele>
        <time>2011-09-08T09:59:09Z</time>
      </trkpt>
      <trkpt lat="44.28536" lon="6.18267">
        <ele>1521.904297</ele>
        <time>2011-09-08T09:59:24Z</time>
      </trkpt>
      <trkpt lat="44.28566" lon="6.18272">
        <ele>1525.268799</ele>
        <time>2011-09-08T09:59:48Z</time>
      </trkpt>
      <trkpt lat="44.28589" lon="6.1827">
        <ele>1527.19165</ele>
        <time>2011-09-08T10:00:06Z</time>
      </trkpt>
      <trkpt lat="44.28602" lon="6.18259">
        <ele>1528.633545</ele>
        <time>2011-09-08T10:00:18Z</time>
      </trkpt>
      <trkpt lat="44.28608" lon="6.1822">
        <ele>1530.556152</ele>
        <time>2011-09-08T10:00:41Z</time>
      </trkpt>
      <trkpt lat="44.28606" lon="6.18178">
        <ele>1532.959473</ele>
        <time>2011-09-08T10:01:06Z</time>
      </trkpt>
      <trkpt lat="44.28607" lon="6.18168">
        <ele>1533.920898</ele>
        <time>2011-09-08T10:01:11Z</time>
      </trkpt>
      <trkpt lat="44.28598" lon="6.18163">
        <ele>1533.920898</ele>
        <time>2011-09-08T10:01:17Z</time>
      </trkpt>
      <trkpt lat="44.28581" lon="6.18177">
        <ele>1536.324219</ele>
        <time>2011-09-08T10:01:29Z</time>
      </trkpt>
      <trkpt lat="44.28555" lon="6.18202">
        <ele>1538.246826</ele>
        <time>2011-09-08T10:01:51Z</time>
      </trkpt>
      <trkpt lat="44.28535" lon="6.18202">
        <ele>1539.688721</ele>
        <time>2011-09-08T10:02:05Z</time>
      </trkpt>
      <trkpt lat="44.28528" lon="6.18202">
        <ele>1539.688721</ele>
        <time>2011-09-08T10:02:18Z</time>
      </trkpt>
      <trkpt lat="44.28496" lon="6.18208">
        <ele>1541.611328</ele>
        <time>2011-09-08T10:02:37Z</time>
      </trkpt>
      <trkpt lat="44.28464" lon="6.18208">
        <ele>1542.572754</ele>
        <time>2011-09-08T10:02:57Z</time>
      </trkpt>
      <trkpt lat="44.2843" lon="6.18214">
        <ele>1543.053223</ele>
        <time>2011-09-08T10:03:15Z</time>
      </trkpt>
      <trkpt lat="44.28396" lon="6.18217">
        <ele>1543.053223</ele>
        <time>2011-09-08T10:03:33Z</time>
      </trkpt>
      <trkpt lat="44.28392" lon="6.18216">
        <ele>1543.053223</ele>
        <time>2011-09-08T10:03:35Z</time>
      </trkpt>
      <trkpt lat="44.28338" lon="6.18211">
        <ele>1541.130615</ele>
        <time>2011-09-08T10:03:53Z</time>
      </trkpt>
      <trkpt lat="44.28333" lon="6.18211">
        <ele>1541.130615</ele>
        <time>2011-09-08T10:03:54Z</time>
      </trkpt>
      <trkpt lat="44.28312" lon="6.18208">
        <ele>1540.649902</ele>
        <time>2011-09-08T10:03:59Z</time>
      </trkpt>
      <trkpt lat="44.28302" lon="6.18207">
        <ele>1540.169434</ele>
        <time>2011-09-08T10:04:01Z</time>
      </trkpt>
      <trkpt lat="44.28257" lon="6.18207">
        <ele>1538.246826</ele>
        <time>2011-09-08T10:04:14Z</time>
      </trkpt>
      <trkpt lat="44.28233" lon="6.18163">
        <ele>1539.208008</ele>
        <time>2011-09-08T10:04:27Z</time>
      </trkpt>
      <trkpt lat="44.2823" lon="6.18159">
        <ele>1537.766113</ele>
        <time>2011-09-08T10:04:29Z</time>
      </trkpt>
      <trkpt lat="44.28216" lon="6.18101">
        <ele>1538.727539</ele>
        <time>2011-09-08T10:04:48Z</time>
      </trkpt>
      <trkpt lat="44.28217" lon="6.18041">
        <ele>1539.688721</ele>
        <time>2011-09-08T10:05:07Z</time>
      </trkpt>
      <trkpt lat="44.28215" lon="6.17987">
        <ele>1541.130615</ele>
        <time>2011-09-08T10:05:24Z</time>
      </trkpt>
      <trkpt lat="44.28214" lon="6.17961">
        <ele>1539.688721</ele>
        <time>2011-09-08T10:05:32Z</time>
      </trkpt>
      <trkpt lat="44.28211" lon="6.17945">
        <ele>1540.649902</ele>
        <time>2011-09-08T10:05:38Z</time>
      </trkpt>
      <trkpt lat="44.28208" lon="6.17936">
        <ele>1541.130615</ele>
        <time>2011-09-08T10:05:42Z</time>
      </trkpt>
      <trkpt lat="44.28207" lon="6.17933">
        <ele>1540.169434</ele>
        <time>2011-09-08T10:05:56Z</time>
      </trkpt>
      <trkpt lat="44.28203" lon="6.17925">
        <ele>1540.169434</ele>
        <time>2011-09-08T10:06:10Z</time>
      </trkpt>
      <trkpt lat="44.28203" lon="6.17925">
        <ele>1540.649902</ele>
        <time>2011-09-08T10:06:17Z</time>
      </trkpt>
      <trkpt lat="44.28203" lon="6.17925">
        <ele>1540.649902</ele>
        <time>2011-09-08T10:06:37Z</time>
      </trkpt>
      <trkpt lat="44.28203" lon="6.17925">
        <ele>1540.649902</ele>
        <time>2011-09-08T10:07:51Z</time>
      </trkpt>
      <trkpt lat="44.28203" lon="6.17925">
        <ele>1541.130615</ele>
        <time>2011-09-08T10:10:19Z</time>
      </trkpt>
      <trkpt lat="44.28203" lon="6.17925">
        <ele>1540.169434</ele>
        <time>2011-09-08T10:10:21Z</time>
      </trkpt>
      <trkpt lat="44.28203" lon="6.17925">
        <ele>1540.169434</ele>
        <time>2011-09-08T10:11:22Z</time>
      </trkpt>
      <trkpt lat="44.28203" lon="6.17925">
        <ele>1539.688721</ele>
        <time>2011-09-08T10:11:35Z</time>
      </trkpt>
      <trkpt lat="44.28184" lon="6.17916">
        <ele>1540.169434</ele>
        <time>2011-09-08T10:11:43Z</time>
      </trkpt>
      <trkpt lat="44.2819" lon="6.17917">
        <ele>1537.766113</ele>
        <time>2011-09-08T10:11:47Z</time>
      </trkpt>
      <trkpt lat="44.2819" lon="6.17917">
        <ele>1539.208008</ele>
        <time>2011-09-08T10:11:49Z</time>
      </trkpt>
      <trkpt lat="44.28205" lon="6.17931">
        <ele>1540.649902</ele>
        <time>2011-09-08T10:12:06Z</time>
      </trkpt>
      <trkpt lat="44.28212" lon="6.17947">
        <ele>1540.649902</ele>
        <time>2011-09-08T10:12:21Z</time>
      </trkpt>
      <trkpt lat="44.28225" lon="6.17937">
        <ele>1540.649902</ele>
        <time>2011-09-08T10:12:25Z</time>
      </trkpt>
      <trkpt lat="44.28228" lon="6.17935">
        <ele>1541.130615</ele>
        <time>2011-09-08T10:12:29Z</time>
      </trkpt>
      <trkpt lat="44.28222" lon="6.17938">
        <ele>1541.130615</ele>
        <time>2011-09-08T10:12:35Z</time>
      </trkpt>
      <trkpt lat="44.28217" lon="6.17941">
        <ele>1539.688721</ele>
        <time>2011-09-08T10:12:39Z</time>
      </trkpt>
      <trkpt lat="44.28213" lon="6.17959">
        <ele>1539.208008</ele>
        <time>2011-09-08T10:12:43Z</time>
      </trkpt>
      <trkpt lat="44.28217" lon="6.1802">
        <ele>1538.727539</ele>
        <time>2011-09-08T10:13:04Z</time>
      </trkpt>
      <trkpt lat="44.28216" lon="6.18082">
        <ele>1537.766113</ele>
        <time>2011-09-08T10:13:21Z</time>
      </trkpt>
      <trkpt lat="44.28235" lon="6.18167">
        <ele>1537.766113</ele>
        <time>2011-09-08T10:13:39Z</time>
      </trkpt>
      <trkpt lat="44.28253" lon="6.18206">
        <ele>1536.804688</ele>
        <time>2011-09-08T10:13:49Z</time>
      </trkpt>
      <trkpt lat="44.28247" lon="6.18219">
        <ele>1536.804688</ele>
        <time>2011-09-08T10:13:53Z</time>
      </trkpt>
      <trkpt lat="44.28233" lon="6.18275">
        <ele>1536.804688</ele>
        <time>2011-09-08T10:14:09Z</time>
      </trkpt>
      <trkpt lat="44.28217" lon="6.18292">
        <ele>1539.208008</ele>
        <time>2011-09-08T10:14:21Z</time>
      </trkpt>
      <trkpt lat="44.28194" lon="6.18303">
        <ele>1540.169434</ele>
        <time>2011-09-08T10:14:39Z</time>
      </trkpt>
      <trkpt lat="44.28172" lon="6.18309">
        <ele>1542.572754</ele>
        <time>2011-09-08T10:14:57Z</time>
      </trkpt>
      <trkpt lat="44.28147" lon="6.1831">
        <ele>1544.495117</ele>
        <time>2011-09-08T10:15:15Z</time>
      </trkpt>
      <trkpt lat="44.28146" lon="6.1831">
        <ele>1544.495117</ele>
        <time>2011-09-08T10:15:17Z</time>
      </trkpt>
      <trkpt lat="44.28134" lon="6.18314">
        <ele>1545.456543</ele>
        <time>2011-09-08T10:15:27Z</time>
      </trkpt>
      <trkpt lat="44.28107" lon="6.18335">
        <ele>1547.37915</ele>
        <time>2011-09-08T10:15:49Z</time>
      </trkpt>
      <trkpt lat="44.28088" lon="6.18368">
        <ele>1549.302002</ele>
        <time>2011-09-08T10:16:08Z</time>
      </trkpt>
      <trkpt lat="44.28074" lon="6.18417">
        <ele>1551.224609</ele>
        <time>2011-09-08T10:16:29Z</time>
      </trkpt>
      <trkpt lat="44.28066" lon="6.18465">
        <ele>1554.108643</ele>
        <time>2011-09-08T10:16:53Z</time>
      </trkpt>
      <trkpt lat="44.28055" lon="6.18497">
        <ele>1555.550537</ele>
        <time>2011-09-08T10:17:09Z</time>
      </trkpt>
      <trkpt lat="44.28036" lon="6.18533">
        <ele>1555.550537</ele>
        <time>2011-09-08T10:17:25Z</time>
      </trkpt>
      <trkpt lat="44.2801" lon="6.18581">
        <ele>1555.550537</ele>
        <time>2011-09-08T10:17:43Z</time>
      </trkpt>
      <trkpt lat="44.27975" lon="6.18627">
        <ele>1554.589111</ele>
        <time>2011-09-08T10:17:59Z</time>
      </trkpt>
      <trkpt lat="44.27976" lon="6.1866">
        <ele>1553.62793</ele>
        <time>2011-09-08T10:18:08Z</time>
      </trkpt>
      <trkpt lat="44.27987" lon="6.18661">
        <ele>1554.108643</ele>
        <time>2011-09-08T10:18:12Z</time>
      </trkpt>
      <trkpt lat="44.28026" lon="6.18654">
        <ele>1556.511719</ele>
        <time>2011-09-08T10:18:31Z</time>
      </trkpt>
      <trkpt lat="44.28068" lon="6.1866">
        <ele>1556.992432</ele>
        <time>2011-09-08T10:18:52Z</time>
      </trkpt>
      <trkpt lat="44.28099" lon="6.1867">
        <ele>1557.953857</ele>
        <time>2011-09-08T10:19:11Z</time>
      </trkpt>
      <trkpt lat="44.28115" lon="6.18676">
        <ele>1559.876221</ele>
        <time>2011-09-08T10:19:23Z</time>
      </trkpt>
      <trkpt lat="44.2814" lon="6.1868">
        <ele>1562.279541</ele>
        <time>2011-09-08T10:19:42Z</time>
      </trkpt>
      <trkpt lat="44.28162" lon="6.18678">
        <ele>1567.086426</ele>
        <time>2011-09-08T10:19:59Z</time>
      </trkpt>
      <trkpt lat="44.28164" lon="6.18678">
        <ele>1567.086426</ele>
        <time>2011-09-08T10:20:00Z</time>
      </trkpt>
      <trkpt lat="44.28168" lon="6.18683">
        <ele>1564.202393</ele>
        <time>2011-09-08T10:20:05Z</time>
      </trkpt>
      <trkpt lat="44.28166" lon="6.18697">
        <ele>1567.566895</ele>
        <time>2011-09-08T10:20:13Z</time>
      </trkpt>
      <trkpt lat="44.28166" lon="6.18698">
        <ele>1567.566895</ele>
        <time>2011-09-08T10:20:14Z</time>
      </trkpt>
      <trkpt lat="44.28162" lon="6.18706">
        <ele>1567.566895</ele>
        <time>2011-09-08T10:20:19Z</time>
      </trkpt>
      <trkpt lat="44.28151" lon="6.18745">
        <ele>1569.970215</ele>
        <time>2011-09-08T10:20:42Z</time>
      </trkpt>
      <trkpt lat="44.28149" lon="6.18757">
        <ele>1569.489746</ele>
        <time>2011-09-08T10:20:51Z</time>
      </trkpt>
      <trkpt lat="44.28147" lon="6.1876">
        <ele>1571.892822</ele>
        <time>2011-09-08T10:20:56Z</time>
      </trkpt>
      <trkpt lat="44.28141" lon="6.18743">
        <ele>1573.81543</ele>
        <time>2011-09-08T10:21:10Z</time>
      </trkpt>
      <trkpt lat="44.28137" lon="6.18738">
        <ele>1573.81543</ele>
        <time>2011-09-08T10:21:14Z</time>
      </trkpt>
      <trkpt lat="44.28114" lon="6.18746">
        <ele>1576.21875</ele>
        <time>2011-09-08T10:21:36Z</time>
      </trkpt>
      <trkpt lat="44.28098" lon="6.18777">
        <ele>1578.62207</ele>
        <time>2011-09-08T10:22:00Z</time>
      </trkpt>
      <trkpt lat="44.2808" lon="6.18805">
        <ele>1578.62207</ele>
        <time>2011-09-08T10:22:22Z</time>
      </trkpt>
      <trkpt lat="44.28078" lon="6.18807">
        <ele>1579.102539</ele>
        <time>2011-09-08T10:22:24Z</time>
      </trkpt>
      <trkpt lat="44.28073" lon="6.18822">
        <ele>1581.025635</ele>
        <time>2011-09-08T10:22:33Z</time>
      </trkpt>
      <trkpt lat="44.2807" lon="6.18835">
        <ele>1582.467529</ele>
        <time>2011-09-08T10:22:42Z</time>
      </trkpt>
      <trkpt lat="44.2807" lon="6.18874">
        <ele>1581.025635</ele>
        <time>2011-09-08T10:23:01Z</time>
      </trkpt>
      <trkpt lat="44.28072" lon="6.18913">
        <ele>1581.025635</ele>
        <time>2011-09-08T10:23:15Z</time>
      </trkpt>
      <trkpt lat="44.28071" lon="6.18958">
        <ele>1584.87085</ele>
        <time>2011-09-08T10:23:37Z</time>
      </trkpt>
      <trkpt lat="44.28071" lon="6.18986">
        <ele>1587.273926</ele>
        <time>2011-09-08T10:23:53Z</time>
      </trkpt>
      <trkpt lat="44.28068" lon="6.1903">
        <ele>1584.87085</ele>
        <time>2011-09-08T10:24:12Z</time>
      </trkpt>
      <trkpt lat="44.28056" lon="6.19063">
        <ele>1586.312744</ele>
        <time>2011-09-08T10:24:30Z</time>
      </trkpt>
      <trkpt lat="44.28039" lon="6.19119">
        <ele>1583.909424</ele>
        <time>2011-09-08T10:24:44Z</time>
      </trkpt>
      <trkpt lat="44.28028" lon="6.19162">
        <ele>1583.428711</ele>
        <time>2011-09-08T10:24:58Z</time>
      </trkpt>
      <trkpt lat="44.28028" lon="6.19163">
        <ele>1583.428711</ele>
        <time>2011-09-08T10:24:59Z</time>
      </trkpt>
      <trkpt lat="44.28027" lon="6.19177">
        <ele>1584.87085</ele>
        <time>2011-09-08T10:25:07Z</time>
      </trkpt>
      <trkpt lat="44.28027" lon="6.19189">
        <ele>1584.87085</ele>
        <time>2011-09-08T10:25:13Z</time>
      </trkpt>
      <trkpt lat="44.28029" lon="6.19205">
        <ele>1585.351318</ele>
        <time>2011-09-08T10:25:21Z</time>
      </trkpt>
      <trkpt lat="44.2803" lon="6.19212">
        <ele>1585.351318</ele>
        <time>2011-09-08T10:25:25Z</time>
      </trkpt>
      <trkpt lat="44.28027" lon="6.19229">
        <ele>1588.235352</ele>
        <time>2011-09-08T10:25:35Z</time>
      </trkpt>
      <trkpt lat="44.28008" lon="6.19254">
        <ele>1591.119141</ele>
        <time>2011-09-08T10:25:53Z</time>
      </trkpt>
      <trkpt lat="44.27984" lon="6.19278">
        <ele>1592.561279</ele>
        <time>2011-09-08T10:26:16Z</time>
      </trkpt>
      <trkpt lat="44.27968" lon="6.19284">
        <ele>1594.483643</ele>
        <time>2011-09-08T10:26:27Z</time>
      </trkpt>
      <trkpt lat="44.2794" lon="6.193">
        <ele>1594.483643</ele>
        <time>2011-09-08T10:26:41Z</time>
      </trkpt>
      <trkpt lat="44.27917" lon="6.19338">
        <ele>1594.003174</ele>
        <time>2011-09-08T10:26:55Z</time>
      </trkpt>
      <trkpt lat="44.27904" lon="6.1937">
        <ele>1594.003174</ele>
        <time>2011-09-08T10:27:10Z</time>
      </trkpt>
      <trkpt lat="44.27892" lon="6.19392">
        <ele>1594.003174</ele>
        <time>2011-09-08T10:27:29Z</time>
      </trkpt>
      <trkpt lat="44.27885" lon="6.19429">
        <ele>1594.003174</ele>
        <time>2011-09-08T10:27:45Z</time>
      </trkpt>
      <trkpt lat="44.27875" lon="6.19476">
        <ele>1594.483643</ele>
        <time>2011-09-08T10:28:05Z</time>
      </trkpt>
      <trkpt lat="44.27861" lon="6.19512">
        <ele>1593.522461</ele>
        <time>2011-09-08T10:28:20Z</time>
      </trkpt>
      <trkpt lat="44.27856" lon="6.19521">
        <ele>1593.522461</ele>
        <time>2011-09-08T10:28:33Z</time>
      </trkpt>
      <trkpt lat="44.27847" lon="6.19564">
        <ele>1591.599854</ele>
        <time>2011-09-08T10:28:46Z</time>
      </trkpt>
      <trkpt lat="44.27832" lon="6.196">
        <ele>1589.196533</ele>
        <time>2011-09-08T10:29:00Z</time>
      </trkpt>
      <trkpt lat="44.27829" lon="6.19603">
        <ele>1588.716064</ele>
        <time>2011-09-08T10:29:02Z</time>
      </trkpt>
      <trkpt lat="44.27829" lon="6.19617">
        <ele>1588.235352</ele>
        <time>2011-09-08T10:29:06Z</time>
      </trkpt>
      <trkpt lat="44.27829" lon="6.19629">
        <ele>1588.716064</ele>
        <time>2011-09-08T10:29:18Z</time>
      </trkpt>
      <trkpt lat="44.27829" lon="6.1963">
        <ele>1589.196533</ele>
        <time>2011-09-08T10:29:20Z</time>
      </trkpt>
      <trkpt lat="44.27825" lon="6.19643">
        <ele>1588.716064</ele>
        <time>2011-09-08T10:29:26Z</time>
      </trkpt>
      <trkpt lat="44.2783" lon="6.1966">
        <ele>1587.273926</ele>
        <time>2011-09-08T10:29:32Z</time>
      </trkpt>
      <trkpt lat="44.27832" lon="6.19666">
        <ele>1587.273926</ele>
        <time>2011-09-08T10:29:34Z</time>
      </trkpt>
      <trkpt lat="44.27836" lon="6.19681">
        <ele>1587.273926</ele>
        <time>2011-09-08T10:29:40Z</time>
      </trkpt>
      <trkpt lat="44.27849" lon="6.19684">
        <ele>1586.793213</ele>
        <time>2011-09-08T10:29:44Z</time>
      </trkpt>
      <trkpt lat="44.27864" lon="6.19713">
        <ele>1586.312744</ele>
        <time>2011-09-08T10:29:55Z</time>
      </trkpt>
      <trkpt lat="44.27875" lon="6.19735">
        <ele>1589.677246</ele>
        <time>2011-09-08T10:30:08Z</time>
      </trkpt>
      <trkpt lat="44.27881" lon="6.19766">
        <ele>1590.157959</ele>
        <time>2011-09-08T10:30:20Z</time>
      </trkpt>
      <trkpt lat="44.27881" lon="6.19777">
        <ele>1591.119141</ele>
        <time>2011-09-08T10:30:25Z</time>
      </trkpt>
      <trkpt lat="44.27859" lon="6.19826">
        <ele>1591.599854</ele>
        <time>2011-09-08T10:30:48Z</time>
      </trkpt>
      <trkpt lat="44.27853" lon="6.19835">
        <ele>1590.157959</ele>
        <time>2011-09-08T10:30:51Z</time>
      </trkpt>
      <trkpt lat="44.27836" lon="6.19864">
        <ele>1589.196533</ele>
        <time>2011-09-08T10:31:03Z</time>
      </trkpt>
      <trkpt lat="44.27835" lon="6.19866">
        <ele>1589.196533</ele>
        <time>2011-09-08T10:31:04Z</time>
      </trkpt>
      <trkpt lat="44.27822" lon="6.19888">
        <ele>1588.235352</ele>
        <time>2011-09-08T10:31:12Z</time>
      </trkpt>
      <trkpt lat="44.27814" lon="6.19903">
        <ele>1588.235352</ele>
        <time>2011-09-08T10:31:18Z</time>
      </trkpt>
      <trkpt lat="44.27808" lon="6.19912">
        <ele>1589.677246</ele>
        <time>2011-09-08T10:31:23Z</time>
      </trkpt>
      <trkpt lat="44.27799" lon="6.19929">
        <ele>1586.312744</ele>
        <time>2011-09-08T10:31:32Z</time>
      </trkpt>
      <trkpt lat="44.27797" lon="6.19932">
        <ele>1585.351318</ele>
        <time>2011-09-08T10:31:34Z</time>
      </trkpt>
      <trkpt lat="44.27793" lon="6.19935">
        <ele>1586.793213</ele>
        <time>2011-09-08T10:31:37Z</time>
      </trkpt>
      <trkpt lat="44.27792" lon="6.19936">
        <ele>1585.832031</ele>
        <time>2011-09-08T10:31:38Z</time>
      </trkpt>
      <trkpt lat="44.27791" lon="6.19936">
        <ele>1584.87085</ele>
        <time>2011-09-08T10:31:41Z</time>
      </trkpt>
      <trkpt lat="44.27791" lon="6.19936">
        <ele>1584.390137</ele>
        <time>2011-09-08T10:32:01Z</time>
      </trkpt>
      <trkpt lat="44.27791" lon="6.19936">
        <ele>1584.390137</ele>
        <time>2011-09-08T10:32:28Z</time>
      </trkpt>
      <trkpt lat="44.2778" lon="6.19942">
        <ele>1583.428711</ele>
        <time>2011-09-08T10:32:50Z</time>
      </trkpt>
      <trkpt lat="44.27763" lon="6.19946">
        <ele>1582.467529</ele>
        <time>2011-09-08T10:32:57Z</time>
      </trkpt>
      <trkpt lat="44.27758" lon="6.19946">
        <ele>1582.467529</ele>
        <time>2011-09-08T10:33:00Z</time>
      </trkpt>
      <trkpt lat="44.27749" lon="6.19942">
        <ele>1581.986816</ele>
        <time>2011-09-08T10:33:05Z</time>
      </trkpt>
      <trkpt lat="44.27741" lon="6.19949">
        <ele>1581.025635</ele>
        <time>2011-09-08T10:33:12Z</time>
      </trkpt>
      <trkpt lat="44.27743" lon="6.1996">
        <ele>1581.986816</ele>
        <time>2011-09-08T10:33:27Z</time>
      </trkpt>
      <trkpt lat="44.27745" lon="6.19981">
        <ele>1582.467529</ele>
        <time>2011-09-08T10:33:50Z</time>
      </trkpt>
      <trkpt lat="44.27748" lon="6.20037">
        <ele>1582.467529</ele>
        <time>2011-09-08T10:34:11Z</time>
      </trkpt>
      <trkpt lat="44.27763" lon="6.20058">
        <ele>1583.428711</ele>
        <time>2011-09-08T10:34:33Z</time>
      </trkpt>
      <trkpt lat="44.27767" lon="6.20063">
        <ele>1585.832031</ele>
        <time>2011-09-08T10:34:54Z</time>
      </trkpt>
      <trkpt lat="44.27769" lon="6.20099">
        <ele>1586.312744</ele>
        <time>2011-09-08T10:35:13Z</time>
      </trkpt>
      <trkpt lat="44.27761" lon="6.2013">
        <ele>1586.312744</ele>
        <time>2011-09-08T10:35:37Z</time>
      </trkpt>
      <trkpt lat="44.2775" lon="6.20152">
        <ele>1586.312744</ele>
        <time>2011-09-08T10:35:54Z</time>
      </trkpt>
      <trkpt lat="44.2775" lon="6.20152">
        <ele>1586.312744</ele>
        <time>2011-09-08T10:36:17Z</time>
      </trkpt>
      <trkpt lat="44.2775" lon="6.20152">
        <ele>1586.312744</ele>
        <time>2011-09-08T10:36:20Z</time>
      </trkpt>
      <trkpt lat="44.27735" lon="6.20188">
        <ele>1587.273926</ele>
        <time>2011-09-08T10:36:37Z</time>
      </trkpt>
      <trkpt lat="44.27733" lon="6.20222">
        <ele>1588.716064</ele>
        <time>2011-09-08T10:36:54Z</time>
      </trkpt>
      <trkpt lat="44.27725" lon="6.20257">
        <ele>1589.677246</ele>
        <time>2011-09-08T10:37:13Z</time>
      </trkpt>
      <trkpt lat="44.2772" lon="6.20282">
        <ele>1590.157959</ele>
        <time>2011-09-08T10:37:25Z</time>
      </trkpt>
      <trkpt lat="44.27706" lon="6.20314">
        <ele>1593.041748</ele>
        <time>2011-09-08T10:37:46Z</time>
      </trkpt>
      <trkpt lat="44.27688" lon="6.20344">
        <ele>1594.003174</ele>
        <time>2011-09-08T10:38:06Z</time>
      </trkpt>
      <trkpt lat="44.27664" lon="6.2038">
        <ele>1595.445068</ele>
        <time>2011-09-08T10:38:30Z</time>
      </trkpt>
      <trkpt lat="44.27664" lon="6.2038">
        <ele>1594.964355</ele>
        <time>2011-09-08T10:38:44Z</time>
      </trkpt>
      <trkpt lat="44.27661" lon="6.20383">
        <ele>1594.964355</ele>
        <time>2011-09-08T10:38:46Z</time>
      </trkpt>
      <trkpt lat="44.27661" lon="6.20383">
        <ele>1594.964355</ele>
        <time>2011-09-08T10:38:50Z</time>
      </trkpt>
      <trkpt lat="44.27654" lon="6.20394">
        <ele>1595.925781</ele>
        <time>2011-09-08T10:39:14Z</time>
      </trkpt>
      <trkpt lat="44.2763" lon="6.20421">
        <ele>1597.36792</ele>
        <time>2011-09-08T10:39:30Z</time>
      </trkpt>
      <trkpt lat="44.2763" lon="6.20421">
        <ele>1598.329102</ele>
        <time>2011-09-08T10:39:45Z</time>
      </trkpt>
      <trkpt lat="44.27626" lon="6.20459">
        <ele>1598.329102</ele>
        <time>2011-09-08T10:39:48Z</time>
      </trkpt>
      <trkpt lat="44.27623" lon="6.20469">
        <ele>1598.809814</ele>
        <time>2011-09-08T10:39:55Z</time>
      </trkpt>
      <trkpt lat="44.27622" lon="6.20474">
        <ele>1598.809814</ele>
        <time>2011-09-08T10:39:59Z</time>
      </trkpt>
      <trkpt lat="44.27609" lon="6.20482">
        <ele>1600.732422</ele>
        <time>2011-09-08T10:40:14Z</time>
      </trkpt>
      <trkpt lat="44.27608" lon="6.20487">
        <ele>1600.732422</ele>
        <time>2011-09-08T10:40:18Z</time>
      </trkpt>
      <trkpt lat="44.27602" lon="6.20496">
        <ele>1601.213135</ele>
        <time>2011-09-08T10:40:27Z</time>
      </trkpt>
      <trkpt lat="44.27596" lon="6.20509">
        <ele>1603.616455</ele>
        <time>2011-09-08T10:40:39Z</time>
      </trkpt>
      <trkpt lat="44.27583" lon="6.20527">
        <ele>1606.019531</ele>
        <time>2011-09-08T10:41:00Z</time>
      </trkpt>
      <trkpt lat="44.2757" lon="6.20554">
        <ele>1607.942383</ele>
        <time>2011-09-08T10:41:23Z</time>
      </trkpt>
      <trkpt lat="44.27559" lon="6.2058">
        <ele>1609.864746</ele>
        <time>2011-09-08T10:41:45Z</time>
      </trkpt>
      <trkpt lat="44.27547" lon="6.20608">
        <ele>1611.787598</ele>
        <time>2011-09-08T10:42:08Z</time>
      </trkpt>
      <trkpt lat="44.27524" lon="6.20633">
        <ele>1612.268311</ele>
        <time>2011-09-08T10:42:36Z</time>
      </trkpt>
      <trkpt lat="44.27508" lon="6.20648">
        <ele>1613.229736</ele>
        <time>2011-09-08T10:42:57Z</time>
      </trkpt>
      <trkpt lat="44.27492" lon="6.20665">
        <ele>1615.633057</ele>
        <time>2011-09-08T10:43:21Z</time>
      </trkpt>
      <trkpt lat="44.27473" lon="6.20677">
        <ele>1617.55542</ele>
        <time>2011-09-08T10:43:42Z</time>
      </trkpt>
      <trkpt lat="44.27444" lon="6.20683">
        <ele>1618.036133</ele>
        <time>2011-09-08T10:44:10Z</time>
      </trkpt>
      <trkpt lat="44.27419" lon="6.20679">
        <ele>1620.920166</ele>
        <time>2011-09-08T10:44:34Z</time>
      </trkpt>
      <trkpt lat="44.27409" lon="6.20678">
        <ele>1621.881348</ele>
        <time>2011-09-08T10:44:50Z</time>
      </trkpt>
      <trkpt lat="44.27398" lon="6.20688">
        <ele>1622.362061</ele>
        <time>2011-09-08T10:45:08Z</time>
      </trkpt>
      <trkpt lat="44.27403" lon="6.20704">
        <ele>1623.803955</ele>
        <time>2011-09-08T10:45:21Z</time>
      </trkpt>
      <trkpt lat="44.27402" lon="6.20725">
        <ele>1624.765381</ele>
        <time>2011-09-08T10:45:37Z</time>
      </trkpt>
      <trkpt lat="44.27402" lon="6.2075">
        <ele>1628.61084</ele>
        <time>2011-09-08T10:46:00Z</time>
      </trkpt>
      <trkpt lat="44.27399" lon="6.20776">
        <ele>1631.494629</ele>
        <time>2011-09-08T10:46:27Z</time>
      </trkpt>
      <trkpt lat="44.27391" lon="6.20788">
        <ele>1634.859375</ele>
        <time>2011-09-08T10:46:48Z</time>
      </trkpt>
      <trkpt lat="44.27376" lon="6.20792">
        <ele>1637.262451</ele>
        <time>2011-09-08T10:47:10Z</time>
      </trkpt>
      <trkpt lat="44.27363" lon="6.20792">
        <ele>1640.146484</ele>
        <time>2011-09-08T10:47:32Z</time>
      </trkpt>
      <trkpt lat="44.27354" lon="6.20796">
        <ele>1643.030273</ele>
        <time>2011-09-08T10:47:48Z</time>
      </trkpt>
      <trkpt lat="44.27344" lon="6.20799">
        <ele>1645.914551</ele>
        <time>2011-09-08T10:48:09Z</time>
      </trkpt>
      <trkpt lat="44.27332" lon="6.20813">
        <ele>1648.317627</ele>
        <time>2011-09-08T10:48:33Z</time>
      </trkpt>
      <trkpt lat="44.27324" lon="6.20821">
        <ele>1651.682373</ele>
        <time>2011-09-08T10:48:49Z</time>
      </trkpt>
      <trkpt lat="44.27305" lon="6.20834">
        <ele>1654.566162</ele>
        <time>2011-09-08T10:49:19Z</time>
      </trkpt>
      <trkpt lat="44.27295" lon="6.2085">
        <ele>1657.930908</ele>
        <time>2011-09-08T10:49:42Z</time>
      </trkpt>
      <trkpt lat="44.27286" lon="6.20858">
        <ele>1659.853271</ele>
        <time>2011-09-08T10:50:04Z</time>
      </trkpt>
      <trkpt lat="44.2728" lon="6.20872">
        <ele>1661.295654</ele>
        <time>2011-09-08T10:50:38Z</time>
      </trkpt>
      <trkpt lat="44.27279" lon="6.20889">
        <ele>1664.660156</ele>
        <time>2011-09-08T10:50:56Z</time>
      </trkpt>
      <trkpt lat="44.27278" lon="6.20908">
        <ele>1667.543945</ele>
        <time>2011-09-08T10:51:19Z</time>
      </trkpt>
      <trkpt lat="44.2728" lon="6.20933">
        <ele>1670.908691</ele>
        <time>2011-09-08T10:51:42Z</time>
      </trkpt>
      <trkpt lat="44.27278" lon="6.20946">
        <ele>1674.273193</ele>
        <time>2011-09-08T10:52:00Z</time>
      </trkpt>
      <trkpt lat="44.27277" lon="6.20956">
        <ele>1677.157471</ele>
        <time>2011-09-08T10:52:10Z</time>
      </trkpt>
      <trkpt lat="44.27268" lon="6.20982">
        <ele>1679.560547</ele>
        <time>2011-09-08T10:52:38Z</time>
      </trkpt>
      <trkpt lat="44.27269" lon="6.20996">
        <ele>1679.560547</ele>
        <time>2011-09-08T10:52:48Z</time>
      </trkpt>
      <trkpt lat="44.27262" lon="6.21014">
        <ele>1682.925049</ele>
        <time>2011-09-08T10:53:06Z</time>
      </trkpt>
      <trkpt lat="44.27261" lon="6.21015">
        <ele>1681.963867</ele>
        <time>2011-09-08T10:53:25Z</time>
      </trkpt>
      <trkpt lat="44.27262" lon="6.21015">
        <ele>1683.405762</ele>
        <time>2011-09-08T10:53:27Z</time>
      </trkpt>
      <trkpt lat="44.27262" lon="6.21015">
        <ele>1682.44458</ele>
        <time>2011-09-08T10:53:37Z</time>
      </trkpt>
      <trkpt lat="44.27261" lon="6.21016">
        <ele>1683.405762</ele>
        <time>2011-09-08T10:53:46Z</time>
      </trkpt>
      <trkpt lat="44.27267" lon="6.21016">
        <ele>1681.963867</ele>
        <time>2011-09-08T10:54:16Z</time>
      </trkpt>
      <trkpt lat="44.27268" lon="6.21012">
        <ele>1683.405762</ele>
        <time>2011-09-08T10:54:35Z</time>
      </trkpt>
      <trkpt lat="44.27268" lon="6.2101">
        <ele>1681.002686</ele>
        <time>2011-09-08T10:54:42Z</time>
      </trkpt>
      <trkpt lat="44.27268" lon="6.21011">
        <ele>1682.44458</ele>
        <time>2011-09-08T10:55:02Z</time>
      </trkpt>
      <trkpt lat="44.27268" lon="6.21011">
        <ele>1682.44458</ele>
        <time>2011-09-08T10:55:16Z</time>
      </trkpt>
      <trkpt lat="44.27268" lon="6.2101">
        <ele>1682.44458</ele>
        <time>2011-09-08T10:58:19Z</time>
      </trkpt>
      <trkpt lat="44.27268" lon="6.21008">
        <ele>1685.809082</ele>
        <time>2011-09-08T11:13:00Z</time>
      </trkpt>
      <trkpt lat="44.27268" lon="6.21008">
        <ele>1685.809082</ele>
        <time>2011-09-08T11:13:18Z</time>
      </trkpt>
      <trkpt lat="44.27268" lon="6.21009">
        <ele>1684.367188</ele>
        <time>2011-09-08T11:13:44Z</time>
      </trkpt>
      <trkpt lat="44.27268" lon="6.21009">
        <ele>1685.809082</ele>
        <time>2011-09-08T11:14:43Z</time>
      </trkpt>
      <trkpt lat="44.27268" lon="6.21008">
        <ele>1685.328369</ele>
        <time>2011-09-08T11:15:51Z</time>
      </trkpt>
      <trkpt lat="44.27268" lon="6.21008">
        <ele>1685.328369</ele>
        <time>2011-09-08T11:15:54Z</time>
      </trkpt>
      <trkpt lat="44.27267" lon="6.20963">
        <ele>1682.925049</ele>
        <time>2011-09-08T11:16:08Z</time>
      </trkpt>
      <trkpt lat="44.27264" lon="6.2094">
        <ele>1681.483154</ele>
        <time>2011-09-08T11:16:15Z</time>
      </trkpt>
      <trkpt lat="44.27265" lon="6.20926">
        <ele>1679.560547</ele>
        <time>2011-09-08T11:16:21Z</time>
      </trkpt>
      <trkpt lat="44.2727" lon="6.20908">
        <ele>1676.196045</ele>
        <time>2011-09-08T11:16:29Z</time>
      </trkpt>
      <trkpt lat="44.27273" lon="6.20894">
        <ele>1672.350586</ele>
        <time>2011-09-08T11:16:36Z</time>
      </trkpt>
      <trkpt lat="44.27273" lon="6.20891">
        <ele>1672.350586</ele>
        <time>2011-09-08T11:16:37Z</time>
      </trkpt>
      <trkpt lat="44.27274" lon="6.20877">
        <ele>1669.466797</ele>
        <time>2011-09-08T11:16:44Z</time>
      </trkpt>
      <trkpt lat="44.27274" lon="6.20849">
        <ele>1666.582764</ele>
        <time>2011-09-08T11:16:56Z</time>
      </trkpt>
      <trkpt lat="44.27274" lon="6.20844">
        <ele>1665.140869</ele>
        <time>2011-09-08T11:16:58Z</time>
      </trkpt>
      <trkpt lat="44.27242" lon="6.20851">
        <ele>1661.776367</ele>
        <time>2011-09-08T11:17:04Z</time>
      </trkpt>
      <trkpt lat="44.27239" lon="6.20846">
        <ele>1661.776367</ele>
        <time>2011-09-08T11:17:05Z</time>
      </trkpt>
      <trkpt lat="44.27222" lon="6.20821">
        <ele>1660.814941</ele>
        <time>2011-09-08T11:17:16Z</time>
      </trkpt>
      <trkpt lat="44.27196" lon="6.20781">
        <ele>1658.89209</ele>
        <time>2011-09-08T11:17:30Z</time>
      </trkpt>
      <trkpt lat="44.27231" lon="6.20701">
        <ele>1655.527588</ele>
        <time>2011-09-08T11:17:40Z</time>
      </trkpt>
      <trkpt lat="44.27229" lon="6.20687">
        <ele>1654.566162</ele>
        <time>2011-09-08T11:17:53Z</time>
      </trkpt>
      <trkpt lat="44.27238" lon="6.20686">
        <ele>1651.682373</ele>
        <time>2011-09-08T11:18:05Z</time>
      </trkpt>
      <trkpt lat="44.2724" lon="6.20685">
        <ele>1650.720947</ele>
        <time>2011-09-08T11:18:17Z</time>
      </trkpt>
      <trkpt lat="44.27246" lon="6.2068">
        <ele>1650.720947</ele>
        <time>2011-09-08T11:18:21Z</time>
      </trkpt>
      <trkpt lat="44.27252" lon="6.20677">
        <ele>1649.279053</ele>
        <time>2011-09-08T11:18:23Z</time>
      </trkpt>
      <trkpt lat="44.27259" lon="6.20674">
        <ele>1647.356445</ele>
        <time>2011-09-08T11:18:26Z</time>
      </trkpt>
      <trkpt lat="44.27266" lon="6.20679">
        <ele>1645.914551</ele>
        <time>2011-09-08T11:18:29Z</time>
      </trkpt>
      <trkpt lat="44.27272" lon="6.20666">
        <ele>1644.472412</ele>
        <time>2011-09-08T11:18:35Z</time>
      </trkpt>
      <trkpt lat="44.27278" lon="6.20657">
        <ele>1641.588379</ele>
        <time>2011-09-08T11:18:46Z</time>
      </trkpt>
      <trkpt lat="44.27286" lon="6.20651">
        <ele>1640.626953</ele>
        <time>2011-09-08T11:18:59Z</time>
      </trkpt>
      <trkpt lat="44.273" lon="6.20646">
        <ele>1643.510986</ele>
        <time>2011-09-08T11:19:18Z</time>
      </trkpt>
      <trkpt lat="44.273" lon="6.20637">
        <ele>1643.991699</ele>
        <time>2011-09-08T11:19:25Z</time>
      </trkpt>
      <trkpt lat="44.273" lon="6.20628">
        <ele>1644.472412</ele>
        <time>2011-09-08T11:19:31Z</time>
      </trkpt>
      <trkpt lat="44.27312" lon="6.20602">
        <ele>1643.991699</ele>
        <time>2011-09-08T11:19:50Z</time>
      </trkpt>
      <trkpt lat="44.27331" lon="6.20588">
        <ele>1644.472412</ele>
        <time>2011-09-08T11:20:10Z</time>
      </trkpt>
      <trkpt lat="44.27345" lon="6.20591">
        <ele>1643.030273</ele>
        <time>2011-09-08T11:20:17Z</time>
      </trkpt>
      <trkpt lat="44.27355" lon="6.20598">
        <ele>1641.107666</ele>
        <time>2011-09-08T11:20:21Z</time>
      </trkpt>
      <trkpt lat="44.27363" lon="6.2061">
        <ele>1639.185059</ele>
        <time>2011-09-08T11:20:24Z</time>
      </trkpt>
      <trkpt lat="44.27389" lon="6.2063">
        <ele>1636.30127</ele>
        <time>2011-09-08T11:20:34Z</time>
      </trkpt>
      <trkpt lat="44.27418" lon="6.20631">
        <ele>1631.975342</ele>
        <time>2011-09-08T11:20:43Z</time>
      </trkpt>
      <trkpt lat="44.27423" lon="6.20631">
        <ele>1631.975342</ele>
        <time>2011-09-08T11:20:44Z</time>
      </trkpt>
      <trkpt lat="44.27435" lon="6.20632">
        <ele>1629.572021</ele>
        <time>2011-09-08T11:20:47Z</time>
      </trkpt>
      <trkpt lat="44.27446" lon="6.20651">
        <ele>1626.687988</ele>
        <time>2011-09-08T11:20:53Z</time>
      </trkpt>
      <trkpt lat="44.27447" lon="6.20657">
        <ele>1626.687988</ele>
        <time>2011-09-08T11:20:54Z</time>
      </trkpt>
      <trkpt lat="44.27449" lon="6.20667">
        <ele>1625.24585</ele>
        <time>2011-09-08T11:20:56Z</time>
      </trkpt>
      <trkpt lat="44.27451" lon="6.20671">
        <ele>1624.765381</ele>
        <time>2011-09-08T11:20:57Z</time>
      </trkpt>
      <trkpt lat="44.27466" lon="6.20674">
        <ele>1623.323486</ele>
        <time>2011-09-08T11:21:03Z</time>
      </trkpt>
      <trkpt lat="44.27492" lon="6.20663">
        <ele>1620.920166</ele>
        <time>2011-09-08T11:21:17Z</time>
      </trkpt>
      <trkpt lat="44.27496" lon="6.20663">
        <ele>1620.920166</ele>
        <time>2011-09-08T11:21:19Z</time>
      </trkpt>
      <trkpt lat="44.27506" lon="6.20645">
        <ele>1616.594238</ele>
        <time>2011-09-08T11:21:29Z</time>
      </trkpt>
      <trkpt lat="44.27506" lon="6.20643">
        <ele>1616.594238</ele>
        <time>2011-09-08T11:21:32Z</time>
      </trkpt>
      <trkpt lat="44.27511" lon="6.20636">
        <ele>1616.113525</ele>
        <time>2011-09-08T11:21:37Z</time>
      </trkpt>
      <trkpt lat="44.27529" lon="6.2063">
        <ele>1616.113525</ele>
        <time>2011-09-08T11:21:56Z</time>
      </trkpt>
      <trkpt lat="44.27529" lon="6.2063">
        <ele>1616.113525</ele>
        <time>2011-09-08T11:21:57Z</time>
      </trkpt>
      <trkpt lat="44.27556" lon="6.20587">
        <ele>1614.671631</ele>
        <time>2011-09-08T11:22:11Z</time>
      </trkpt>
      <trkpt lat="44.27571" lon="6.2055">
        <ele>1611.787598</ele>
        <time>2011-09-08T11:22:20Z</time>
      </trkpt>
      <trkpt lat="44.27573" lon="6.20546">
        <ele>1611.306885</ele>
        <time>2011-09-08T11:22:21Z</time>
      </trkpt>
      <trkpt lat="44.27592" lon="6.20508">
        <ele>1608.422852</ele>
        <time>2011-09-08T11:22:32Z</time>
      </trkpt>
      <trkpt lat="44.27593" lon="6.20492">
        <ele>1606.019531</ele>
        <time>2011-09-08T11:22:37Z</time>
      </trkpt>
      <trkpt lat="44.27601" lon="6.20482">
        <ele>1605.539063</ele>
        <time>2011-09-08T11:22:41Z</time>
      </trkpt>
      <trkpt lat="44.27606" lon="6.20478">
        <ele>1605.539063</ele>
        <time>2011-09-08T11:22:43Z</time>
      </trkpt>
      <trkpt lat="44.27618" lon="6.20446">
        <ele>1603.616455</ele>
        <time>2011-09-08T11:22:56Z</time>
      </trkpt>
      <trkpt lat="44.27625" lon="6.20434">
        <ele>1603.616455</ele>
        <time>2011-09-08T11:23:08Z</time>
      </trkpt>
      <trkpt lat="44.27625" lon="6.20431">
        <ele>1603.616455</ele>
        <time>2011-09-08T11:23:31Z</time>
      </trkpt>
      <trkpt lat="44.27624" lon="6.20428">
        <ele>1602.655029</ele>
        <time>2011-09-08T11:23:47Z</time>
      </trkpt>
      <trkpt lat="44.27637" lon="6.20414">
        <ele>1603.135742</ele>
        <time>2011-09-08T11:24:02Z</time>
      </trkpt>
      <trkpt lat="44.27661" lon="6.20383">
        <ele>1599.77124</ele>
        <time>2011-09-08T11:24:12Z</time>
      </trkpt>
      <trkpt lat="44.27677" lon="6.20361">
        <ele>1597.848633</ele>
        <time>2011-09-08T11:24:18Z</time>
      </trkpt>
      <trkpt lat="44.2771" lon="6.20307">
        <ele>1595.925781</ele>
        <time>2011-09-08T11:24:34Z</time>
      </trkpt>
      <trkpt lat="44.27723" lon="6.20267">
        <ele>1593.522461</ele>
        <time>2011-09-08T11:24:46Z</time>
      </trkpt>
      <trkpt lat="44.27735" lon="6.20198">
        <ele>1590.157959</ele>
        <time>2011-09-08T11:25:01Z</time>
      </trkpt>
      <trkpt lat="44.27735" lon="6.20194">
        <ele>1590.157959</ele>
        <time>2011-09-08T11:25:02Z</time>
      </trkpt>
      <trkpt lat="44.27735" lon="6.2019">
        <ele>1589.677246</ele>
        <time>2011-09-08T11:25:03Z</time>
      </trkpt>
      <trkpt lat="44.27753" lon="6.2015">
        <ele>1588.716064</ele>
        <time>2011-09-08T11:25:16Z</time>
      </trkpt>
      <trkpt lat="44.27757" lon="6.20147">
        <ele>1587.754639</ele>
        <time>2011-09-08T11:25:18Z</time>
      </trkpt>
      <trkpt lat="44.2777" lon="6.20136">
        <ele>1584.87085</ele>
        <time>2011-09-08T11:25:24Z</time>
      </trkpt>
      <trkpt lat="44.27774" lon="6.20133">
        <ele>1584.87085</ele>
        <time>2011-09-08T11:25:25Z</time>
      </trkpt>
      <trkpt lat="44.27796" lon="6.20121">
        <ele>1581.025635</ele>
        <time>2011-09-08T11:25:31Z</time>
      </trkpt>
      <trkpt lat="44.27801" lon="6.20118">
        <ele>1581.025635</ele>
        <time>2011-09-08T11:25:32Z</time>
      </trkpt>
      <trkpt lat="44.2781" lon="6.20116">
        <ele>1579.583252</ele>
        <time>2011-09-08T11:25:34Z</time>
      </trkpt>
      <trkpt lat="44.27825" lon="6.20114">
        <ele>1577.180176</ele>
        <time>2011-09-08T11:25:39Z</time>
      </trkpt>
      <trkpt lat="44.27829" lon="6.20112">
        <ele>1576.699463</ele>
        <time>2011-09-08T11:25:41Z</time>
      </trkpt>
      <trkpt lat="44.27831" lon="6.20112">
        <ele>1575.257324</ele>
        <time>2011-09-08T11:25:54Z</time>
      </trkpt>
      <trkpt lat="44.27831" lon="6.20112">
        <ele>1574.296143</ele>
        <time>2011-09-08T11:26:08Z</time>
      </trkpt>
      <trkpt lat="44.27847" lon="6.20098">
        <ele>1571.412109</ele>
        <time>2011-09-08T11:26:16Z</time>
      </trkpt>
      <trkpt lat="44.27852" lon="6.20094">
        <ele>1569.489746</ele>
        <time>2011-09-08T11:26:18Z</time>
      </trkpt>
      <trkpt lat="44.27865" lon="6.20086">
        <ele>1566.605713</ele>
        <time>2011-09-08T11:26:23Z</time>
      </trkpt>
      <trkpt lat="44.2787" lon="6.20084">
        <ele>1565.644531</ele>
        <time>2011-09-08T11:26:25Z</time>
      </trkpt>
      <trkpt lat="44.27886" lon="6.20078">
        <ele>1562.760254</ele>
        <time>2011-09-08T11:26:32Z</time>
      </trkpt>
      <trkpt lat="44.279" lon="6.2007">
        <ele>1559.876221</ele>
        <time>2011-09-08T11:26:38Z</time>
      </trkpt>
      <trkpt lat="44.27902" lon="6.20068">
        <ele>1559.876221</ele>
        <time>2011-09-08T11:26:39Z</time>
      </trkpt>
      <trkpt lat="44.27907" lon="6.2006">
        <ele>1557.473145</ele>
        <time>2011-09-08T11:26:42Z</time>
      </trkpt>
      <trkpt lat="44.27912" lon="6.20052">
        <ele>1556.031006</ele>
        <time>2011-09-08T11:26:45Z</time>
      </trkpt>
      <trkpt lat="44.27925" lon="6.20023">
        <ele>1552.666504</ele>
        <time>2011-09-08T11:26:54Z</time>
      </trkpt>
      <trkpt lat="44.27928" lon="6.20017">
        <ele>1552.666504</ele>
        <time>2011-09-08T11:26:56Z</time>
      </trkpt>
      <trkpt lat="44.27932" lon="6.20006">
        <ele>1551.224609</ele>
        <time>2011-09-08T11:27:00Z</time>
      </trkpt>
      <trkpt lat="44.27947" lon="6.19981">
        <ele>1547.859863</ele>
        <time>2011-09-08T11:27:10Z</time>
      </trkpt>
      <trkpt lat="44.27932" lon="6.1997">
        <ele>1545.937256</ele>
        <time>2011-09-08T11:27:21Z</time>
      </trkpt>
      <trkpt lat="44.27932" lon="6.1997">
        <ele>1544.97583</ele>
        <time>2011-09-08T11:27:30Z</time>
      </trkpt>
      <trkpt lat="44.27932" lon="6.1997">
        <ele>1545.456543</ele>
        <time>2011-09-08T11:27:32Z</time>
      </trkpt>
      <trkpt lat="44.27932" lon="6.1997">
        <ele>1545.456543</ele>
        <time>2011-09-08T11:27:34Z</time>
      </trkpt>
      <trkpt lat="44.27932" lon="6.1997">
        <ele>1545.937256</ele>
        <time>2011-09-08T11:27:45Z</time>
      </trkpt>
      <trkpt lat="44.27932" lon="6.1997">
        <ele>1545.937256</ele>
        <time>2011-09-08T11:27:46Z</time>
      </trkpt>
      <trkpt lat="44.27944" lon="6.19964">
        <ele>1545.456543</ele>
        <time>2011-09-08T11:27:52Z</time>
      </trkpt>
      <trkpt lat="44.27955" lon="6.19958">
        <ele>1544.495117</ele>
        <time>2011-09-08T11:27:58Z</time>
      </trkpt>
      <trkpt lat="44.27978" lon="6.19947">
        <ele>1541.130615</ele>
        <time>2011-09-08T11:28:07Z</time>
      </trkpt>
      <trkpt lat="44.2799" lon="6.19941">
        <ele>1538.246826</ele>
        <time>2011-09-08T11:28:12Z</time>
      </trkpt>
      <trkpt lat="44.2801" lon="6.19929">
        <ele>1534.401611</ele>
        <time>2011-09-08T11:28:20Z</time>
      </trkpt>
      <trkpt lat="44.28011" lon="6.19928">
        <ele>1534.401611</ele>
        <time>2011-09-08T11:28:21Z</time>
      </trkpt>
      <trkpt lat="44.28031" lon="6.19913">
        <ele>1530.556152</ele>
        <time>2011-09-08T11:28:31Z</time>
      </trkpt>
      <trkpt lat="44.28055" lon="6.19906">
        <ele>1527.19165</ele>
        <time>2011-09-08T11:28:40Z</time>
      </trkpt>
      <trkpt lat="44.28084" lon="6.199">
        <ele>1523.346436</ele>
        <time>2011-09-08T11:28:52Z</time>
      </trkpt>
      <trkpt lat="44.28091" lon="6.19868">
        <ele>1519.981689</ele>
        <time>2011-09-08T11:29:03Z</time>
      </trkpt>
      <trkpt lat="44.28089" lon="6.19861">
        <ele>1519.020508</ele>
        <time>2011-09-08T11:29:05Z</time>
      </trkpt>
      <trkpt lat="44.28082" lon="6.19851">
        <ele>1517.0979</ele>
        <time>2011-09-08T11:29:09Z</time>
      </trkpt>
      <trkpt lat="44.28075" lon="6.19843">
        <ele>1514.213623</ele>
        <time>2011-09-08T11:29:12Z</time>
      </trkpt>
      <trkpt lat="44.28078" lon="6.19816">
        <ele>1509.887695</ele>
        <time>2011-09-08T11:29:18Z</time>
      </trkpt>
      <trkpt lat="44.2808" lon="6.19815">
        <ele>1509.887695</ele>
        <time>2011-09-08T11:29:19Z</time>
      </trkpt>
      <trkpt lat="44.28099" lon="6.198">
        <ele>1506.04248</ele>
        <time>2011-09-08T11:29:26Z</time>
      </trkpt>
      <trkpt lat="44.28102" lon="6.19794">
        <ele>1505.081299</ele>
        <time>2011-09-08T11:29:28Z</time>
      </trkpt>
      <trkpt lat="44.28105" lon="6.19789">
        <ele>1503.158691</ele>
        <time>2011-09-08T11:29:30Z</time>
      </trkpt>
      <trkpt lat="44.28113" lon="6.19778">
        <ele>1500.755371</ele>
        <time>2011-09-08T11:29:35Z</time>
      </trkpt>
      <trkpt lat="44.28115" lon="6.19775">
        <ele>1499.793945</ele>
        <time>2011-09-08T11:29:37Z</time>
      </trkpt>
      <trkpt lat="44.28125" lon="6.19766">
        <ele>1496.429443</ele>
        <time>2011-09-08T11:29:43Z</time>
      </trkpt>
      <trkpt lat="44.28136" lon="6.19757">
        <ele>1494.026123</ele>
        <time>2011-09-08T11:29:49Z</time>
      </trkpt>
      <trkpt lat="44.28153" lon="6.19744">
        <ele>1490.180908</ele>
        <time>2011-09-08T11:29:57Z</time>
      </trkpt>
      <trkpt lat="44.28168" lon="6.19734">
        <ele>1486.816162</ele>
        <time>2011-09-08T11:30:06Z</time>
      </trkpt>
      <trkpt lat="44.28179" lon="6.19725">
        <ele>1484.893799</ele>
        <time>2011-09-08T11:30:12Z</time>
      </trkpt>
      <trkpt lat="44.28186" lon="6.19712">
        <ele>1482.009521</ele>
        <time>2011-09-08T11:30:18Z</time>
      </trkpt>
      <trkpt lat="44.28193" lon="6.19703">
        <ele>1482.009521</ele>
        <time>2011-09-08T11:30:25Z</time>
      </trkpt>
      <trkpt lat="44.28216" lon="6.19682">
        <ele>1479.125488</ele>
        <time>2011-09-08T11:30:36Z</time>
      </trkpt>
      <trkpt lat="44.28218" lon="6.1968">
        <ele>1479.125488</ele>
        <time>2011-09-08T11:30:37Z</time>
      </trkpt>
      <trkpt lat="44.28237" lon="6.19666">
        <ele>1476.722412</ele>
        <time>2011-09-08T11:30:42Z</time>
      </trkpt>
      <trkpt lat="44.28247" lon="6.19659">
        <ele>1475.280273</ele>
        <time>2011-09-08T11:30:46Z</time>
      </trkpt>
      <trkpt lat="44.28266" lon="6.19644">
        <ele>1472.396484</ele>
        <time>2011-09-08T11:30:55Z</time>
      </trkpt>
      <trkpt lat="44.28286" lon="6.19629">
        <ele>1469.512695</ele>
        <time>2011-09-08T11:31:03Z</time>
      </trkpt>
      <trkpt lat="44.283" lon="6.1962">
        <ele>1467.109131</ele>
        <time>2011-09-08T11:31:10Z</time>
      </trkpt>
      <trkpt lat="44.28312" lon="6.19612">
        <ele>1464.225098</ele>
        <time>2011-09-08T11:31:17Z</time>
      </trkpt>
      <trkpt lat="44.28332" lon="6.19591">
        <ele>1460.860596</ele>
        <time>2011-09-08T11:31:29Z</time>
      </trkpt>
      <trkpt lat="44.28346" lon="6.19574">
        <ele>1457.496094</ele>
        <time>2011-09-08T11:31:38Z</time>
      </trkpt>
      <trkpt lat="44.28346" lon="6.19557">
        <ele>1457.976807</ele>
        <time>2011-09-08T11:32:01Z</time>
      </trkpt>
      <trkpt lat="44.28346" lon="6.19553">
        <ele>1457.015381</ele>
        <time>2011-09-08T11:32:10Z</time>
      </trkpt>
      <trkpt lat="44.28346" lon="6.19523">
        <ele>1456.534668</ele>
        <time>2011-09-08T11:32:23Z</time>
      </trkpt>
      <trkpt lat="44.28346" lon="6.19517">
        <ele>1456.534668</ele>
        <time>2011-09-08T11:32:24Z</time>
      </trkpt>
      <trkpt lat="44.28367" lon="6.19498">
        <ele>1456.053955</ele>
        <time>2011-09-08T11:32:32Z</time>
      </trkpt>
      <trkpt lat="44.28414" lon="6.19474">
        <ele>1456.053955</ele>
        <time>2011-09-08T11:32:48Z</time>
      </trkpt>
      <trkpt lat="44.28466" lon="6.19468">
        <ele>1456.534668</ele>
        <time>2011-09-08T11:33:06Z</time>
      </trkpt>
      <trkpt lat="44.28514" lon="6.19449">
        <ele>1455.573486</ele>
        <time>2011-09-08T11:33:21Z</time>
      </trkpt>
      <trkpt lat="44.28531" lon="6.19401">
        <ele>1454.612061</ele>
        <time>2011-09-08T11:33:31Z</time>
      </trkpt>
      <trkpt lat="44.28544" lon="6.19377">
        <ele>1455.092773</ele>
        <time>2011-09-08T11:33:39Z</time>
      </trkpt>
      <trkpt lat="44.28574" lon="6.19342">
        <ele>1454.612061</ele>
        <time>2011-09-08T11:33:51Z</time>
      </trkpt>
      <trkpt lat="44.28579" lon="6.19306">
        <ele>1454.131592</ele>
        <time>2011-09-08T11:33:58Z</time>
      </trkpt>
      <trkpt lat="44.28617" lon="6.1929">
        <ele>1453.650879</ele>
        <time>2011-09-08T11:34:09Z</time>
      </trkpt>
      <trkpt lat="44.28661" lon="6.1928">
        <ele>1452.20874</ele>
        <time>2011-09-08T11:34:20Z</time>
      </trkpt>
      <trkpt lat="44.287" lon="6.19253">
        <ele>1451.728027</ele>
        <time>2011-09-08T11:34:30Z</time>
      </trkpt>
      <trkpt lat="44.28733" lon="6.19208">
        <ele>1450.766602</ele>
        <time>2011-09-08T11:34:40Z</time>
      </trkpt>
      <trkpt lat="44.28764" lon="6.1914">
        <ele>1449.80542</ele>
        <time>2011-09-08T11:34:52Z</time>
      </trkpt>
      <trkpt lat="44.2877" lon="6.1913">
        <ele>1450.286133</ele>
        <time>2011-09-08T11:34:54Z</time>
      </trkpt>
      <trkpt lat="44.28771" lon="6.19089">
        <ele>1450.286133</ele>
        <time>2011-09-08T11:35:01Z</time>
      </trkpt>
      <trkpt lat="44.28767" lon="6.19057">
        <ele>1449.80542</ele>
        <time>2011-09-08T11:35:07Z</time>
      </trkpt>
      <trkpt lat="44.28772" lon="6.19042">
        <ele>1450.286133</ele>
        <time>2011-09-08T11:35:10Z</time>
      </trkpt>
      <trkpt lat="44.28761" lon="6.18993">
        <ele>1449.324707</ele>
        <time>2011-09-08T11:35:19Z</time>
      </trkpt>
      <trkpt lat="44.28735" lon="6.18999">
        <ele>1448.843994</ele>
        <time>2011-09-08T11:35:25Z</time>
      </trkpt>
      <trkpt lat="44.28727" lon="6.19004">
        <ele>1448.843994</ele>
        <time>2011-09-08T11:35:27Z</time>
      </trkpt>
      <trkpt lat="44.28686" lon="6.18986">
        <ele>1448.363281</ele>
        <time>2011-09-08T11:35:37Z</time>
      </trkpt>
      <trkpt lat="44.28686" lon="6.18959">
        <ele>1448.363281</ele>
        <time>2011-09-08T11:35:43Z</time>
      </trkpt>
      <trkpt lat="44.28711" lon="6.18889">
        <ele>1449.80542</ele>
        <time>2011-09-08T11:36:02Z</time>
      </trkpt>
      <trkpt lat="44.28729" lon="6.18819">
        <ele>1450.286133</ele>
        <time>2011-09-08T11:36:22Z</time>
      </trkpt>
      <trkpt lat="44.28738" lon="6.18797">
        <ele>1450.766602</ele>
        <time>2011-09-08T11:36:30Z</time>
      </trkpt>
      <trkpt lat="44.28741" lon="6.18786">
        <ele>1451.247314</ele>
        <time>2011-09-08T11:36:42Z</time>
      </trkpt>
      <trkpt lat="44.28741" lon="6.18769">
        <ele>1451.247314</ele>
        <time>2011-09-08T11:36:47Z</time>
      </trkpt>
      <trkpt lat="44.28733" lon="6.18746">
        <ele>1453.170166</ele>
        <time>2011-09-08T11:36:52Z</time>
      </trkpt>
      <trkpt lat="44.28716" lon="6.18716">
        <ele>1451.247314</ele>
        <time>2011-09-08T11:36:59Z</time>
      </trkpt>
      <trkpt lat="44.28671" lon="6.18658">
        <ele>1449.80542</ele>
        <time>2011-09-08T11:37:15Z</time>
      </trkpt>
      <trkpt lat="44.28664" lon="6.18645">
        <ele>1448.843994</ele>
        <time>2011-09-08T11:37:18Z</time>
      </trkpt>
      <trkpt lat="44.2867" lon="6.18619">
        <ele>1449.324707</ele>
        <time>2011-09-08T11:37:25Z</time>
      </trkpt>
      <trkpt lat="44.28713" lon="6.18624">
        <ele>1450.766602</ele>
        <time>2011-09-08T11:37:37Z</time>
      </trkpt>
      <trkpt lat="44.28729" lon="6.18619">
        <ele>1450.286133</ele>
        <time>2011-09-08T11:37:41Z</time>
      </trkpt>
      <trkpt lat="44.2874" lon="6.1861">
        <ele>1449.324707</ele>
        <time>2011-09-08T11:37:44Z</time>
      </trkpt>
      <trkpt lat="44.28751" lon="6.18601">
        <ele>1449.80542</ele>
        <time>2011-09-08T11:37:47Z</time>
      </trkpt>
      <trkpt lat="44.2881" lon="6.18556">
        <ele>1450.286133</ele>
        <time>2011-09-08T11:38:05Z</time>
      </trkpt>
      <trkpt lat="44.28853" lon="6.18515">
        <ele>1451.247314</ele>
        <time>2011-09-08T11:38:21Z</time>
      </trkpt>
      <trkpt lat="44.28864" lon="6.18462">
        <ele>1451.247314</ele>
        <time>2011-09-08T11:38:31Z</time>
      </trkpt>
      <trkpt lat="44.28878" lon="6.1846">
        <ele>1452.20874</ele>
        <time>2011-09-08T11:38:36Z</time>
      </trkpt>
      <trkpt lat="44.28906" lon="6.18493">
        <ele>1452.689453</ele>
        <time>2011-09-08T11:38:50Z</time>
      </trkpt>
      <trkpt lat="44.2895" lon="6.18505">
        <ele>1453.170166</ele>
        <time>2011-09-08T11:39:05Z</time>
      </trkpt>
      <trkpt lat="44.29001" lon="6.18493">
        <ele>1451.247314</ele>
        <time>2011-09-08T11:39:19Z</time>
      </trkpt>
      <trkpt lat="44.29027" lon="6.18482">
        <ele>1449.80542</ele>
        <time>2011-09-08T11:39:25Z</time>
      </trkpt>
      <trkpt lat="44.29052" lon="6.18456">
        <ele>1448.363281</ele>
        <time>2011-09-08T11:39:32Z</time>
      </trkpt>
      <trkpt lat="44.29074" lon="6.18436">
        <ele>1446.440918</ele>
        <time>2011-09-08T11:39:38Z</time>
      </trkpt>
      <trkpt lat="44.29098" lon="6.18419">
        <ele>1444.518066</ele>
        <time>2011-09-08T11:39:44Z</time>
      </trkpt>
      <trkpt lat="44.29123" lon="6.18423">
        <ele>1443.076172</ele>
        <time>2011-09-08T11:39:51Z</time>
      </trkpt>
      <trkpt lat="44.2915" lon="6.18425">
        <ele>1440.672852</ele>
        <time>2011-09-08T11:39:58Z</time>
      </trkpt>
      <trkpt lat="44.29161" lon="6.18381">
        <ele>1437.30835</ele>
        <time>2011-09-08T11:40:06Z</time>
      </trkpt>
      <trkpt lat="44.29159" lon="6.18375">
        <ele>1437.30835</ele>
        <time>2011-09-08T11:40:07Z</time>
      </trkpt>
      <trkpt lat="44.29153" lon="6.1835">
        <ele>1434.905029</ele>
        <time>2011-09-08T11:40:12Z</time>
      </trkpt>
      <trkpt lat="44.2916" lon="6.18325">
        <ele>1432.982178</ele>
        <time>2011-09-08T11:40:18Z</time>
      </trkpt>
      <trkpt lat="44.29164" lon="6.18275">
        <ele>1429.617676</ele>
        <time>2011-09-08T11:40:27Z</time>
      </trkpt>
      <trkpt lat="44.29167" lon="6.18266">
        <ele>1428.656494</ele>
        <time>2011-09-08T11:40:29Z</time>
      </trkpt>
      <trkpt lat="44.29182" lon="6.18256">
        <ele>1427.695068</ele>
        <time>2011-09-08T11:40:35Z</time>
      </trkpt>
      <trkpt lat="44.29215" lon="6.18264">
        <ele>1424.811279</ele>
        <time>2011-09-08T11:40:44Z</time>
      </trkpt>
      <trkpt lat="44.29232" lon="6.18267">
        <ele>1423.849854</ele>
        <time>2011-09-08T11:40:48Z</time>
      </trkpt>
      <trkpt lat="44.2925" lon="6.18265">
        <ele>1422.407959</ele>
        <time>2011-09-08T11:40:53Z</time>
      </trkpt>
      <trkpt lat="44.29266" lon="6.18252">
        <ele>1420.485352</ele>
        <time>2011-09-08T11:40:57Z</time>
      </trkpt>
      <trkpt lat="44.29283" lon="6.18227">
        <ele>1420.485352</ele>
        <time>2011-09-08T11:41:02Z</time>
      </trkpt>
      <trkpt lat="44.29294" lon="6.18208">
        <ele>1418.5625</ele>
        <time>2011-09-08T11:41:06Z</time>
      </trkpt>
      <trkpt lat="44.29308" lon="6.18178">
        <ele>1419.523926</ele>
        <time>2011-09-08T11:41:19Z</time>
      </trkpt>
      <trkpt lat="44.29308" lon="6.18178">
        <ele>1416.15918</ele>
        <time>2011-09-08T11:41:41Z</time>
      </trkpt>
      <trkpt lat="44.29308" lon="6.18178">
        <ele>1416.15918</ele>
        <time>2011-09-08T11:41:42Z</time>
      </trkpt>
      <trkpt lat="44.29308" lon="6.18178">
        <ele>1421.446533</ele>
        <time>2011-09-08T11:41:43Z</time>
      </trkpt>
      <trkpt lat="44.29308" lon="6.18178">
        <ele>1421.446533</ele>
        <time>2011-09-08T11:41:44Z</time>
      </trkpt>
      <trkpt lat="44.29308" lon="6.18178">
        <ele>1418.5625</ele>
        <time>2011-09-08T11:41:46Z</time>
      </trkpt>
      <trkpt lat="44.29308" lon="6.18178">
        <ele>1418.081787</ele>
        <time>2011-09-08T11:41:58Z</time>
      </trkpt>
      <trkpt lat="44.29308" lon="6.18178">
        <ele>1419.043213</ele>
        <time>2011-09-08T11:42:02Z</time>
      </trkpt>
      <trkpt lat="44.29308" lon="6.18178">
        <ele>1419.043213</ele>
        <time>2011-09-08T11:42:19Z</time>
      </trkpt>
      <trkpt lat="44.29308" lon="6.18178">
        <ele>1418.5625</ele>
        <time>2011-09-08T11:42:24Z</time>
      </trkpt>
      <trkpt lat="44.29308" lon="6.18178">
        <ele>1418.5625</ele>
        <time>2011-09-08T11:42:34Z</time>
      </trkpt>
      <trkpt lat="44.29308" lon="6.18178">
        <ele>1418.081787</ele>
        <time>2011-09-08T11:43:04Z</time>
      </trkpt>
      <trkpt lat="44.29321" lon="6.18111">
        <ele>1419.523926</ele>
        <time>2011-09-08T11:43:22Z</time>
      </trkpt>
      <trkpt lat="44.29309" lon="6.18044">
        <ele>1420.485352</ele>
        <time>2011-09-08T11:43:41Z</time>
      </trkpt>
      <trkpt lat="44.29276" lon="6.18006">
        <ele>1422.407959</ele>
        <time>2011-09-08T11:43:57Z</time>
      </trkpt>
      <trkpt lat="44.2925" lon="6.17979">
        <ele>1423.849854</ele>
        <time>2011-09-08T11:44:10Z</time>
      </trkpt>
      <trkpt lat="44.29254" lon="6.17967">
        <ele>1422.407959</ele>
        <time>2011-09-08T11:44:16Z</time>
      </trkpt>
      <trkpt lat="44.29258" lon="6.17966">
        <ele>1422.888672</ele>
        <time>2011-09-08T11:44:20Z</time>
      </trkpt>
      <trkpt lat="44.29301" lon="6.17974">
        <ele>1423.369385</ele>
        <time>2011-09-08T11:44:36Z</time>
      </trkpt>
      <trkpt lat="44.29352" lon="6.17983">
        <ele>1422.888672</ele>
        <time>2011-09-08T11:44:52Z</time>
      </trkpt>
      <trkpt lat="44.29374" lon="6.17997">
        <ele>1421.927246</ele>
        <time>2011-09-08T11:44:58Z</time>
      </trkpt>
      <trkpt lat="44.29387" lon="6.18007">
        <ele>1421.446533</ele>
        <time>2011-09-08T11:45:02Z</time>
      </trkpt>
      <trkpt lat="44.29421" lon="6.18022">
        <ele>1420.966064</ele>
        <time>2011-09-08T11:45:11Z</time>
      </trkpt>
      <trkpt lat="44.29459" lon="6.17983">
        <ele>1420.485352</ele>
        <time>2011-09-08T11:45:22Z</time>
      </trkpt>
      <trkpt lat="44.29465" lon="6.17967">
        <ele>1420.004639</ele>
        <time>2011-09-08T11:45:26Z</time>
      </trkpt>
      <trkpt lat="44.2948" lon="6.17948">
        <ele>1418.5625</ele>
        <time>2011-09-08T11:45:32Z</time>
      </trkpt>
      <trkpt lat="44.29537" lon="6.17926">
        <ele>1418.5625</ele>
        <time>2011-09-08T11:45:47Z</time>
      </trkpt>
      <trkpt lat="44.29563" lon="6.17919">
        <ele>1420.966064</ele>
        <time>2011-09-08T11:45:59Z</time>
      </trkpt>
      <trkpt lat="44.29598" lon="6.17901">
        <ele>1421.927246</ele>
        <time>2011-09-08T11:46:15Z</time>
      </trkpt>
      <trkpt lat="44.29619" lon="6.17854">
        <ele>1423.369385</ele>
        <time>2011-09-08T11:46:31Z</time>
      </trkpt>
      <trkpt lat="44.29599" lon="6.17802">
        <ele>1425.291748</ele>
        <time>2011-09-08T11:46:49Z</time>
      </trkpt>
      <trkpt lat="44.29595" lon="6.17792">
        <ele>1425.772461</ele>
        <time>2011-09-08T11:46:53Z</time>
      </trkpt>
      <trkpt lat="44.29591" lon="6.17779">
        <ele>1426.253174</ele>
        <time>2011-09-08T11:46:59Z</time>
      </trkpt>
      <trkpt lat="44.29589" lon="6.17756">
        <ele>1427.695068</ele>
        <time>2011-09-08T11:47:09Z</time>
      </trkpt>
      <trkpt lat="44.29589" lon="6.17747">
        <ele>1428.175781</ele>
        <time>2011-09-08T11:47:13Z</time>
      </trkpt>
      <trkpt lat="44.2959" lon="6.17742">
        <ele>1428.175781</ele>
        <time>2011-09-08T11:47:15Z</time>
      </trkpt>
      <trkpt lat="44.29585" lon="6.17703">
        <ele>1428.656494</ele>
        <time>2011-09-08T11:47:30Z</time>
      </trkpt>
      <trkpt lat="44.29561" lon="6.17681">
        <ele>1429.136963</ele>
        <time>2011-09-08T11:47:43Z</time>
      </trkpt>
      <trkpt lat="44.29526" lon="6.17647">
        <ele>1427.2146</ele>
        <time>2011-09-08T11:47:57Z</time>
      </trkpt>
      <trkpt lat="44.295" lon="6.17585">
        <ele>1426.253174</ele>
        <time>2011-09-08T11:48:14Z</time>
      </trkpt>
      <trkpt lat="44.29499" lon="6.17564">
        <ele>1424.811279</ele>
        <time>2011-09-08T11:48:18Z</time>
      </trkpt>
      <trkpt lat="44.29499" lon="6.17525">
        <ele>1421.446533</ele>
        <time>2011-09-08T11:48:26Z</time>
      </trkpt>
      <trkpt lat="44.29509" lon="6.17497">
        <ele>1420.966064</ele>
        <time>2011-09-08T11:48:33Z</time>
      </trkpt>
      <trkpt lat="44.29517" lon="6.17482">
        <ele>1420.485352</ele>
        <time>2011-09-08T11:48:36Z</time>
      </trkpt>
      <trkpt lat="44.29526" lon="6.17452">
        <ele>1419.043213</ele>
        <time>2011-09-08T11:48:41Z</time>
      </trkpt>
      <trkpt lat="44.29532" lon="6.1739">
        <ele>1417.601074</ele>
        <time>2011-09-08T11:48:51Z</time>
      </trkpt>
      <trkpt lat="44.29535" lon="6.17329">
        <ele>1418.5625</ele>
        <time>2011-09-08T11:49:04Z</time>
      </trkpt>
      <trkpt lat="44.29531" lon="6.1727">
        <ele>1420.485352</ele>
        <time>2011-09-08T11:49:22Z</time>
      </trkpt>
      <trkpt lat="44.29533" lon="6.17234">
        <ele>1422.407959</ele>
        <time>2011-09-08T11:49:41Z</time>
      </trkpt>
      <trkpt lat="44.29561" lon="6.17224">
        <ele>1421.446533</ele>
        <time>2011-09-08T11:49:54Z</time>
      </trkpt>
      <trkpt lat="44.29571" lon="6.17221">
        <ele>1421.927246</ele>
        <time>2011-09-08T11:49:58Z</time>
      </trkpt>
      <trkpt lat="44.29594" lon="6.1723">
        <ele>1420.485352</ele>
        <time>2011-09-08T11:50:06Z</time>
      </trkpt>
      <trkpt lat="44.29615" lon="6.17247">
        <ele>1419.043213</ele>
        <time>2011-09-08T11:50:13Z</time>
      </trkpt>
      <trkpt lat="44.29657" lon="6.17227">
        <ele>1419.523926</ele>
        <time>2011-09-08T11:50:24Z</time>
      </trkpt>
      <trkpt lat="44.29686" lon="6.17165">
        <ele>1419.523926</ele>
        <time>2011-09-08T11:50:38Z</time>
      </trkpt>
      <trkpt lat="44.2969" lon="6.17142">
        <ele>1417.120605</ele>
        <time>2011-09-08T11:50:44Z</time>
      </trkpt>
      <trkpt lat="44.29706" lon="6.17115">
        <ele>1414.717285</ele>
        <time>2011-09-08T11:50:51Z</time>
      </trkpt>
      <trkpt lat="44.29725" lon="6.17095">
        <ele>1412.794678</ele>
        <time>2011-09-08T11:50:58Z</time>
      </trkpt>
      <trkpt lat="44.29755" lon="6.1707">
        <ele>1408.949463</ele>
        <time>2011-09-08T11:51:08Z</time>
      </trkpt>
      <trkpt lat="44.29769" lon="6.17024">
        <ele>1405.584961</ele>
        <time>2011-09-08T11:51:17Z</time>
      </trkpt>
      <trkpt lat="44.29769" lon="6.17001">
        <ele>1403.662109</ele>
        <time>2011-09-08T11:51:21Z</time>
      </trkpt>
      <trkpt lat="44.29777" lon="6.16974">
        <ele>1401.258789</ele>
        <time>2011-09-08T11:51:27Z</time>
      </trkpt>
      <trkpt lat="44.29797" lon="6.16941">
        <ele>1398.374756</ele>
        <time>2011-09-08T11:51:35Z</time>
      </trkpt>
      <trkpt lat="44.29829" lon="6.16908">
        <ele>1395.490967</ele>
        <time>2011-09-08T11:51:43Z</time>
      </trkpt>
      <trkpt lat="44.29843" lon="6.16886">
        <ele>1395.490967</ele>
        <time>2011-09-08T11:51:48Z</time>
      </trkpt>
      <trkpt lat="44.29848" lon="6.16867">
        <ele>1395.010254</ele>
        <time>2011-09-08T11:51:51Z</time>
      </trkpt>
      <trkpt lat="44.29851" lon="6.16812">
        <ele>1394.529541</ele>
        <time>2011-09-08T11:52:00Z</time>
      </trkpt>
      <trkpt lat="44.29858" lon="6.16785">
        <ele>1393.087646</ele>
        <time>2011-09-08T11:52:05Z</time>
      </trkpt>
      <trkpt lat="44.29872" lon="6.16725">
        <ele>1389.723145</ele>
        <time>2011-09-08T11:52:13Z</time>
      </trkpt>
      <trkpt lat="44.2988" lon="6.16704">
        <ele>1388.761963</ele>
        <time>2011-09-08T11:52:17Z</time>
      </trkpt>
      <trkpt lat="44.29891" lon="6.16684">
        <ele>1387.800293</ele>
        <time>2011-09-08T11:52:21Z</time>
      </trkpt>
      <trkpt lat="44.29906" lon="6.16636">
        <ele>1384.435791</ele>
        <time>2011-09-08T11:52:29Z</time>
      </trkpt>
      <trkpt lat="44.29906" lon="6.16628">
        <ele>1384.435791</ele>
        <time>2011-09-08T11:52:30Z</time>
      </trkpt>
      <trkpt lat="44.29907" lon="6.16621">
        <ele>1383.474365</ele>
        <time>2011-09-08T11:52:31Z</time>
      </trkpt>
      <trkpt lat="44.29915" lon="6.16583">
        <ele>1383.474365</ele>
        <time>2011-09-08T11:52:39Z</time>
      </trkpt>
      <trkpt lat="44.29924" lon="6.16569">
        <ele>1382.513184</ele>
        <time>2011-09-08T11:52:43Z</time>
      </trkpt>
      <trkpt lat="44.29942" lon="6.16551">
        <ele>1380.590576</ele>
        <time>2011-09-08T11:52:48Z</time>
      </trkpt>
      <trkpt lat="44.29993" lon="6.16483">
        <ele>1379.62915</ele>
        <time>2011-09-08T11:53:03Z</time>
      </trkpt>
      <trkpt lat="44.30012" lon="6.16454">
        <ele>1378.667969</ele>
        <time>2011-09-08T11:53:09Z</time>
      </trkpt>
      <trkpt lat="44.30015" lon="6.16432">
        <ele>1377.226074</ele>
        <time>2011-09-08T11:53:12Z</time>
      </trkpt>
      <trkpt lat="44.30014" lon="6.16405">
        <ele>1376.264648</ele>
        <time>2011-09-08T11:53:16Z</time>
      </trkpt>
      <trkpt lat="44.30007" lon="6.16386">
        <ele>1374.822754</ele>
        <time>2011-09-08T11:53:19Z</time>
      </trkpt>
      <trkpt lat="44.3" lon="6.1637">
        <ele>1373.861328</ele>
        <time>2011-09-08T11:53:22Z</time>
      </trkpt>
      <trkpt lat="44.29995" lon="6.16359">
        <ele>1372.900146</ele>
        <time>2011-09-08T11:53:24Z</time>
      </trkpt>
      <trkpt lat="44.29988" lon="6.16339">
        <ele>1370.496582</ele>
        <time>2011-09-08T11:53:28Z</time>
      </trkpt>
      <trkpt lat="44.29988" lon="6.16336">
        <ele>1369.054688</ele>
        <time>2011-09-08T11:53:33Z</time>
      </trkpt>
      <trkpt lat="44.29986" lon="6.16329">
        <ele>1369.054688</ele>
        <time>2011-09-08T11:53:59Z</time>
      </trkpt>
      <trkpt lat="44.29986" lon="6.16321">
        <ele>1369.5354</ele>
        <time>2011-09-08T11:54:01Z</time>
      </trkpt>
      <trkpt lat="44.29988" lon="6.16304">
        <ele>1368.573975</ele>
        <time>2011-09-08T11:54:04Z</time>
      </trkpt>
      <trkpt lat="44.30003" lon="6.16262">
        <ele>1366.170654</ele>
        <time>2011-09-08T11:54:13Z</time>
      </trkpt>
      <trkpt lat="44.30012" lon="6.16257">
        <ele>1364.72876</ele>
        <time>2011-09-08T11:54:17Z</time>
      </trkpt>
      <trkpt lat="44.30032" lon="6.16252">
        <ele>1361.844971</ele>
        <time>2011-09-08T11:54:24Z</time>
      </trkpt>
      <trkpt lat="44.30064" lon="6.16256">
        <ele>1360.883545</ele>
        <time>2011-09-08T11:54:35Z</time>
      </trkpt>
      <trkpt lat="44.30099" lon="6.16252">
        <ele>1359.44165</ele>
        <time>2011-09-08T11:54:48Z</time>
      </trkpt>
      <trkpt lat="44.30124" lon="6.16234">
        <ele>1358.960938</ele>
        <time>2011-09-08T11:54:56Z</time>
      </trkpt>
      <trkpt lat="44.30151" lon="6.16239">
        <ele>1358.960938</ele>
        <time>2011-09-08T11:55:07Z</time>
      </trkpt>
      <trkpt lat="44.30172" lon="6.16221">
        <ele>1357.999756</ele>
        <time>2011-09-08T11:55:12Z</time>
      </trkpt>
      <trkpt lat="44.30191" lon="6.16192">
        <ele>1356.557617</ele>
        <time>2011-09-08T11:55:18Z</time>
      </trkpt>
      <trkpt lat="44.30212" lon="6.16154">
        <ele>1355.596191</ele>
        <time>2011-09-08T11:55:28Z</time>
      </trkpt>
      <trkpt lat="44.30222" lon="6.16105">
        <ele>1353.673584</ele>
        <time>2011-09-08T11:55:38Z</time>
      </trkpt>
      <trkpt lat="44.30232" lon="6.16054">
        <ele>1350.309082</ele>
        <time>2011-09-08T11:55:48Z</time>
      </trkpt>
      <trkpt lat="44.30237" lon="6.16038">
        <ele>1348.38623</ele>
        <time>2011-09-08T11:55:51Z</time>
      </trkpt>
      <trkpt lat="44.30253" lon="6.15989">
        <ele>1346.944336</ele>
        <time>2011-09-08T11:55:59Z</time>
      </trkpt>
      <trkpt lat="44.30283" lon="6.15957">
        <ele>1345.983154</ele>
        <time>2011-09-08T11:56:10Z</time>
      </trkpt>
      <trkpt lat="44.30299" lon="6.15941">
        <ele>1345.502441</ele>
        <time>2011-09-08T11:56:15Z</time>
      </trkpt>
      <trkpt lat="44.30348" lon="6.15957">
        <ele>1345.983154</ele>
        <time>2011-09-08T11:56:30Z</time>
      </trkpt>
      <trkpt lat="44.30381" lon="6.15921">
        <ele>1345.983154</ele>
        <time>2011-09-08T11:56:41Z</time>
      </trkpt>
      <trkpt lat="44.30422" lon="6.15846">
        <ele>1344.541016</ele>
        <time>2011-09-08T11:56:59Z</time>
      </trkpt>
      <trkpt lat="44.3043" lon="6.15792">
        <ele>1341.657227</ele>
        <time>2011-09-08T11:57:09Z</time>
      </trkpt>
      <trkpt lat="44.30439" lon="6.15764">
        <ele>1338.773193</ele>
        <time>2011-09-08T11:57:19Z</time>
      </trkpt>
      <trkpt lat="44.3044" lon="6.15763">
        <ele>1338.773193</ele>
        <time>2011-09-08T11:57:20Z</time>
      </trkpt>
      <trkpt lat="44.30445" lon="6.15727">
        <ele>1335.408447</ele>
        <time>2011-09-08T11:57:30Z</time>
      </trkpt>
      <trkpt lat="44.30443" lon="6.15679">
        <ele>1332.524658</ele>
        <time>2011-09-08T11:57:44Z</time>
      </trkpt>
      <trkpt lat="44.30443" lon="6.15654">
        <ele>1330.121338</ele>
        <time>2011-09-08T11:57:50Z</time>
      </trkpt>
      <trkpt lat="44.30443" lon="6.15646">
        <ele>1328.679443</ele>
        <time>2011-09-08T11:57:52Z</time>
      </trkpt>
      <trkpt lat="44.30443" lon="6.15639">
        <ele>1327.718018</ele>
        <time>2011-09-08T11:57:54Z</time>
      </trkpt>
      <trkpt lat="44.30443" lon="6.1563">
        <ele>1326.756836</ele>
        <time>2011-09-08T11:57:57Z</time>
      </trkpt>
      <trkpt lat="44.30443" lon="6.15617">
        <ele>1325.314697</ele>
        <time>2011-09-08T11:58:01Z</time>
      </trkpt>
      <trkpt lat="44.30448" lon="6.15589">
        <ele>1322.430664</ele>
        <time>2011-09-08T11:58:10Z</time>
      </trkpt>
      <trkpt lat="44.30453" lon="6.15553">
        <ele>1319.546875</ele>
        <time>2011-09-08T11:58:20Z</time>
      </trkpt>
      <trkpt lat="44.30462" lon="6.15509">
        <ele>1317.143555</ele>
        <time>2011-09-08T11:58:33Z</time>
      </trkpt>
      <trkpt lat="44.30466" lon="6.1544">
        <ele>1316.662842</ele>
        <time>2011-09-08T11:58:45Z</time>
      </trkpt>
      <trkpt lat="44.30466" lon="6.15358">
        <ele>1314.740234</ele>
        <time>2011-09-08T11:59:01Z</time>
      </trkpt>
      <trkpt lat="44.30465" lon="6.15335">
        <ele>1313.29834</ele>
        <time>2011-09-08T11:59:06Z</time>
      </trkpt>
      <trkpt lat="44.30465" lon="6.15328">
        <ele>1311.856445</ele>
        <time>2011-09-08T11:59:11Z</time>
      </trkpt>
      <trkpt lat="44.30465" lon="6.15328">
        <ele>1311.856445</ele>
        <time>2011-09-08T11:59:13Z</time>
      </trkpt>
      <trkpt lat="44.3046" lon="6.15326">
        <ele>1311.856445</ele>
        <time>2011-09-08T11:59:17Z</time>
      </trkpt>
      <trkpt lat="44.30475" lon="6.15303">
        <ele>1309.453125</ele>
        <time>2011-09-08T11:59:25Z</time>
      </trkpt>
      <trkpt lat="44.30478" lon="6.1529">
        <ele>1309.453125</ele>
        <time>2011-09-08T11:59:28Z</time>
      </trkpt>
      <trkpt lat="44.30481" lon="6.15279">
        <ele>1307.530273</ele>
        <time>2011-09-08T11:59:32Z</time>
      </trkpt>
      <trkpt lat="44.30491" lon="6.1526">
        <ele>1306.088135</ele>
        <time>2011-09-08T11:59:37Z</time>
      </trkpt>
      <trkpt lat="44.30491" lon="6.15225">
        <ele>1303.685059</ele>
        <time>2011-09-08T11:59:43Z</time>
      </trkpt>
      <trkpt lat="44.30493" lon="6.1517">
        <ele>1302.24292</ele>
        <time>2011-09-08T11:59:55Z</time>
      </trkpt>
      <trkpt lat="44.30501" lon="6.15131">
        <ele>1300.801025</ele>
        <time>2011-09-08T12:00:06Z</time>
      </trkpt>
      <trkpt lat="44.30487" lon="6.15118">
        <ele>1301.281738</ele>
        <time>2011-09-08T12:00:12Z</time>
      </trkpt>
      <trkpt lat="44.30481" lon="6.15104">
        <ele>1299.359131</ele>
        <time>2011-09-08T12:00:16Z</time>
      </trkpt>
      <trkpt lat="44.30478" lon="6.151">
        <ele>1298.878418</ele>
        <time>2011-09-08T12:00:17Z</time>
      </trkpt>
      <trkpt lat="44.30468" lon="6.15071">
        <ele>1298.397705</ele>
        <time>2011-09-08T12:00:23Z</time>
      </trkpt>
      <trkpt lat="44.30473" lon="6.15047">
        <ele>1299.839844</ele>
        <time>2011-09-08T12:00:27Z</time>
      </trkpt>
      <trkpt lat="44.30473" lon="6.15041">
        <ele>1298.397705</ele>
        <time>2011-09-08T12:00:28Z</time>
      </trkpt>
      <trkpt lat="44.30475" lon="6.15031">
        <ele>1298.878418</ele>
        <time>2011-09-08T12:00:32Z</time>
      </trkpt>
      <trkpt lat="44.30494" lon="6.15012">
        <ele>1297.917236</ele>
        <time>2011-09-08T12:00:43Z</time>
      </trkpt>
      <trkpt lat="44.30509" lon="6.15003">
        <ele>1295.033203</ele>
        <time>2011-09-08T12:00:57Z</time>
      </trkpt>
      <trkpt lat="44.30509" lon="6.15003">
        <ele>1294.072021</ele>
        <time>2011-09-08T12:01:33Z</time>
      </trkpt>
      <trkpt lat="44.30509" lon="6.15003">
        <ele>1290.226563</ele>
        <time>2011-09-08T12:01:47Z</time>
      </trkpt>
      <trkpt lat="44.30509" lon="6.15003">
        <ele>1288.784668</ele>
        <time>2011-09-08T12:01:52Z</time>
      </trkpt>
      <trkpt lat="44.3053" lon="6.14978">
        <ele>1287.823242</ele>
        <time>2011-09-08T12:02:00Z</time>
      </trkpt>
      <trkpt lat="44.305" lon="6.15002">
        <ele>1286.381348</ele>
        <time>2011-09-08T12:02:04Z</time>
      </trkpt>
      <trkpt lat="44.30553" lon="6.14966">
        <ele>1283.978027</ele>
        <time>2011-09-08T12:02:12Z</time>
      </trkpt>
      <trkpt lat="44.30582" lon="6.14975">
        <ele>1280.613525</ele>
        <time>2011-09-08T12:02:22Z</time>
      </trkpt>
      <trkpt lat="44.30587" lon="6.14975">
        <ele>1280.613525</ele>
        <time>2011-09-08T12:02:23Z</time>
      </trkpt>
      <trkpt lat="44.3059" lon="6.14958">
        <ele>1280.613525</ele>
        <time>2011-09-08T12:02:25Z</time>
      </trkpt>
      <trkpt lat="44.30594" lon="6.14946">
        <ele>1279.171387</ele>
        <time>2011-09-08T12:02:28Z</time>
      </trkpt>
      <trkpt lat="44.30602" lon="6.14924">
        <ele>1278.210205</ele>
        <time>2011-09-08T12:02:34Z</time>
      </trkpt>
      <trkpt lat="44.30613" lon="6.14914">
        <ele>1276.768311</ele>
        <time>2011-09-08T12:02:37Z</time>
      </trkpt>
      <trkpt lat="44.3064" lon="6.149">
        <ele>1275.325928</ele>
        <time>2011-09-08T12:02:43Z</time>
      </trkpt>
      <trkpt lat="44.30649" lon="6.14867">
        <ele>1273.403564</ele>
        <time>2011-09-08T12:02:52Z</time>
      </trkpt>
      <trkpt lat="44.3065" lon="6.14855">
        <ele>1271.961426</ele>
        <time>2011-09-08T12:02:58Z</time>
      </trkpt>
      <trkpt lat="44.30656" lon="6.14827">
        <ele>1270.038818</ele>
        <time>2011-09-08T12:03:06Z</time>
      </trkpt>
      <trkpt lat="44.30672" lon="6.14784">
        <ele>1269.077637</ele>
        <time>2011-09-08T12:03:15Z</time>
      </trkpt>
      <trkpt lat="44.30677" lon="6.14781">
        <ele>1269.077637</ele>
        <time>2011-09-08T12:03:16Z</time>
      </trkpt>
      <trkpt lat="44.3071" lon="6.14765">
        <ele>1264.270996</ele>
        <time>2011-09-08T12:03:27Z</time>
      </trkpt>
      <trkpt lat="44.30727" lon="6.14761">
        <ele>1263.309814</ele>
        <time>2011-09-08T12:03:34Z</time>
      </trkpt>
      <trkpt lat="44.30728" lon="6.14777">
        <ele>1261.86792</ele>
        <time>2011-09-08T12:03:42Z</time>
      </trkpt>
      <trkpt lat="44.30713" lon="6.14819">
        <ele>1258.983643</ele>
        <time>2011-09-08T12:03:57Z</time>
      </trkpt>
      <trkpt lat="44.30716" lon="6.14852">
        <ele>1256.580322</ele>
        <time>2011-09-08T12:04:09Z</time>
      </trkpt>
      <trkpt lat="44.30724" lon="6.14851">
        <ele>1255.138428</ele>
        <time>2011-09-08T12:04:12Z</time>
      </trkpt>
      <trkpt lat="44.30725" lon="6.1485">
        <ele>1255.138428</ele>
        <time>2011-09-08T12:04:14Z</time>
      </trkpt>
      <trkpt lat="44.30751" lon="6.14846">
        <ele>1250.8125</ele>
        <time>2011-09-08T12:04:27Z</time>
      </trkpt>
      <trkpt lat="44.30767" lon="6.1485">
        <ele>1250.332031</ele>
        <time>2011-09-08T12:04:30Z</time>
      </trkpt>
      <trkpt lat="44.30781" lon="6.14845">
        <ele>1247.447998</ele>
        <time>2011-09-08T12:04:40Z</time>
      </trkpt>
      <trkpt lat="44.30796" lon="6.1484">
        <ele>1244.563965</ele>
        <time>2011-09-08T12:04:51Z</time>
      </trkpt>
      <trkpt lat="44.30813" lon="6.14843">
        <ele>1241.679932</ele>
        <time>2011-09-08T12:05:03Z</time>
      </trkpt>
      <trkpt lat="44.30824" lon="6.14838">
        <ele>1240.718506</ele>
        <time>2011-09-08T12:05:07Z</time>
      </trkpt>
      <trkpt lat="44.30827" lon="6.14838">
        <ele>1239.757324</ele>
        <time>2011-09-08T12:05:09Z</time>
      </trkpt>
      <trkpt lat="44.30829" lon="6.14824">
        <ele>1239.276611</ele>
        <time>2011-09-08T12:05:21Z</time>
      </trkpt>
      <trkpt lat="44.30838" lon="6.14817">
        <ele>1237.834717</ele>
        <time>2011-09-08T12:05:36Z</time>
      </trkpt>
      <trkpt lat="44.30844" lon="6.14817">
        <ele>1236.873291</ele>
        <time>2011-09-08T12:05:38Z</time>
      </trkpt>
      <trkpt lat="44.30848" lon="6.1482">
        <ele>1235.912109</ele>
        <time>2011-09-08T12:05:40Z</time>
      </trkpt>
      <trkpt lat="44.30859" lon="6.14842">
        <ele>1232.066895</ele>
        <time>2011-09-08T12:05:46Z</time>
      </trkpt>
      <trkpt lat="44.30861" lon="6.14846">
        <ele>1232.066895</ele>
        <time>2011-09-08T12:05:47Z</time>
      </trkpt>
      <trkpt lat="44.3088" lon="6.14863">
        <ele>1229.182861</ele>
        <time>2011-09-08T12:05:52Z</time>
      </trkpt>
      <trkpt lat="44.30884" lon="6.14874">
        <ele>1228.22168</ele>
        <time>2011-09-08T12:05:54Z</time>
      </trkpt>
      <trkpt lat="44.30887" lon="6.14933">
        <ele>1224.856934</ele>
        <time>2011-09-08T12:06:06Z</time>
      </trkpt>
      <trkpt lat="44.30887" lon="6.14942">
        <ele>1224.856934</ele>
        <time>2011-09-08T12:06:07Z</time>
      </trkpt>
      <trkpt lat="44.30894" lon="6.14978">
        <ele>1224.376221</ele>
        <time>2011-09-08T12:06:13Z</time>
      </trkpt>
      <trkpt lat="44.30892" lon="6.14994">
        <ele>1224.376221</ele>
        <time>2011-09-08T12:06:16Z</time>
      </trkpt>
      <trkpt lat="44.30887" lon="6.15022">
        <ele>1222.934326</ele>
        <time>2011-09-08T12:06:20Z</time>
      </trkpt>
      <trkpt lat="44.30886" lon="6.1506">
        <ele>1219.569824</ele>
        <time>2011-09-08T12:06:30Z</time>
      </trkpt>
      <trkpt lat="44.30892" lon="6.15078">
        <ele>1217.166504</ele>
        <time>2011-09-08T12:06:35Z</time>
      </trkpt>
      <trkpt lat="44.30893" lon="6.15083">
        <ele>1216.205078</ele>
        <time>2011-09-08T12:06:36Z</time>
      </trkpt>
      <trkpt lat="44.30897" lon="6.15098">
        <ele>1213.321289</ele>
        <time>2011-09-08T12:06:40Z</time>
      </trkpt>
      <trkpt lat="44.30898" lon="6.15102">
        <ele>1212.359863</ele>
        <time>2011-09-08T12:06:41Z</time>
      </trkpt>
      <trkpt lat="44.30898" lon="6.15125">
        <ele>1213.801758</ele>
        <time>2011-09-08T12:06:44Z</time>
      </trkpt>
      <trkpt lat="44.30892" lon="6.15136">
        <ele>1212.359863</ele>
        <time>2011-09-08T12:06:47Z</time>
      </trkpt>
      <trkpt lat="44.30887" lon="6.15148">
        <ele>1211.398438</ele>
        <time>2011-09-08T12:06:49Z</time>
      </trkpt>
      <trkpt lat="44.30874" lon="6.15177">
        <ele>1210.437012</ele>
        <time>2011-09-08T12:06:53Z</time>
      </trkpt>
      <trkpt lat="44.30862" lon="6.15195">
        <ele>1209.47583</ele>
        <time>2011-09-08T12:06:56Z</time>
      </trkpt>
      <trkpt lat="44.30861" lon="6.15219">
        <ele>1208.995117</ele>
        <time>2011-09-08T12:07:00Z</time>
      </trkpt>
      <trkpt lat="44.30861" lon="6.15239">
        <ele>1208.033936</ele>
        <time>2011-09-08T12:07:03Z</time>
      </trkpt>
      <trkpt lat="44.30865" lon="6.15271">
        <ele>1206.591797</ele>
        <time>2011-09-08T12:07:07Z</time>
      </trkpt>
      <trkpt lat="44.30871" lon="6.15302">
        <ele>1205.149902</ele>
        <time>2011-09-08T12:07:10Z</time>
      </trkpt>
      <trkpt lat="44.30881" lon="6.15327">
        <ele>1203.708008</ele>
        <time>2011-09-08T12:07:13Z</time>
      </trkpt>
      <trkpt lat="44.30893" lon="6.15348">
        <ele>1201.304688</ele>
        <time>2011-09-08T12:07:15Z</time>
      </trkpt>
      <trkpt lat="44.30903" lon="6.15365">
        <ele>1200.823975</ele>
        <time>2011-09-08T12:07:17Z</time>
      </trkpt>
      <trkpt lat="44.30931" lon="6.15396">
        <ele>1197.459473</ele>
        <time>2011-09-08T12:07:21Z</time>
      </trkpt>
      <trkpt lat="44.30961" lon="6.15411">
        <ele>1194.094727</ele>
        <time>2011-09-08T12:07:25Z</time>
      </trkpt>
      <trkpt lat="44.31008" lon="6.15413">
        <ele>1189.768799</ele>
        <time>2011-09-08T12:07:30Z</time>
      </trkpt>
      <trkpt lat="44.31017" lon="6.15413">
        <ele>1189.768799</ele>
        <time>2011-09-08T12:07:31Z</time>
      </trkpt>
      <trkpt lat="44.31032" lon="6.15414">
        <ele>1188.326904</ele>
        <time>2011-09-08T12:07:33Z</time>
      </trkpt>
      <trkpt lat="44.31039" lon="6.15414">
        <ele>1187.846191</ele>
        <time>2011-09-08T12:07:34Z</time>
      </trkpt>
      <trkpt lat="44.31056" lon="6.15411">
        <ele>1183.520264</ele>
        <time>2011-09-08T12:07:37Z</time>
      </trkpt>
      <trkpt lat="44.31061" lon="6.15404">
        <ele>1183.520264</ele>
        <time>2011-09-08T12:07:38Z</time>
      </trkpt>
      <trkpt lat="44.31065" lon="6.15392">
        <ele>1183.039551</ele>
        <time>2011-09-08T12:07:40Z</time>
      </trkpt>
      <trkpt lat="44.31091" lon="6.154">
        <ele>1179.674805</ele>
        <time>2011-09-08T12:07:44Z</time>
      </trkpt>
      <trkpt lat="44.31098" lon="6.15404">
        <ele>1179.674805</ele>
        <time>2011-09-08T12:07:45Z</time>
      </trkpt>
      <trkpt lat="44.3111" lon="6.15413">
        <ele>1176.791016</ele>
        <time>2011-09-08T12:07:47Z</time>
      </trkpt>
      <trkpt lat="44.31127" lon="6.15422">
        <ele>1173.906982</ele>
        <time>2011-09-08T12:07:51Z</time>
      </trkpt>
      <trkpt lat="44.31131" lon="6.15424">
        <ele>1171.984375</ele>
        <time>2011-09-08T12:07:54Z</time>
      </trkpt>
      <trkpt lat="44.31132" lon="6.15424">
        <ele>1171.023193</ele>
        <time>2011-09-08T12:07:55Z</time>
      </trkpt>
      <trkpt lat="44.31152" lon="6.1542">
        <ele>1168.13916</ele>
        <time>2011-09-08T12:07:58Z</time>
      </trkpt>
      <trkpt lat="44.31158" lon="6.15413">
        <ele>1168.13916</ele>
        <time>2011-09-08T12:07:59Z</time>
      </trkpt>
      <trkpt lat="44.31202" lon="6.15391">
        <ele>1164.774658</ele>
        <time>2011-09-08T12:08:02Z</time>
      </trkpt>
      <trkpt lat="44.31203" lon="6.1539">
        <ele>1164.774658</ele>
        <time>2011-09-08T12:08:03Z</time>
      </trkpt>
      <trkpt lat="44.31191" lon="6.15371">
        <ele>1162.851807</ele>
        <time>2011-09-08T12:08:04Z</time>
      </trkpt>
      <trkpt lat="44.31207" lon="6.15343">
        <ele>1162.851807</ele>
        <time>2011-09-08T12:08:07Z</time>
      </trkpt>
      <trkpt lat="44.31214" lon="6.1533">
        <ele>1161.890625</ele>
        <time>2011-09-08T12:08:12Z</time>
      </trkpt>
      <trkpt lat="44.31222" lon="6.15353">
        <ele>1160.448486</ele>
        <time>2011-09-08T12:08:15Z</time>
      </trkpt>
      <trkpt lat="44.31191" lon="6.15371">
        <ele>1160.448486</ele>
        <time>2011-09-08T12:08:19Z</time>
      </trkpt>
      <trkpt lat="44.31195" lon="6.15415">
        <ele>1156.603271</ele>
        <time>2011-09-08T12:08:22Z</time>
      </trkpt>
      <trkpt lat="44.31188" lon="6.15432">
        <ele>1154.680664</ele>
        <time>2011-09-08T12:08:24Z</time>
      </trkpt>
      <trkpt lat="44.31178" lon="6.15453">
        <ele>1152.758057</ele>
        <time>2011-09-08T12:08:27Z</time>
      </trkpt>
      <trkpt lat="44.31147" lon="6.15425">
        <ele>1150.835449</ele>
        <time>2011-09-08T12:08:32Z</time>
      </trkpt>
      <trkpt lat="44.31132" lon="6.15456">
        <ele>1148.432129</ele>
        <time>2011-09-08T12:08:36Z</time>
      </trkpt>
      <trkpt lat="44.31131" lon="6.15424">
        <ele>1146.98999</ele>
        <time>2011-09-08T12:08:38Z</time>
      </trkpt>
      <trkpt lat="44.31119" lon="6.15418">
        <ele>1145.067383</ele>
        <time>2011-09-08T12:08:40Z</time>
      </trkpt>
      <trkpt lat="44.31116" lon="6.15417">
        <ele>1143.625488</ele>
        <time>2011-09-08T12:08:41Z</time>
      </trkpt>
      <trkpt lat="44.31107" lon="6.1541">
        <ele>1142.664307</ele>
        <time>2011-09-08T12:08:45Z</time>
      </trkpt>
      <trkpt lat="44.31101" lon="6.15406">
        <ele>1141.702881</ele>
        <time>2011-09-08T12:08:47Z</time>
      </trkpt>
      <trkpt lat="44.31095" lon="6.15402">
        <ele>1140.260986</ele>
        <time>2011-09-08T12:08:49Z</time>
      </trkpt>
      <trkpt lat="44.31088" lon="6.15397">
        <ele>1139.780273</ele>
        <time>2011-09-08T12:08:54Z</time>
      </trkpt>
      <trkpt lat="44.31113" lon="6.15332">
        <ele>1136.89624</ele>
        <time>2011-09-08T12:08:56Z</time>
      </trkpt>
      <trkpt lat="44.31115" lon="6.15415">
        <ele>1134.493164</ele>
        <time>2011-09-08T12:09:02Z</time>
      </trkpt>
      <trkpt lat="44.31126" lon="6.15422">
        <ele>1134.012451</ele>
        <time>2011-09-08T12:09:04Z</time>
      </trkpt>
      <trkpt lat="44.31134" lon="6.15426">
        <ele>1133.051025</ele>
        <time>2011-09-08T12:09:06Z</time>
      </trkpt>
      <trkpt lat="44.31157" lon="6.15414">
        <ele>1129.205566</ele>
        <time>2011-09-08T12:09:11Z</time>
      </trkpt>
      <trkpt lat="44.31163" lon="6.15406">
        <ele>1128.725098</ele>
        <time>2011-09-08T12:09:13Z</time>
      </trkpt>
      <trkpt lat="44.31207" lon="6.15379">
        <ele>1124.39917</ele>
        <time>2011-09-08T12:09:19Z</time>
      </trkpt>
      <trkpt lat="44.31145" lon="6.153">
        <ele>1124.39917</ele>
        <time>2011-09-08T12:09:20Z</time>
      </trkpt>
      <trkpt lat="44.31143" lon="6.15296">
        <ele>1124.39917</ele>
        <time>2011-09-08T12:09:21Z</time>
      </trkpt>
      <trkpt lat="44.31133" lon="6.15283">
        <ele>1122.957275</ele>
        <time>2011-09-08T12:09:24Z</time>
      </trkpt>
      <trkpt lat="44.31207" lon="6.1519">
        <ele>1120.073242</ele>
        <time>2011-09-08T12:09:27Z</time>
      </trkpt>
    </trkseg>
  </trk>
</gpx>